Darstellungsparameter: Aktuell verwendete Einstellungen:
Skalierung der Graphiken ... ?
xyx+y,   Skalierungsfaktor:      Skalierung: Modus: x, Faktor: 1
Darstellungszeitraum ... ?
Vom - - bis: - -   Zeitraum: 02.02.2004 - 01.08.2004
Min/Max/Avg-Anzeige ... ?
Zeige MMA aktuell
Zeige MMA Monat
Zeige MMA alles
Zeige --A aktuell
Zeige --A Monat
Zeige --A alles
Keine MMA-Anzeige
MMA:
Minimum Maximum Average (ber die Originaldaten)
MMA-Basis: 02.02.2004 - 01.08.2004
Quicknavigation für Darstellung... ?
Tage:      1T, 2T, 3T, 5T -1T -2T -3T -5T +1T +2T +3T +5T
Wochen: 1W, 2W, 3W -1W -2W -3W +1W +2W +3W
Monate: 1M, 3M, 6M -1M -3M -6M +1M +3M +6M
Jahre:    1J, 3J, 5J, 10J -1J -3J -5J -10J +1J +3J +5J +10J
Nutze für die Darstellung ... ?
Originaldaten oder Mittelwerte auf ...
Stundenbasis Tagesbasis Wochenbasis
Monatsbasis Jahresbasis      Datenbasis: Original-Daten
Darstellen als:
Statistik (Auto) Statistik J:M      Darstellung:
Zur Graphik,    zurück zur Übersicht aller Sensoren.
 
Tabellarische Datenbersicht: ?
 
Sensor: Nr:Datum:Temp:Feuchte:Taupunkt:
Aussen-T/F 1 02-02-2004 00:01:01 11.6 C 61 % 4.35 C
2 02-02-2004 00:13:01 11.7 C 59 % 3.97 C
3 02-02-2004 00:25:01 11.6 C 60 % 4.11 C
4 02-02-2004 00:37:00 11.6 C 60 % 4.11 C
5 02-02-2004 00:49:00 11.5 C 61 % 4.25 C
6 02-02-2004 01:01:00 11.5 C 62 % 4.48 C
7 02-02-2004 01:13:59 11.5 C 62 % 4.48 C
8 02-02-2004 01:25:59 11.7 C 62 % 4.67 C
9 02-02-2004 01:37:01 11.6 C 62 % 4.58 C
10 02-02-2004 01:49:01 11.8 C 61 % 4.53 C
11 02-02-2004 02:01:01 12 C 60 % 4.49 C
12 02-02-2004 02:13:01 12.1 C 59 % 4.34 C
13 02-02-2004 02:25:01 11.8 C 61 % 4.53 C
14 02-02-2004 02:38:01 12.1 C 59 % 4.34 C
15 02-02-2004 02:50:01 12 C 58 % 4 C
16 02-02-2004 03:02:01 12 C 58 % 4 C
17 02-02-2004 03:14:00 12.1 C 57 % 3.85 C
18 02-02-2004 03:26:00 12.1 C 57 % 3.85 C
19 02-02-2004 03:38:00 12 C 57 % 3.76 C
20 02-02-2004 03:50:00 12 C 57 % 3.76 C
21 02-02-2004 04:02:00 12 C 57 % 3.76 C
22 02-02-2004 04:14:00 12.1 C 58 % 4.1 C
23 02-02-2004 04:26:00 11.9 C 58 % 3.91 C
24 02-02-2004 04:38:01 11.9 C 58 % 3.91 C
25 02-02-2004 04:50:01 12.1 C 57 % 3.85 C
Sensor: Nr:Datum:Temp:Feuchte:Taupunkt:
Aussen-T/F 26 02-02-2004 05:02:01 11.8 C 59 % 4.06 C
27 02-02-2004 05:14:01 11.8 C 59 % 4.06 C
28 02-02-2004 05:26:01 11.7 C 59 % 3.97 C
29 02-02-2004 05:38:01 11.8 C 59 % 4.06 C
30 02-02-2004 05:50:01 11.7 C 59 % 3.97 C
31 02-02-2004 06:02:01 11.7 C 59 % 3.97 C
32 02-02-2004 06:14:01 11.8 C 59 % 4.06 C
33 02-02-2004 06:26:01 11.8 C 59 % 4.06 C
34 02-02-2004 06:38:00 11.8 C 59 % 4.06 C
35 02-02-2004 06:50:00 11.8 C 59 % 4.06 C
36 02-02-2004 07:02:58 11.6 C 60 % 4.11 C
37 02-02-2004 07:14:58 11.6 C 60 % 4.11 C
38 02-02-2004 07:26:58 11.5 C 60 % 4.02 C
39 02-02-2004 07:38:01 11.6 C 60 % 4.11 C
40 02-02-2004 07:50:01 11.4 C 60 % 3.92 C
41 02-02-2004 08:02:01 11.4 C 61 % 4.16 C
42 02-02-2004 08:14:01 11.2 C 61 % 3.97 C
43 02-02-2004 08:26:01 11.3 C 61 % 4.06 C
44 02-02-2004 08:38:00 11.2 C 61 % 3.97 C
45 02-02-2004 08:50:00 11.2 C 61 % 3.97 C
46 02-02-2004 09:02:59 11.2 C 61 % 3.97 C
47 02-02-2004 09:14:59 11.4 C 61 % 4.16 C
48 02-02-2004 09:26:59 11.4 C 61 % 4.16 C
49 02-02-2004 09:38:01 11.4 C 61 % 4.16 C
50 02-02-2004 09:50:01 11.4 C 61 % 4.16 C
Sensor: Nr:Datum:Temp:Feuchte:Taupunkt:
Aussen-T/F 51 02-02-2004 10:02:01 11.4 C 61 % 4.16 C
52 02-02-2004 10:14:01 11.1 C 64 % 4.56 C
53 02-02-2004 10:26:01 10.8 C 68 % 5.14 C
54 02-02-2004 10:38:00 10.4 C 71 % 5.38 C
55 02-02-2004 10:50:00 10.1 C 74 % 5.68 C
56 02-02-2004 11:02:59 10 C 77 % 6.16 C
57 02-02-2004 11:14:59 9.9 C 78 % 6.25 C
58 02-02-2004 11:26:59 10 C 78 % 6.35 C
59 02-02-2004 11:38:01 10 C 77 % 6.16 C
60 02-02-2004 11:50:01 10 C 78 % 6.35 C
61 02-02-2004 12:02:01 9.9 C 79 % 6.43 C
62 02-02-2004 12:14:01 10 C 78 % 6.35 C
63 02-02-2004 12:26:01 10 C 78 % 6.35 C
64 02-02-2004 12:38:01 10.1 C 77 % 6.26 C
65 02-02-2004 12:50:01 10.3 C 75 % 6.07 C
66 02-02-2004 13:02:01 10.4 C 74 % 5.97 C
67 02-02-2004 13:14:01 10.5 C 74 % 6.07 C
68 02-02-2004 13:26:01 10.5 C 74 % 6.07 C
69 02-02-2004 13:38:00 10.6 C 74 % 6.17 C
70 02-02-2004 13:50:00 10.7 C 74 % 6.26 C
71 02-02-2004 14:02:58 10.8 C 73 % 6.16 C
72 02-02-2004 14:14:58 11 C 72 % 6.15 C
73 02-02-2004 14:26:58 11 C 72 % 6.15 C
74 02-02-2004 14:38:01 11 C 71 % 5.95 C
75 02-02-2004 14:50:01 11.1 C 71 % 6.05 C
Sensor: Nr:Datum:Temp:Feuchte:Taupunkt:
Aussen-T/F 76 02-02-2004 15:02:01 11.1 C 71 % 6.05 C
77 02-02-2004 15:14:01 11.1 C 71 % 6.05 C
78 02-02-2004 15:26:01 11.1 C 71 % 6.05 C
79 02-02-2004 15:38:00 11.1 C 72 % 6.25 C
80 02-02-2004 15:50:00 11.2 C 71 % 6.14 C
81 02-02-2004 16:02:59 11.2 C 72 % 6.35 C
82 02-02-2004 16:14:59 11.2 C 72 % 6.35 C
83 02-02-2004 16:26:59 11.2 C 72 % 6.35 C
84 02-02-2004 16:38:01 11.1 C 72 % 6.25 C
85 02-02-2004 16:50:01 11.2 C 72 % 6.35 C
86 02-02-2004 17:02:02 11.1 C 72 % 6.25 C
87 02-02-2004 17:14:02 11.2 C 72 % 6.35 C
88 02-02-2004 17:26:02 11.1 C 72 % 6.25 C
89 02-02-2004 17:38:00 11.2 C 73 % 6.55 C
90 02-02-2004 17:50:00 11.2 C 73 % 6.55 C
91 02-02-2004 18:02:58 11.2 C 73 % 6.55 C
92 02-02-2004 18:14:58 11.2 C 73 % 6.55 C
93 02-02-2004 18:26:58 11.2 C 73 % 6.55 C
94 02-02-2004 18:38:01 11.2 C 73 % 6.55 C
95 02-02-2004 18:50:01 11.2 C 73 % 6.55 C
96 02-02-2004 19:02:01 11.2 C 73 % 6.55 C
97 02-02-2004 19:14:01 11.2 C 73 % 6.55 C
98 02-02-2004 19:26:01 11.2 C 73 % 6.55 C
99 02-02-2004 19:38:01 11.2 C 73 % 6.55 C
100 02-02-2004 19:50:01 11.2 C 73 % 6.55 C
Sensor: Nr:Datum:Temp:Feuchte:Taupunkt:
Aussen-T/F 101 02-02-2004 20:02:01 11.2 C 73 % 6.55 C
102 02-02-2004 20:14:01 11.2 C 73 % 6.55 C
103 02-02-2004 20:26:01 11 C 72 % 6.15 C
104 02-02-2004 20:38:00 11.1 C 71 % 6.05 C
105 02-02-2004 20:50:00 11.3 C 70 % 6.03 C
106 02-02-2004 21:02:59 11.3 C 70 % 6.03 C
107 02-02-2004 21:14:59 11.3 C 70 % 6.03 C
108 02-02-2004 21:26:59 11.1 C 70 % 5.84 C
109 02-02-2004 21:38:01 10.8 C 71 % 5.76 C
110 02-02-2004 21:50:01 10.9 C 72 % 6.06 C
111 02-02-2004 22:02:01 10.9 C 71 % 5.86 C
112 02-02-2004 22:14:01 10.9 C 71 % 5.86 C
113 02-02-2004 22:26:01 11.1 C 70 % 5.84 C
114 02-02-2004 22:38:00 11.1 C 70 % 5.84 C
115 02-02-2004 22:50:00 11.2 C 70 % 5.94 C
116 02-02-2004 23:02:58 11.4 C 69 % 5.92 C
117 02-02-2004 23:14:58 11.3 C 69 % 5.83 C
118 02-02-2004 23:26:58 11.3 C 69 % 5.83 C
119 02-02-2004 23:38:01 11.4 C 68 % 5.71 C
120 02-02-2004 23:50:01 11.4 C 67 % 5.5 C
121 03-02-2004 00:02:01 11.5 C 67 % 5.59 C
122 03-02-2004 00:14:01 11.4 C 67 % 5.5 C
123 03-02-2004 00:26:01 11.3 C 67 % 5.4 C
124 03-02-2004 00:38:01 11.3 C 66 % 5.19 C
125 03-02-2004 00:50:01 11.2 C 66 % 5.09 C
Sensor: Nr:Datum:Temp:Feuchte:Taupunkt:
Aussen-T/F 126 03-02-2004 01:02:01 11.2 C 66 % 5.09 C
127 03-02-2004 01:14:01 11.1 C 66 % 5 C
128 03-02-2004 01:26:01 11.1 C 66 % 5 C
129 03-02-2004 01:38:00 11.2 C 65 % 4.87 C
130 03-02-2004 01:50:00 11.1 C 66 % 5 C
131 03-02-2004 02:02:59 11.2 C 65 % 4.87 C
132 03-02-2004 02:14:59 11.2 C 65 % 4.87 C
133 03-02-2004 02:26:59 11.2 C 65 % 4.87 C
134 03-02-2004 02:39:03 11.2 C 65 % 4.87 C
135 03-02-2004 02:51:03 11.2 C 65 % 4.87 C
136 03-02-2004 03:03:03 11 C 66 % 4.9 C
137 03-02-2004 03:15:02 10.8 C 67 % 4.93 C
138 03-02-2004 03:27:02 10.7 C 68 % 5.04 C
139 03-02-2004 03:39:00 10.6 C 69 % 5.16 C
140 03-02-2004 03:51:00 10.6 C 68 % 4.95 C
141 03-02-2004 04:03:59 10.6 C 68 % 4.95 C
142 03-02-2004 04:15:59 10.6 C 69 % 5.16 C
143 03-02-2004 04:27:59 10.7 C 69 % 5.25 C
144 03-02-2004 04:39:01 10.5 C 69 % 5.06 C
145 03-02-2004 04:51:01 10.4 C 69 % 4.97 C
146 03-02-2004 05:03:00 10.2 C 70 % 4.98 C
147 03-02-2004 05:15:00 9.7 C 71 % 4.7 C
148 03-02-2004 05:27:00 9.1 C 73 % 4.52 C
149 03-02-2004 05:39:01 8.8 C 75 % 4.62 C
150 03-02-2004 05:51:01 8.6 C 76 % 4.62 C
Sensor: Nr:Datum:Temp:Feuchte:Taupunkt:
Aussen-T/F 151 03-02-2004 06:03:01 8.6 C 77 % 4.8 C
152 03-02-2004 06:15:01 8.5 C 76 % 4.52 C
153 03-02-2004 06:27:01 8.7 C 77 % 4.9 C
154 03-02-2004 06:39:01 9.1 C 74 % 4.72 C
155 03-02-2004 06:51:01 9.5 C 72 % 4.71 C
156 03-02-2004 07:03:01 9.6 C 71 % 4.61 C
157 03-02-2004 07:15:01 9.4 C 71 % 4.42 C
158 03-02-2004 07:27:01 9.4 C 72 % 4.62 C
159 03-02-2004 07:39:00 9.4 C 71 % 4.42 C
160 03-02-2004 07:51:00 9.1 C 71 % 4.13 C
161 03-02-2004 08:03:58 8.6 C 73 % 4.04 C
162 03-02-2004 08:15:58 8.3 C 74 % 3.95 C
163 03-02-2004 08:27:58 8.1 C 75 % 3.94 C
164 03-02-2004 08:39:01 8.1 C 75 % 3.94 C
165 03-02-2004 08:51:01 8.2 C 75 % 4.04 C
166 03-02-2004 09:03:01 8.5 C 74 % 4.14 C
167 03-02-2004 09:15:01 8.9 C 73 % 4.33 C
168 03-02-2004 09:27:01 9.2 C 70 % 4.02 C
169 03-02-2004 09:39:00 9.4 C 70 % 4.21 C
170 03-02-2004 09:51:00 9.7 C 69 % 4.3 C
171 03-02-2004 10:03:58 10.3 C 65 % 4.02 C
172 03-02-2004 10:15:58 10.6 C 64 % 4.08 C
173 03-02-2004 10:27:58 10.8 C 63 % 4.05 C
174 03-02-2004 10:39:00 11 C 62 % 4.01 C
175 03-02-2004 10:51:00 11.3 C 61 % 4.06 C
Sensor: Nr:Datum:Temp:Feuchte:Taupunkt:
Aussen-T/F 176 03-02-2004 11:03:00 11.5 C 61 % 4.25 C
177 03-02-2004 11:15:00 12 C 59 % 4.25 C
178 03-02-2004 11:27:00 12.5 C 59 % 4.72 C
179 03-02-2004 11:39:00 12.6 C 57 % 4.32 C
180 03-02-2004 11:51:00 12.7 C 57 % 4.41 C
181 03-02-2004 12:03:59 12.9 C 56 % 4.35 C
182 03-02-2004 12:15:59 13 C 55 % 4.18 C
183 03-02-2004 12:27:59 13 C 55 % 4.18 C
184 03-02-2004 12:39:01 13.1 C 54 % 4.01 C
185 03-02-2004 12:51:01 13.4 C 55 % 4.55 C
186 03-02-2004 13:03:01 13.3 C 54 % 4.2 C
187 03-02-2004 13:15:01 13.3 C 54 % 4.2 C
188 03-02-2004 13:27:01 13.6 C 54 % 4.48 C
189 03-02-2004 13:39:00 13.9 C 53 % 4.49 C
190 03-02-2004 13:51:00 14.3 C 52 % 4.59 C
191 03-02-2004 14:03:58 14.4 C 51 % 4.4 C
192 03-02-2004 14:15:58 14.5 C 52 % 4.77 C
193 03-02-2004 14:27:58 14.5 C 52 % 4.77 C
194 03-02-2004 14:39:01 14.5 C 51 % 4.5 C
195 03-02-2004 14:51:01 14.7 C 51 % 4.68 C
196 03-02-2004 15:03:01 14.6 C 52 % 4.87 C
197 03-02-2004 15:15:01 14.6 C 52 % 4.87 C
198 03-02-2004 15:27:01 14.6 C 52 % 4.87 C
199 03-02-2004 15:39:00 14.4 C 52 % 4.68 C
200 03-02-2004 15:51:00 14.2 C 53 % 4.77 C
Sensor: Nr:Datum:Temp:Feuchte:Taupunkt:
Aussen-T/F 201 03-02-2004 16:03:59 14.1 C 54 % 4.94 C
202 03-02-2004 16:15:59 13.9 C 56 % 5.28 C
203 03-02-2004 16:27:59 13.7 C 56 % 5.09 C
204 03-02-2004 16:39:01 13.6 C 56 % 5 C
205 03-02-2004 16:51:01 13.5 C 56 % 4.91 C
206 03-02-2004 17:03:00 13.2 C 57 % 4.88 C
207 03-02-2004 17:15:00 12.8 C 58 % 4.75 C
208 03-02-2004 17:27:00 12.5 C 58 % 4.47 C
209 03-02-2004 17:39:01 12.3 C 59 % 4.53 C
210 03-02-2004 17:51:01 12.2 C 58 % 4.19 C
211 03-02-2004 18:03:01 12.1 C 59 % 4.34 C
212 03-02-2004 18:15:01 11.8 C 60 % 4.3 C
213 03-02-2004 18:27:01 11.6 C 61 % 4.35 C
214 03-02-2004 18:39:00 11.4 C 61 % 4.16 C
215 03-02-2004 18:51:00 11.5 C 61 % 4.25 C
216 03-02-2004 19:03:59 11.6 C 60 % 4.11 C
217 03-02-2004 19:15:59 11.5 C 59 % 3.78 C
218 03-02-2004 19:27:59 11.6 C 59 % 3.87 C
219 03-02-2004 19:39:01 11.7 C 58 % 3.72 C
220 03-02-2004 19:51:01 11.6 C 58 % 3.63 C
221 03-02-2004 20:03:01 11.6 C 58 % 3.63 C
222 03-02-2004 20:15:01 11.2 C 59 % 3.5 C
223 03-02-2004 20:27:01 11.5 C 58 % 3.54 C
224 03-02-2004 20:39:00 12 C 55 % 3.25 C
225 03-02-2004 20:51:00 12.2 C 54 % 3.18 C
Sensor: Nr:Datum:Temp:Feuchte:Taupunkt:
Aussen-T/F 226 03-02-2004 21:03:58 12.4 C 53 % 3.1 C
227 03-02-2004 21:15:58 12.1 C 54 % 3.09 C
228 03-02-2004 21:27:58 11.6 C 56 % 3.13 C
229 03-02-2004 21:39:01 11.4 C 57 % 3.2 C
230 03-02-2004 21:51:01 11.2 C 57 % 3.01 C
231 03-02-2004 22:03:01 10.9 C 59 % 3.21 C
232 03-02-2004 22:15:01 10.8 C 60 % 3.36 C
233 03-02-2004 22:27:01 10.9 C 60 % 3.45 C
234 03-02-2004 22:39:01 11.1 C 59 % 3.4 C
235 03-02-2004 22:51:01 11.4 C 58 % 3.44 C
236 03-02-2004 23:03:58 11.9 C 57 % 3.66 C
237 03-02-2004 23:15:58 12.4 C 54 % 3.36 C
238 03-02-2004 23:27:58 12.5 C 54 % 3.46 C
239 03-02-2004 23:39:01 12.2 C 54 % 3.18 C
240 03-02-2004 23:51:01 12 C 54 % 2.99 C
241 04-02-2004 00:03:01 11.5 C 56 % 3.04 C
242 04-02-2004 00:15:01 10.9 C 59 % 3.21 C
243 04-02-2004 00:27:01 10.9 C 58 % 2.97 C
244 04-02-2004 00:39:01 10.8 C 58 % 2.88 C
245 04-02-2004 00:51:01 10.1 C 60 % 2.7 C
246 04-02-2004 01:03:01 9.7 C 62 % 2.78 C
247 04-02-2004 01:15:01 9.8 C 62 % 2.88 C
248 04-02-2004 01:27:01 10.5 C 58 % 2.6 C
249 04-02-2004 01:39:00 10.6 C 57 % 2.45 C
250 04-02-2004 01:51:00 10.6 C 57 % 2.45 C
Sensor: Nr:Datum:Temp:Feuchte:Taupunkt:
Aussen-T/F 251 04-02-2004 02:03:58 11 C 54 % 2.06 C
252 04-02-2004 02:15:58 11.3 C 51 % 1.54 C
253 04-02-2004 02:27:58 11.7 C 50 % 1.64 C
254 04-02-2004 02:40:02 11.7 C 50 % 1.64 C
255 04-02-2004 02:52:02 11.8 C 50 % 1.73 C
256 04-02-2004 03:04:02 11.8 C 50 % 1.73 C
257 04-02-2004 03:16:02 11.7 C 51 % 1.91 C
258 04-02-2004 03:28:02 11.8 C 50 % 1.73 C
259 04-02-2004 03:40:00 11.8 C 50 % 1.73 C
260 04-02-2004 03:52:00 11.6 C 51 % 1.82 C
261 04-02-2004 04:04:59 11.7 C 51 % 1.91 C
262 04-02-2004 04:16:59 11.6 C 51 % 1.82 C
263 04-02-2004 04:28:59 11.1 C 53 % 1.9 C
264 04-02-2004 04:40:01 10.8 C 55 % 2.13 C
265 04-02-2004 04:52:01 11.1 C 54 % 2.16 C
266 04-02-2004 05:04:00 11.2 C 53 % 1.99 C
267 04-02-2004 05:16:00 11.2 C 53 % 1.99 C
268 04-02-2004 05:28:00 11 C 54 % 2.06 C
269 04-02-2004 05:40:01 10.4 C 57 % 2.26 C
270 04-02-2004 05:52:01 10.4 C 57 % 2.26 C
271 04-02-2004 06:04:01 10.6 C 56 % 2.2 C
272 04-02-2004 06:16:01 10.7 C 55 % 2.04 C
273 04-02-2004 06:28:01 10.3 C 57 % 2.17 C
274 04-02-2004 06:40:00 10 C 59 % 2.37 C
275 04-02-2004 06:52:00 10.1 C 58 % 2.22 C
Sensor: Nr:Datum:Temp:Feuchte:Taupunkt:
Aussen-T/F 276 04-02-2004 07:04:58 9.9 C 59 % 2.27 C
277 04-02-2004 07:16:58 9.7 C 60 % 2.32 C
278 04-02-2004 07:28:58 9.8 C 60 % 2.42 C
279 04-02-2004 07:40:01 9.7 C 60 % 2.32 C
280 04-02-2004 07:52:01 10 C 58 % 2.13 C
281 04-02-2004 08:04:01 10.6 C 56 % 2.2 C
282 04-02-2004 08:16:01 10.9 C 55 % 2.23 C
283 04-02-2004 08:28:01 10.8 C 55 % 2.13 C
284 04-02-2004 08:40:01 10.6 C 56 % 2.2 C
285 04-02-2004 08:52:01 10.8 C 55 % 2.13 C
286 04-02-2004 09:04:01 10.8 C 55 % 2.13 C
287 04-02-2004 09:16:01 10.9 C 55 % 2.23 C
288 04-02-2004 09:28:01 11 C 54 % 2.06 C
289 04-02-2004 09:40:00 11.2 C 54 % 2.25 C
290 04-02-2004 09:52:00 11.3 C 53 % 2.08 C
291 04-02-2004 10:04:58 11.4 C 54 % 2.44 C
292 04-02-2004 10:16:58 11.4 C 55 % 2.69 C
293 04-02-2004 10:28:58 11.5 C 54 % 2.53 C
294 04-02-2004 10:40:01 11.7 C 53 % 2.45 C
295 04-02-2004 10:52:01 11.8 C 53 % 2.54 C
296 04-02-2004 11:04:01 12.2 C 51 % 2.37 C
297 04-02-2004 11:16:01 12.1 C 51 % 2.28 C
298 04-02-2004 11:28:01 12.3 C 51 % 2.47 C
299 04-02-2004 11:40:00 12.5 C 50 % 2.37 C
300 04-02-2004 11:52:00 12.7 C 50 % 2.56 C
Sensor: Nr:Datum:Temp:Feuchte:Taupunkt:
Aussen-T/F 301 04-02-2004 12:04:58 12.7 C 49 % 2.27 C
302 04-02-2004 12:16:58 12.8 C 49 % 2.37 C
303 04-02-2004 12:28:58 13.2 C 48 % 2.44 C
304 04-02-2004 12:40:01 13.2 C 48 % 2.44 C
305 04-02-2004 12:52:01 13.2 C 48 % 2.44 C
306 04-02-2004 13:04:01 13.2 C 47 % 2.15 C
307 04-02-2004 13:16:01 13.3 C 47 % 2.24 C
308 04-02-2004 13:28:01 13.5 C 47 % 2.42 C
309 04-02-2004 13:40:01 13.6 C 47 % 2.51 C
310 04-02-2004 13:52:01 13.8 C 46 % 2.4 C
311 04-02-2004 14:04:01 13.8 C 47 % 2.7 C
312 04-02-2004 14:16:01 14.1 C 46 % 2.67 C
313 04-02-2004 14:28:01 14.4 C 45 % 2.63 C
314 04-02-2004 14:40:00 14.4 C 45 % 2.63 C
315 04-02-2004 14:52:00 14.6 C 45 % 2.81 C
316 04-02-2004 15:04:58 14.7 C 45 % 2.91 C
317 04-02-2004 15:16:58 14.7 C 45 % 2.91 C
318 04-02-2004 15:28:58 14.7 C 45 % 2.91 C
319 04-02-2004 15:40:01 14.7 C 46 % 3.22 C
320 04-02-2004 15:52:01 14.5 C 46 % 3.03 C
321 04-02-2004 16:04:01 14.4 C 46 % 2.94 C
322 04-02-2004 16:16:01 14.4 C 46 % 2.94 C
323 04-02-2004 16:28:01 14.3 C 47 % 3.15 C
324 04-02-2004 16:40:00 14.2 C 46 % 2.76 C
325 04-02-2004 16:52:00 14 C 46 % 2.58 C
Sensor: Nr:Datum:Temp:Feuchte:Taupunkt:
Aussen-T/F 326 04-02-2004 17:04:58 14 C 46 % 2.58 C
327 04-02-2004 17:16:58 14 C 46 % 2.58 C
328 04-02-2004 17:28:58 13.8 C 47 % 2.7 C
329 04-02-2004 17:40:01 13.8 C 47 % 2.7 C
330 04-02-2004 17:52:01 13.7 C 47 % 2.61 C
331 04-02-2004 18:04:01 13.8 C 47 % 2.7 C
332 04-02-2004 18:16:01 13.6 C 47 % 2.51 C
333 04-02-2004 18:28:01 13.7 C 47 % 2.61 C
334 04-02-2004 18:40:01 13.7 C 47 % 2.61 C
335 04-02-2004 18:52:01 13.7 C 47 % 2.61 C
336 04-02-2004 19:04:01 13.5 C 47 % 2.42 C
337 04-02-2004 19:16:01 13.3 C 47 % 2.24 C
338 04-02-2004 19:28:01 13.1 C 48 % 2.35 C
339 04-02-2004 19:40:00 13.4 C 47 % 2.33 C
340 04-02-2004 19:52:00 13.6 C 46 % 2.21 C
341 04-02-2004 20:04:58 13.5 C 46 % 2.12 C
342 04-02-2004 20:16:58 13.2 C 47 % 2.15 C
343 04-02-2004 20:28:58 13.2 C 48 % 2.44 C
344 04-02-2004 20:40:01 13.2 C 48 % 2.44 C
345 04-02-2004 20:52:01 13.1 C 49 % 2.64 C
346 04-02-2004 21:04:01 12.9 C 50 % 2.74 C
347 04-02-2004 21:16:01 12.9 C 50 % 2.74 C
348 04-02-2004 21:28:01 12.8 C 51 % 2.93 C
349 04-02-2004 21:40:01 12.8 C 51 % 2.93 C
350 04-02-2004 21:52:01 12.7 C 51 % 2.84 C
Sensor: Nr:Datum:Temp:Feuchte:Taupunkt:
Aussen-T/F 351 04-02-2004 22:04:01 12.5 C 53 % 3.19 C
352 04-02-2004 22:16:01 12.6 C 53 % 3.29 C
353 04-02-2004 22:28:01 12.7 C 52 % 3.11 C
354 04-02-2004 22:40:00 12.9 C 52 % 3.29 C
355 04-02-2004 22:52:00 12.8 C 52 % 3.2 C
356 04-02-2004 23:04:59 12.9 C 52 % 3.29 C
357 04-02-2004 23:16:59 12.9 C 51 % 3.02 C
358 04-02-2004 23:28:59 12.8 C 52 % 3.2 C
359 04-02-2004 23:40:01 13 C 49 % 2.55 C
360 04-02-2004 23:52:01 13.1 C 48 % 2.35 C
361 05-02-2004 00:04:01 13.2 C 48 % 2.44 C
362 05-02-2004 00:16:01 13.3 C 46 % 1.94 C
363 05-02-2004 00:28:01 13.5 C 45 % 1.81 C
364 05-02-2004 00:40:00 13.5 C 45 % 1.81 C
365 05-02-2004 00:52:00 13.4 C 45 % 1.72 C
366 05-02-2004 01:04:58 13.2 C 45 % 1.54 C
367 05-02-2004 01:16:58 13.2 C 44 % 1.23 C
368 05-02-2004 01:28:58 13.3 C 44 % 1.32 C
369 05-02-2004 01:40:01 13.4 C 43 % 1.09 C
370 05-02-2004 01:52:01 13.2 C 43 % 0.91 C
371 05-02-2004 02:04:01 13 C 44 % 1.05 C
372 05-02-2004 02:16:01 13 C 44 % 1.05 C
373 05-02-2004 02:28:01 13 C 43 % 0.73 C
374 05-02-2004 02:41:03 13 C 43 % 0.73 C
375 05-02-2004 02:53:03 12.9 C 44 % 0.96 C
Sensor: Nr:Datum:Temp:Feuchte:Taupunkt:
Aussen-T/F 376 05-02-2004 03:05:03 12.8 C 44 % 0.87 C
377 05-02-2004 03:17:03 12.6 C 45 % 1 C
378 05-02-2004 03:29:03 12.4 C 45 % 0.81 C
379 05-02-2004 03:41:00 12.3 C 45 % 0.72 C
380 05-02-2004 03:53:00 12.1 C 45 % 0.54 C
381 05-02-2004 04:05:59 12 C 45 % 0.45 C
382 05-02-2004 04:17:59 12.2 C 44 % 0.32 C
383 05-02-2004 04:29:59 12 C 45 % 0.45 C
384 05-02-2004 04:41:01 11.8 C 46 % 0.57 C
385 05-02-2004 04:53:01 11.9 C 46 % 0.66 C
386 05-02-2004 05:05:00 11.9 C 46 % 0.66 C
387 05-02-2004 05:17:00 11.7 C 47 % 0.78 C
388 05-02-2004 05:29:00 11.6 C 47 % 0.69 C
389 05-02-2004 05:41:01 11.3 C 48 % 0.7 C
390 05-02-2004 05:53:01 11.1 C 49 % 0.8 C
391 05-02-2004 06:05:01 11.1 C 50 % 1.08 C
392 05-02-2004 06:17:01 11.2 C 50 % 1.18 C
393 05-02-2004 06:29:01 11.1 C 50 % 1.08 C
394 05-02-2004 06:41:00 11.3 C 50 % 1.27 C
395 05-02-2004 06:53:00 11.2 C 51 % 1.45 C
396 05-02-2004 07:05:58 11.1 C 51 % 1.36 C
397 05-02-2004 07:17:58 11.1 C 52 % 1.63 C
398 05-02-2004 07:29:58 11 C 52 % 1.54 C
399 05-02-2004 07:41:01 10.9 C 53 % 1.71 C
400 05-02-2004 07:53:01 10.9 C 54 % 1.97 C
Sensor: Nr:Datum:Temp:Feuchte:Taupunkt:
Aussen-T/F 401 05-02-2004 08:05:01 10.9 C 54 % 1.97 C
402 05-02-2004 08:17:01 11 C 53 % 1.8 C
403 05-02-2004 08:29:01 11 C 53 % 1.8 C
404 05-02-2004 08:41:01 11 C 54 % 2.06 C
405 05-02-2004 08:53:01 11 C 55 % 2.32 C
406 05-02-2004 09:05:01 11.1 C 55 % 2.41 C
407 05-02-2004 09:17:01 11.1 C 55 % 2.41 C
408 05-02-2004 09:29:01 11.1 C 55 % 2.41 C
409 05-02-2004 09:41:00 11.1 C 55 % 2.41 C
410 05-02-2004 09:53:00 11.2 C 55 % 2.51 C
411 05-02-2004 10:05:58 11.4 C 55 % 2.69 C
412 05-02-2004 10:17:58 11.4 C 55 % 2.69 C
413 05-02-2004 10:29:58 11.4 C 55 % 2.69 C
414 05-02-2004 10:41:01 11.9 C 54 % 2.9 C
415 05-02-2004 10:53:01 12 C 53 % 2.73 C
416 05-02-2004 11:05:01 12.1 C 53 % 2.82 C
417 05-02-2004 11:17:01 12.2 C 54 % 3.18 C
418 05-02-2004 11:29:01 12.3 C 54 % 3.27 C
419 05-02-2004 11:41:01 12.2 C 55 % 3.44 C
420 05-02-2004 11:53:01 12.5 C 56 % 3.97 C
421 05-02-2004 12:05:01 12.7 C 56 % 4.16 C
422 05-02-2004 12:17:01 12.9 C 56 % 4.35 C
423 05-02-2004 12:29:01 13 C 56 % 4.44 C
424 05-02-2004 12:41:00 13.4 C 55 % 4.55 C
425 05-02-2004 12:53:00 13.6 C 53 % 4.21 C
Sensor: Nr:Datum:Temp:Feuchte:Taupunkt:
Aussen-T/F 426 05-02-2004 13:05:59 13.5 C 53 % 4.12 C
427 05-02-2004 13:17:59 13.7 C 53 % 4.31 C
428 05-02-2004 13:29:59 13.8 C 54 % 4.66 C
429 05-02-2004 13:41:01 13.8 C 54 % 4.66 C
430 05-02-2004 13:53:01 13.7 C 54 % 4.57 C
431 05-02-2004 14:05:01 13.9 C 54 % 4.76 C
432 05-02-2004 14:17:01 14.1 C 52 % 4.4 C
433 05-02-2004 14:29:01 14.1 C 53 % 4.68 C
434 05-02-2004 14:41:00 13.9 C 53 % 4.49 C
435 05-02-2004 14:53:00 14 C 52 % 4.31 C
436 05-02-2004 15:05:58 14 C 52 % 4.31 C
437 05-02-2004 15:17:58 14 C 52 % 4.31 C
438 05-02-2004 15:29:58 14.1 C 52 % 4.4 C
439 05-02-2004 15:41:01 14.2 C 52 % 4.5 C
440 05-02-2004 15:53:01 14.1 C 52 % 4.4 C
441 05-02-2004 16:05:01 14 C 52 % 4.31 C
442 05-02-2004 16:17:01 13.9 C 54 % 4.76 C
443 05-02-2004 16:29:01 13.8 C 54 % 4.66 C
444 05-02-2004 16:41:01 13.7 C 55 % 4.83 C
445 05-02-2004 16:53:01 13.6 C 55 % 4.74 C
446 05-02-2004 17:05:01 13.5 C 56 % 4.91 C
447 05-02-2004 17:17:01 13.5 C 56 % 4.91 C
448 05-02-2004 17:29:01 13.5 C 56 % 4.91 C
449 05-02-2004 17:41:00 13.6 C 56 % 5 C
450 05-02-2004 17:53:00 13.5 C 56 % 4.91 C
Sensor: Nr:Datum:Temp:Feuchte:Taupunkt:
Aussen-T/F 451 05-02-2004 18:05:59 13.5 C 56 % 4.91 C
452 05-02-2004 18:17:59 13.4 C 56 % 4.81 C
453 05-02-2004 18:29:59 13.7 C 56 % 5.09 C
454 05-02-2004 18:41:01 13.7 C 55 % 4.83 C
455 05-02-2004 18:53:01 13.6 C 56 % 5 C
456 05-02-2004 19:05:01 13.5 C 56 % 4.91 C
457 05-02-2004 19:17:01 13.6 C 55 % 4.74 C
458 05-02-2004 19:29:01 13.6 C 55 % 4.74 C
459 05-02-2004 19:41:00 13.7 C 55 % 4.83 C
460 05-02-2004 19:53:00 13.5 C 55 % 4.65 C
461 05-02-2004 20:05:58 13.5 C 55 % 4.65 C
462 05-02-2004 20:17:58 13.4 C 55 % 4.55 C
463 05-02-2004 20:29:58 13.4 C 55 % 4.55 C
464 05-02-2004 20:41:01 13.5 C 55 % 4.65 C
465 05-02-2004 20:53:01 13.7 C 54 % 4.57 C
466 05-02-2004 21:05:01 13.8 C 53 % 4.4 C
467 05-02-2004 21:17:01 13.8 C 52 % 4.13 C
468 05-02-2004 21:29:01 13.8 C 52 % 4.13 C
469 05-02-2004 21:41:01 13.8 C 52 % 4.13 C
470 05-02-2004 21:53:01 13.8 C 51 % 3.85 C
471 05-02-2004 22:05:01 13.8 C 51 % 3.85 C
472 05-02-2004 22:17:01 13.8 C 51 % 3.85 C
473 05-02-2004 22:29:01 13.8 C 51 % 3.85 C
474 05-02-2004 22:41:00 14 C 49 % 3.47 C
475 05-02-2004 22:53:00 14 C 49 % 3.47 C
Sensor: Nr:Datum:Temp:Feuchte:Taupunkt:
Aussen-T/F 476 05-02-2004 23:05:59 13.8 C 51 % 3.85 C
477 05-02-2004 23:17:59 13.8 C 51 % 3.85 C
478 05-02-2004 23:29:59 13.8 C 50 % 3.57 C
479 05-02-2004 23:41:01 13.6 C 51 % 3.67 C
480 05-02-2004 23:53:01 13.5 C 52 % 3.85 C
481 06-02-2004 00:05:01 13.4 C 52 % 3.76 C
482 06-02-2004 00:17:01 13.2 C 52 % 3.57 C
483 06-02-2004 00:29:01 13.3 C 53 % 3.93 C
484 06-02-2004 00:41:00 13.3 C 52 % 3.66 C
485 06-02-2004 00:53:00 13.4 C 52 % 3.76 C
486 06-02-2004 01:05:58 13.2 C 52 % 3.57 C
487 06-02-2004 01:17:58 13.4 C 52 % 3.76 C
488 06-02-2004 01:29:58 13.2 C 52 % 3.57 C
489 06-02-2004 01:41:01 13.3 C 52 % 3.66 C
490 06-02-2004 01:53:01 13.1 C 52 % 3.48 C
491 06-02-2004 02:05:01 13.2 C 52 % 3.57 C
492 06-02-2004 02:17:01 13.2 C 52 % 3.57 C
493 06-02-2004 02:29:01 13.1 C 53 % 3.75 C
494 06-02-2004 02:42:01 13 C 53 % 3.66 C
495 06-02-2004 02:54:01 12.7 C 55 % 3.9 C
496 06-02-2004 03:06:01 12.5 C 55 % 3.72 C
497 06-02-2004 03:18:00 12.2 C 56 % 3.69 C
498 06-02-2004 03:30:00 12.2 C 56 % 3.69 C
499 06-02-2004 03:42:01 12.1 C 57 % 3.85 C
500 06-02-2004 03:54:01 12.2 C 57 % 3.94 C
Sensor: Nr:Datum:Temp:Feuchte:Taupunkt:
Aussen-T/F 501 06-02-2004 04:06:01 12.1 C 58 % 4.1 C
502 06-02-2004 04:18:01 12 C 58 % 4 C
503 06-02-2004 04:30:01 12 C 59 % 4.25 C
504 06-02-2004 04:42:00 12 C 58 % 4 C
505 06-02-2004 04:54:00 11.7 C 60 % 4.2 C
506 06-02-2004 05:06:58 11.8 C 61 % 4.53 C
507 06-02-2004 05:18:58 11.6 C 61 % 4.35 C
508 06-02-2004 05:30:58 11.5 C 61 % 4.25 C
509 06-02-2004 05:42:01 11.6 C 61 % 4.35 C
510 06-02-2004 05:54:01 11.4 C 62 % 4.39 C
511 06-02-2004 06:06:01 11.5 C 62 % 4.48 C
512 06-02-2004 06:18:01 11.4 C 62 % 4.39 C
513 06-02-2004 06:30:01 11.2 C 63 % 4.43 C
514 06-02-2004 06:42:00 11.1 C 63 % 4.33 C
515 06-02-2004 06:54:00 10.9 C 65 % 4.59 C
516 06-02-2004 07:06:58 10.8 C 65 % 4.49 C
517 06-02-2004 07:18:58 10.5 C 65 % 4.21 C
518 06-02-2004 07:30:58 10.5 C 66 % 4.43 C
519 06-02-2004 07:42:01 10.6 C 66 % 4.52 C
520 06-02-2004 07:54:01 10.4 C 66 % 4.33 C
521 06-02-2004 08:06:01 10.3 C 67 % 4.45 C
522 06-02-2004 08:18:01 10.5 C 67 % 4.64 C
523 06-02-2004 08:30:01 10.7 C 66 % 4.62 C
524 06-02-2004 08:42:01 11 C 64 % 4.46 C
525 06-02-2004 08:54:01 10.8 C 65 % 4.49 C
Sensor: Nr:Datum:Temp:Feuchte:Taupunkt:
Aussen-T/F 526 06-02-2004 09:06:01 10.7 C 65 % 4.4 C
527 06-02-2004 09:18:01 10.9 C 64 % 4.37 C
528 06-02-2004 09:30:01 11 C 63 % 4.24 C
529 06-02-2004 09:42:00 11.2 C 63 % 4.43 C
530 06-02-2004 09:54:00 11.4 C 62 % 4.39 C
531 06-02-2004 10:06:58 11.8 C 60 % 4.3 C
532 06-02-2004 10:18:58 12.4 C 56 % 3.88 C
533 06-02-2004 10:30:58 12.6 C 54 % 3.55 C
534 06-02-2004 10:42:01 12.9 C 53 % 3.56 C
535 06-02-2004 10:54:01 12.9 C 53 % 3.56 C
536 06-02-2004 11:06:01 13.2 C 50 % 3.02 C
537 06-02-2004 11:18:01 13.5 C 49 % 3.01 C
538 06-02-2004 11:30:01 13.7 C 46 % 2.3 C
539 06-02-2004 11:42:00 13.8 C 46 % 2.4 C
540 06-02-2004 11:54:00 14.1 C 43 % 1.72 C
541 06-02-2004 12:06:58 14.2 C 43 % 1.81 C
542 06-02-2004 12:18:58 14.4 C 42 % 1.67 C
543 06-02-2004 12:30:58 14.5 C 42 % 1.76 C
544 06-02-2004 12:42:01 14.6 C 42 % 1.85 C
545 06-02-2004 12:54:01 14.8 C 41 % 1.69 C
546 06-02-2004 13:06:01 14.8 C 41 % 1.69 C
547 06-02-2004 13:18:01 15 C 41 % 1.87 C
548 06-02-2004 13:30:01 15.1 C 41 % 1.96 C
549 06-02-2004 13:42:01 15.4 C 40 % 1.89 C
550 06-02-2004 13:54:01 15.5 C 40 % 1.98 C
Sensor: Nr:Datum:Temp:Feuchte:Taupunkt:
Aussen-T/F 551 06-02-2004 14:06:01 15.9 C 39 % 1.98 C
552 06-02-2004 14:18:01 15.9 C 39 % 1.98 C
553 06-02-2004 14:30:01 15.8 C 38 % 1.53 C
554 06-02-2004 14:42:00 15.6 C 38 % 1.35 C
555 06-02-2004 14:54:00 15.4 C 40 % 1.89 C
556 06-02-2004 15:06:58 15.2 C 40 % 1.71 C
557 06-02-2004 15:18:58 15 C 41 % 1.87 C
558 06-02-2004 15:30:58 15.1 C 40 % 1.62 C
559 06-02-2004 15:42:01 15.2 C 40 % 1.71 C
560 06-02-2004 15:54:01 15.2 C 40 % 1.71 C
561 06-02-2004 16:06:01 15.3 C 40 % 1.8 C
562 06-02-2004 16:18:01 15.2 C 41 % 2.05 C
563 06-02-2004 16:30:01 15.3 C 40 % 1.8 C
564 06-02-2004 16:42:00 15.3 C 40 % 1.8 C
565 06-02-2004 16:54:00 15.2 C 39 % 1.35 C
566 06-02-2004 17:06:58 15.5 C 37 % 0.89 C
567 06-02-2004 17:18:58 15.5 C 37 % 0.89 C
568 06-02-2004 17:30:58 15.5 C 36 % 0.51 C
569 06-02-2004 17:42:01 15.6 C 36 % 0.6 C
570 06-02-2004 17:54:01 15.4 C 36 % 0.42 C
571 06-02-2004 18:06:01 15.4 C 36 % 0.42 C
572 06-02-2004 18:18:01 15.1 C 37 % 0.54 C
573 06-02-2004 18:30:01 15.1 C 37 % 0.54 C
574 06-02-2004 18:42:01 15.1 C 38 % 0.9 C
575 06-02-2004 18:54:01 15.4 C 38 % 1.17 C
Sensor: Nr:Datum:Temp:Feuchte:Taupunkt:
Aussen-T/F 576 06-02-2004 19:06:01 15.2 C 40 % 1.71 C
577 06-02-2004 19:18:01 15.2 C 40 % 1.71 C
578 06-02-2004 19:30:01 15.2 C 40 % 1.71 C
579 06-02-2004 19:42:00 15 C 41 % 1.87 C
580 06-02-2004 19:54:00 15 C 42 % 2.21 C
581 06-02-2004 20:06:58 14.9 C 43 % 2.45 C
582 06-02-2004 20:18:58 14.9 C 44 % 2.77 C
583 06-02-2004 20:30:58 14.9 C 45 % 3.09 C
584 06-02-2004 20:42:01 14.8 C 46 % 3.31 C
585 06-02-2004 20:54:01 14.7 C 47 % 3.52 C
586 06-02-2004 21:06:01 14.8 C 47 % 3.61 C
587 06-02-2004 21:18:01 14.7 C 48 % 3.82 C
588 06-02-2004 21:30:01 14.7 C 49 % 4.11 C
589 06-02-2004 21:41:59 14.7 C 50 % 4.4 C
590 06-02-2004 21:53:59 14.5 C 50 % 4.21 C
591 06-02-2004 22:06:58 14.5 C 51 % 4.5 C
592 06-02-2004 22:18:58 14.4 C 51 % 4.4 C
593 06-02-2004 22:30:58 14.4 C 52 % 4.68 C
594 06-02-2004 22:42:01 14.4 C 52 % 4.68 C
595 06-02-2004 22:54:01 14.4 C 52 % 4.68 C
596 06-02-2004 23:06:01 14.3 C 55 % 5.39 C
597 06-02-2004 23:18:01 14 C 57 % 5.63 C
598 06-02-2004 23:30:01 13.9 C 59 % 6.03 C
599 06-02-2004 23:42:01 13.8 C 59 % 5.94 C
600 06-02-2004 23:54:01 13.9 C 59 % 6.03 C
Sensor: Nr:Datum:Temp:Feuchte:Taupunkt:
Aussen-T/F 601 07-02-2004 00:06:01 13.8 C 58 % 5.69 C
602 07-02-2004 00:18:01 13.7 C 58 % 5.6 C
603 07-02-2004 00:30:01 13.8 C 56 % 5.19 C
604 07-02-2004 00:42:00 13.7 C 55 % 4.83 C
605 07-02-2004 00:54:00 13.7 C 55 % 4.83 C
606 07-02-2004 01:06:58 13.7 C 54 % 4.57 C
607 07-02-2004 01:18:58 13.7 C 53 % 4.31 C
608 07-02-2004 01:30:58 13.8 C 51 % 3.85 C
609 07-02-2004 01:42:01 13.8 C 50 % 3.57 C
610 07-02-2004 01:54:01 13.9 C 50 % 3.66 C
611 07-02-2004 02:06:01 9.8 C 70 % 4.6 C
612 07-02-2004 02:18:01 9.7 C 70 % 4.5 C
613 07-02-2004 02:30:01 9.8 C 65 % 3.54 C
614 07-02-2004 02:43:02 9.7 C 66 % 3.67 C
615 07-02-2004 02:55:02 9.6 C 67 % 3.78 C
616 07-02-2004 03:07:02 9.9 C 63 % 3.2 C
617 07-02-2004 03:19:02 9.8 C 59 % 2.18 C
618 07-02-2004 03:31:02 9.8 C 58 % 1.94 C
619 07-02-2004 03:43:00 9.8 C 57 % 1.7 C
620 07-02-2004 03:55:00 9.8 C 57 % 1.7 C
621 07-02-2004 04:07:59 9.8 C 56 % 1.45 C
622 07-02-2004 04:19:59 9.4 C 57 % 1.33 C
623 07-02-2004 04:31:01 8.7 C 60 % 1.38 C
624 07-02-2004 04:43:01 8.2 C 62 % 1.37 C
625 07-02-2004 04:55:01 8.3 C 62 % 1.46 C
Sensor: Nr:Datum:Temp:Feuchte:Taupunkt:
Aussen-T/F 626 07-02-2004 05:07:01 8.2 C 60 % 0.91 C
627 07-02-2004 05:19:01 8.1 C 61 % 1.05 C
628 07-02-2004 05:31:01 8.3 C 58 % 0.54 C
629 07-02-2004 05:43:00 8.5 C 55 % -0.01 C
630 07-02-2004 05:55:00 8.6 C 55 % 0.08 C
631 07-02-2004 06:07:58 8.7 C 54 % -0.07 C
632 07-02-2004 06:19:58 8.8 C 51 % -0.76 C
633 07-02-2004 06:31:01 8.8 C 50 % -1.03 C
634 07-02-2004 06:43:01 8.4 C 52 % -0.87 C
635 07-02-2004 06:55:01 8.4 C 53 % -0.61 C
636 07-02-2004 07:07:01 8.5 C 53 % -0.52 C
637 07-02-2004 07:19:01 8.4 C 54 % -0.35 C
638 07-02-2004 07:31:01 8.3 C 55 % -0.2 C
639 07-02-2004 07:43:01 8.3 C 55 % -0.2 C
640 07-02-2004 07:55:01 8.4 C 54 % -0.35 C
641 07-02-2004 08:07:01 8.4 C 55 % -0.1 C
642 07-02-2004 08:19:01 8 C 60 % 0.72 C
643 07-02-2004 08:31:01 8 C 61 % 0.95 C
644 07-02-2004 08:43:00 7.6 C 62 % 0.8 C
645 07-02-2004 08:55:00 6.9 C 68 % 1.41 C
646 07-02-2004 09:07:59 7.5 C 62 % 0.7 C
647 07-02-2004 09:19:59 7.5 C 56 % -0.7 C
648 07-02-2004 09:31:01 7.7 C 54 % -1 C
649 07-02-2004 09:43:01 8 C 53 % -0.98 C
650 07-02-2004 09:55:01 8.1 C 51 % -1.41 C
Sensor: Nr:Datum:Temp:Feuchte:Taupunkt:
Aussen-T/F 651 07-02-2004 10:07:01 7.9 C 51 % -1.6 C
652 07-02-2004 10:19:01 7.8 C 50 % -1.96 C
653 07-02-2004 10:31:01 7.8 C 50 % -1.96 C
654 07-02-2004 10:43:00 8 C 49 % -2.05 C
655 07-02-2004 10:55:00 8 C 48 % -2.32 C
656 07-02-2004 11:07:58 8.1 C 48 % -2.23 C
657 07-02-2004 11:19:58 8.3 C 48 % -2.05 C
658 07-02-2004 11:31:01 8.4 C 50 % -1.4 C
659 07-02-2004 11:43:01 8.5 C 50 % -1.31 C
660 07-02-2004 11:55:01 8.7 C 49 % -1.4 C
661 07-02-2004 12:07:01 8.9 C 47 % -1.78 C
662 07-02-2004 12:19:01 9 C 47 % -1.69 C
663 07-02-2004 12:31:01 9 C 48 % -1.41 C
664 07-02-2004 12:43:01 9.3 C 47 % -1.42 C
665 07-02-2004 12:55:01 10 C 44 % -1.67 C
666 07-02-2004 13:07:01 10.2 C 42 % -2.12 C
667 07-02-2004 13:19:01 10.3 C 40 % -2.69 C
668 07-02-2004 13:31:01 10.2 C 41 % -2.45 C
669 07-02-2004 13:43:00 10.5 C 39 % -2.85 C
670 07-02-2004 13:55:00 10.4 C 38 % -3.29 C
671 07-02-2004 14:07:58 10.7 C 37 % -3.38 C
672 07-02-2004 14:19:58 11.1 C 35 % -3.76 C
673 07-02-2004 14:31:01 11.2 C 32 % -4.86 C
674 07-02-2004 14:43:01 10.7 C 33 % -4.89 C
675 07-02-2004 14:55:01 10.5 C 35 % -4.29 C
Sensor: Nr:Datum:Temp:Feuchte:Taupunkt:
Aussen-T/F 676 07-02-2004 15:07:01 10.6 C 36 % -3.83 C
677 07-02-2004 15:19:01 10.8 C 35 % -4.03 C
678 07-02-2004 15:31:01 11 C 34 % -4.23 C
679 07-02-2004 15:43:00 10.9 C 33 % -4.72 C
680 07-02-2004 15:55:00 10.8 C 33 % -4.81 C
681 07-02-2004 16:07:58 10.8 C 32 % -5.21 C
682 07-02-2004 16:19:58 10.7 C 33 % -4.89 C
683 07-02-2004 16:31:01 10.6 C 33 % -4.98 C
684 07-02-2004 16:43:01 10.5 C 35 % -4.29 C
685 07-02-2004 16:55:01 10.3 C 35 % -4.47 C
686 07-02-2004 17:07:01 9.8 C 37 % -4.18 C
687 07-02-2004 17:19:01 9.4 C 39 % -3.83 C
688 07-02-2004 17:31:01 9.1 C 40 % -3.77 C
689 07-02-2004 17:43:02 8.8 C 40 % -4.04 C
690 07-02-2004 17:55:02 8.6 C 41 % -3.89 C
691 07-02-2004 18:07:02 8.4 C 41 % -4.07 C
692 07-02-2004 18:19:02 8.3 C 41 % -4.16 C
693 07-02-2004 18:31:02 8.2 C 41 % -4.25 C
694 07-02-2004 18:43:00 8 C 42 % -4.11 C
695 07-02-2004 18:55:00 7.8 C 43 % -3.98 C
696 07-02-2004 19:07:59 7.7 C 43 % -4.07 C
697 07-02-2004 19:19:59 7.7 C 44 % -3.76 C
698 07-02-2004 19:31:01 7.5 C 45 % -3.65 C
699 07-02-2004 19:43:01 7.6 C 45 % -3.55 C
700 07-02-2004 19:55:01 7.5 C 46 % -3.35 C
Sensor: Nr:Datum:Temp:Feuchte:Taupunkt:
Aussen-T/F 701 07-02-2004 20:07:00 7.6 C 46 % -3.26 C
702 07-02-2004 20:19:00 7.5 C 47 % -3.06 C
703 07-02-2004 20:31:00 7.5 C 47 % -3.06 C
704 07-02-2004 20:43:01 7.1 C 49 % -2.87 C
705 07-02-2004 20:55:01 6.9 C 51 % -2.52 C
706 07-02-2004 21:07:01 6.8 C 53 % -2.09 C
707 07-02-2004 21:19:01 6.9 C 53 % -2 C
708 07-02-2004 21:31:01 6.9 C 54 % -1.75 C
709 07-02-2004 21:43:01 6.9 C 55 % -1.5 C
710 07-02-2004 21:55:01 6.8 C 55 % -1.59 C
711 07-02-2004 22:07:01 6.8 C 56 % -1.35 C
712 07-02-2004 22:19:01 6.6 C 56 % -1.54 C
713 07-02-2004 22:31:01 6.5 C 56 % -1.63 C
714 07-02-2004 22:43:00 6.6 C 56 % -1.54 C
715 07-02-2004 22:55:00 6.9 C 55 % -1.5 C
716 07-02-2004 23:07:58 6.8 C 56 % -1.35 C
717 07-02-2004 23:19:58 6.6 C 52 % -2.54 C
718 07-02-2004 23:31:01 6.7 C 49 % -3.24 C
719 07-02-2004 23:43:01 6.6 C 51 % -2.8 C
720 07-02-2004 23:55:01 6.5 C 53 % -2.37 C
721 08-02-2004 00:07:01 6.4 C 53 % -2.47 C
722 08-02-2004 00:19:01 6.5 C 54 % -2.12 C
723 08-02-2004 00:31:01 6.5 C 54 % -2.12 C
724 08-02-2004 00:43:00 6.5 C 53 % -2.37 C
725 08-02-2004 00:55:00 6 C 60 % -1.16 C
Sensor: Nr:Datum:Temp:Feuchte:Taupunkt:
Aussen-T/F 726 08-02-2004 01:07:58 5.2 C 67 % -0.41 C
727 08-02-2004 01:19:58 5.3 C 67 % -0.32 C
728 08-02-2004 01:31:01 5.4 C 67 % -0.22 C
729 08-02-2004 01:43:01 5.4 C 64 % -0.85 C
730 08-02-2004 01:55:01 5.7 C 61 % -1.22 C
731 08-02-2004 02:07:01 5.7 C 60 % -1.44 C
732 08-02-2004 02:19:01 5.7 C 61 % -1.22 C
733 08-02-2004 02:31:01 5.7 C 60 % -1.44 C
734 08-02-2004 02:44:03 5.5 C 59 % -1.86 C
735 08-02-2004 02:56:03 5.4 C 58 % -2.18 C
736 08-02-2004 03:08:03 5.1 C 61 % -1.79 C
737 08-02-2004 03:20:03 5 C 64 % -1.23 C
738 08-02-2004 03:32:00 5 C 65 % -1.02 C
739 08-02-2004 03:44:00 5 C 65 % -1.02 C
740 08-02-2004 03:56:00 4.5 C 69 % -0.68 C
741 08-02-2004 04:08:59 3.7 C 76 % -0.13 C
742 08-02-2004 04:20:59 3 C 80 % -0.1 C
743 08-02-2004 04:32:01 2.8 C 83 % 0.21 C
744 08-02-2004 04:44:01 3 C 83 % 0.4 C
745 08-02-2004 04:56:01 3 C 83 % 0.4 C
746 08-02-2004 05:08:00 3 C 84 % 0.57 C
747 08-02-2004 05:20:00 2.9 C 85 % 0.63 C
748 08-02-2004 05:32:01 3 C 84 % 0.57 C
749 08-02-2004 05:44:01 3.2 C 83 % 0.6 C
750 08-02-2004 05:56:01 3.4 C 83 % 0.79 C
Sensor: Nr:Datum:Temp:Feuchte:Taupunkt:
Aussen-T/F 751 08-02-2004 06:08:01 3.7 C 81 % 0.75 C
752 08-02-2004 06:20:01 3.8 C 77 % 0.15 C
753 08-02-2004 06:32:01 3.6 C 75 % -0.41 C
754 08-02-2004 06:44:01 3.6 C 75 % -0.41 C
755 08-02-2004 06:56:01 3.5 C 75 % -0.5 C
756 08-02-2004 07:08:01 3.5 C 73 % -0.87 C
757 08-02-2004 07:20:01 3.4 C 74 % -0.78 C
758 08-02-2004 07:32:00 3.3 C 75 % -0.7 C
759 08-02-2004 07:44:00 3.1 C 78 % -0.35 C
760 08-02-2004 07:56:00 2.7 C 81 % -0.23 C
761 08-02-2004 08:08:59 2.8 C 82 % 0.04 C
762 08-02-2004 08:20:59 3.1 C 79 % -0.18 C
763 08-02-2004 08:32:01 3.5 C 73 % -0.87 C
764 08-02-2004 08:44:01 3.8 C 72 % -0.77 C
765 08-02-2004 08:56:01 4.1 C 68 % -1.26 C
766 08-02-2004 09:08:01 4.3 C 67 % -1.27 C
767 08-02-2004 09:20:01 4.4 C 66 % -1.38 C
768 08-02-2004 09:32:00 4.5 C 66 % -1.29 C
769 08-02-2004 09:44:00 4.5 C 66 % -1.29 C
770 08-02-2004 09:56:00 4.6 C 65 % -1.4 C
771 08-02-2004 10:08:58 4.8 C 63 % -1.63 C
772 08-02-2004 10:20:58 5 C 61 % -1.88 C
773 08-02-2004 10:32:02 5.1 C 59 % -2.24 C
774 08-02-2004 10:44:02 5.4 C 58 % -2.18 C
775 08-02-2004 10:56:02 5.5 C 57 % -2.33 C
Sensor: Nr:Datum:Temp:Feuchte:Taupunkt:
Aussen-T/F 776 08-02-2004 11:08:58 5.3 C 59 % -2.05 C
777 08-02-2004 11:20:17 1.2 C 79 % -2.03 C
778 08-02-2004 11:32:59 1.4 C 81 % -1.49 C
779 08-02-2004 11:43:59 2 C 78 % -1.42 C
780 08-02-2004 11:55:59 2.3 C 76 % -1.48 C
781 08-02-2004 12:08:58 2.4 C 78 % -1.03 C
782 08-02-2004 12:20:58 2.9 C 74 % -1.27 C
783 08-02-2004 12:32:01 3.1 C 71 % -1.63 C
784 08-02-2004 12:44:01 3.6 C 68 % -1.74 C
785 08-02-2004 12:56:01 4.1 C 63 % -2.3 C
786 08-02-2004 13:08:01 4.2 C 60 % -2.86 C
787 08-02-2004 13:20:01 4.1 C 60 % -2.95 C
788 08-02-2004 13:32:01 4.2 C 59 % -3.08 C
789 08-02-2004 13:44:01 4.8 C 57 % -2.98 C
790 08-02-2004 13:56:01 5.3 C 54 % -3.24 C
791 08-02-2004 14:08:01 5.4 C 53 % -3.39 C
792 08-02-2004 14:20:01 5.8 C 55 % -2.53 C
793 08-02-2004 14:32:00 5.2 C 55 % -3.09 C
794 08-02-2004 14:44:00 5.5 C 53 % -3.3 C
795 08-02-2004 14:56:00 5.6 C 52 % -3.46 C
796 08-02-2004 15:08:58 5.3 C 52 % -3.74 C
797 08-02-2004 15:20:58 5.3 C 53 % -3.49 C
798 08-02-2004 15:32:01 5.2 C 52 % -3.83 C
799 08-02-2004 15:44:01 5.1 C 52 % -3.93 C
800 08-02-2004 15:56:01 4.9 C 53 % -3.86 C
Sensor: Nr:Datum:Temp:Feuchte:Taupunkt:
Aussen-T/F 801 08-02-2004 16:08:10 4.9 C 55 % -3.37 C
802 08-02-2004 16:20:10 4.6 C 58 % -2.94 C
803 08-02-2004 16:31:59 4 C 66 % -1.76 C
804 08-02-2004 16:43:59 3.4 C 73 % -0.97 C
805 08-02-2004 16:55:59 3 C 77 % -0.63 C
806 08-02-2004 17:08:58 3 C 79 % -0.28 C
807 08-02-2004 17:20:58 2.9 C 79 % -0.37 C
808 08-02-2004 17:32:01 3 C 76 % -0.81 C
809 08-02-2004 17:44:01 3 C 75 % -0.99 C
810 08-02-2004 17:56:01 3 C 72 % -1.54 C
811 08-02-2004 18:08:01 3.4 C 69 % -1.73 C
812 08-02-2004 18:20:01 3.5 C 67 % -2.04 C
813 08-02-2004 18:32:01 3.3 C 66 % -2.43 C
814 08-02-2004 18:44:01 3.6 C 63 % -2.77 C
815 08-02-2004 18:56:01 3.7 C 63 % -2.68 C
816 08-02-2004 19:08:01 3.6 C 64 % -2.56 C
817 08-02-2004 19:20:01 2.4 C 73 % -1.93 C
818 08-02-2004 19:32:00 2.3 C 78 % -1.13 C
819 08-02-2004 19:44:00 2.4 C 79 % -0.86 C
820 08-02-2004 19:56:00 2.7 C 78 % -0.74 C
821 08-02-2004 20:08:58 3.3 C 70 % -1.64 C
822 08-02-2004 20:20:58 3.6 C 68 % -1.74 C
823 08-02-2004 20:32:01 3.8 C 66 % -1.95 C
824 08-02-2004 20:44:01 4 C 63 % -2.39 C
825 08-02-2004 20:56:01 4 C 61 % -2.82 C
Sensor: Nr:Datum:Temp:Feuchte:Taupunkt:
Aussen-T/F 826 08-02-2004 21:08:01 4 C 62 % -2.61 C
827 08-02-2004 21:20:01 3.6 C 66 % -2.14 C
828 08-02-2004 21:32:00 3.5 C 66 % -2.24 C
829 08-02-2004 21:44:00 3.4 C 67 % -2.13 C
830 08-02-2004 21:56:00 3.4 C 67 % -2.13 C
831 08-02-2004 22:08:58 3.7 C 65 % -2.25 C
832 08-02-2004 22:20:58 3.7 C 63 % -2.68 C
833 08-02-2004 22:32:01 3.5 C 63 % -2.86 C
834 08-02-2004 22:44:01 3.4 C 64 % -2.75 C
835 08-02-2004 22:56:01 3.5 C 64 % -2.65 C
836 08-02-2004 23:08:01 3.2 C 66 % -2.53 C
837 08-02-2004 23:20:01 3.5 C 64 % -2.65 C
838 08-02-2004 23:32:01 3.7 C 62 % -2.89 C
839 08-02-2004 23:44:01 3.7 C 61 % -3.11 C
840 08-02-2004 23:56:01 3.8 C 58 % -3.69 C
841 09-02-2004 00:08:01 3.9 C 58 % -3.59 C
842 09-02-2004 00:20:01 3.8 C 57 % -3.92 C
843 09-02-2004 00:32:00 3.7 C 58 % -3.78 C
844 09-02-2004 00:44:00 3.7 C 57 % -4.01 C
845 09-02-2004 00:56:00 3.6 C 57 % -4.11 C
846 09-02-2004 01:08:58 3.6 C 57 % -4.11 C
847 09-02-2004 01:20:58 3.4 C 57 % -4.29 C
848 09-02-2004 01:32:01 3.6 C 56 % -4.34 C
849 09-02-2004 01:44:01 3.4 C 57 % -4.29 C
850 09-02-2004 01:56:01 3.4 C 57 % -4.29 C
Sensor: Nr:Datum:Temp:Feuchte:Taupunkt:
Aussen-T/F 851 09-02-2004 02:08:01 3.5 C 56 % -4.43 C
852 09-02-2004 02:20:01 3.4 C 56 % -4.53 C
853 09-02-2004 02:33:01 3.3 C 56 % -4.62 C
854 09-02-2004 02:45:01 3.3 C 56 % -4.62 C
855 09-02-2004 02:57:01 2.1 C 68 % -3.17 C
856 09-02-2004 03:09:01 2.3 C 67 % -3.18 C
857 09-02-2004 03:21:00 2.3 C 66 % -3.38 C
858 09-02-2004 03:33:01 2.4 C 63 % -3.91 C
859 09-02-2004 03:45:01 2.4 C 63 % -3.91 C
860 09-02-2004 03:57:01 2.1 C 66 % -3.57 C
861 09-02-2004 04:09:01 2.2 C 64 % -3.89 C
862 09-02-2004 04:21:01 2.4 C 61 % -4.34 C
863 09-02-2004 04:33:00 2.5 C 60 % -4.46 C
864 09-02-2004 04:45:00 2.3 C 58 % -5.1 C
865 09-02-2004 04:57:00 2.6 C 57 % -5.04 C
866 09-02-2004 05:09:58 2.8 C 57 % -4.86 C
867 09-02-2004 05:21:58 2.8 C 57 % -4.86 C
868 09-02-2004 05:33:01 2.5 C 56 % -5.37 C
869 09-02-2004 05:45:01 2.5 C 56 % -5.37 C
870 09-02-2004 05:57:01 2.4 C 56 % -5.46 C
871 09-02-2004 06:09:01 2.3 C 56 % -5.56 C
872 09-02-2004 06:21:01 2.3 C 57 % -5.32 C
873 09-02-2004 06:33:00 2.4 C 57 % -5.23 C
874 09-02-2004 06:45:00 2.2 C 57 % -5.42 C
875 09-02-2004 06:57:00 2.2 C 59 % -4.96 C
Sensor: Nr:Datum:Temp:Feuchte:Taupunkt:
Aussen-T/F 876 09-02-2004 07:09:58 2 C 62 % -4.5 C
877 09-02-2004 07:21:58 2.3 C 61 % -4.43 C
878 09-02-2004 07:33:01 2.5 C 60 % -4.46 C
879 09-02-2004 07:45:01 2.5 C 59 % -4.68 C
880 09-02-2004 07:57:01 2.6 C 59 % -4.59 C
881 09-02-2004 08:09:01 2.6 C 60 % -4.37 C
882 09-02-2004 08:21:01 2.6 C 60 % -4.37 C
883 09-02-2004 08:33:01 2.8 C 59 % -4.4 C
884 09-02-2004 08:45:01 2.8 C 59 % -4.4 C
885 09-02-2004 08:57:01 2.8 C 60 % -4.18 C
886 09-02-2004 09:09:01 3 C 58 % -4.44 C
887 09-02-2004 09:21:01 3.3 C 56 % -4.62 C
888 09-02-2004 09:33:00 3.3 C 56 % -4.62 C
889 09-02-2004 09:45:00 3.4 C 56 % -4.53 C
890 09-02-2004 09:57:00 3.4 C 56 % -4.53 C
891 09-02-2004 10:09:58 3.6 C 55 % -4.58 C
892 09-02-2004 10:21:58 3.8 C 55 % -4.39 C
893 09-02-2004 10:33:01 4.1 C 52 % -4.85 C
894 09-02-2004 10:45:01 4.3 C 52 % -4.67 C
895 09-02-2004 10:57:01 4.2 C 52 % -4.76 C
896 09-02-2004 11:09:01 4.3 C 51 % -4.92 C
897 09-02-2004 11:21:01 4.4 C 52 % -4.58 C
898 09-02-2004 11:33:00 4.3 C 53 % -4.42 C
899 09-02-2004 11:45:00 4.3 C 52 % -4.67 C
900 09-02-2004 11:57:00 4.6 C 51 % -4.65 C
Sensor: Nr:Datum:Temp:Feuchte:Taupunkt:
Aussen-T/F 901 09-02-2004 12:09:58 4.5 C 52 % -4.48 C
902 09-02-2004 12:21:58 4.4 C 55 % -3.83 C
903 09-02-2004 12:33:01 4.3 C 56 % -3.69 C
904 09-02-2004 12:45:01 4.3 C 54 % -4.17 C
905 09-02-2004 12:57:01 4.4 C 53 % -4.32 C
906 09-02-2004 13:09:01 4.6 C 52 % -4.39 C
907 09-02-2004 13:21:01 4.5 C 53 % -4.23 C
908 09-02-2004 13:33:01 4.3 C 54 % -4.17 C
909 09-02-2004 13:45:01 3.8 C 59 % -3.46 C
910 09-02-2004 13:57:01 3 C 70 % -1.92 C
911 09-02-2004 14:09:01 2.8 C 73 % -1.55 C
912 09-02-2004 14:21:01 2.4 C 76 % -1.39 C
913 09-02-2004 14:33:00 2.7 C 76 % -1.1 C
914 09-02-2004 14:45:00 3.1 C 74 % -1.07 C
915 09-02-2004 14:57:00 3.6 C 70 % -1.35 C
916 09-02-2004 15:09:58 3.3 C 68 % -2.03 C
917 09-02-2004 15:21:58 2.8 C 73 % -1.55 C
918 09-02-2004 15:33:01 2.8 C 75 % -1.18 C
919 09-02-2004 15:45:01 2.5 C 78 % -0.94 C
920 09-02-2004 15:57:01 2.4 C 79 % -0.86 C
921 09-02-2004 16:09:01 2.5 C 79 % -0.76 C
922 09-02-2004 16:21:01 2.9 C 78 % -0.55 C
923 09-02-2004 16:33:00 3 C 74 % -1.17 C
924 09-02-2004 16:45:00 3.2 C 70 % -1.73 C
925 09-02-2004 16:57:00 3.3 C 67 % -2.23 C
Sensor: Nr:Datum:Temp:Feuchte:Taupunkt:
Aussen-T/F 926 09-02-2004 17:09:58 3.3 C 67 % -2.23 C
927 09-02-2004 17:21:58 3.3 C 66 % -2.43 C
928 09-02-2004 17:33:01 3.2 C 65 % -2.73 C
929 09-02-2004 17:45:01 3 C 66 % -2.72 C
930 09-02-2004 17:57:01 3.2 C 65 % -2.73 C
931 09-02-2004 18:09:01 3.2 C 63 % -3.15 C
932 09-02-2004 18:21:01 3.1 C 62 % -3.46 C
933 09-02-2004 18:33:01 3.2 C 61 % -3.58 C
934 09-02-2004 18:45:01 3.2 C 61 % -3.58 C
935 09-02-2004 18:57:01 3.2 C 62 % -3.36 C
936 09-02-2004 19:09:01 3.1 C 62 % -3.46 C
937 09-02-2004 19:21:01 2.9 C 65 % -3.02 C
938 09-02-2004 19:33:00 2.9 C 66 % -2.81 C
939 09-02-2004 19:45:00 2.9 C 67 % -2.61 C
940 09-02-2004 19:57:00 2.9 C 66 % -2.81 C
941 09-02-2004 20:09:58 3 C 65 % -2.92 C
942 09-02-2004 20:21:58 3 C 65 % -2.92 C
943 09-02-2004 20:33:01 2.9 C 66 % -2.81 C
944 09-02-2004 20:45:01 3 C 63 % -3.34 C
945 09-02-2004 20:57:01 3 C 63 % -3.34 C
946 09-02-2004 21:09:01 3.1 C 62 % -3.46 C
947 09-02-2004 21:21:01 3.1 C 62 % -3.46 C
948 09-02-2004 21:32:59 3.1 C 62 % -3.46 C
949 09-02-2004 21:44:59 3 C 64 % -3.13 C
950 09-02-2004 21:56:59 3.1 C 63 % -3.24 C
Sensor: Nr:Datum:Temp:Feuchte:Taupunkt:
Aussen-T/F 951 09-02-2004 22:09:58 3 C 63 % -3.34 C
952 09-02-2004 22:21:58 3.1 C 62 % -3.46 C
953 09-02-2004 22:33:01 3.1 C 62 % -3.46 C
954 09-02-2004 22:45:01 3.1 C 63 % -3.24 C
955 09-02-2004 22:57:01 3 C 63 % -3.34 C
956 09-02-2004 23:09:01 3 C 63 % -3.34 C
957 09-02-2004 23:21:01 2.9 C 66 % -2.81 C
958 09-02-2004 23:33:01 2.6 C 69 % -2.5 C
959 09-02-2004 23:45:01 2.6 C 70 % -2.31 C
960 09-02-2004 23:57:01 2.6 C 70 % -2.31 C
961 10-02-2004 00:09:01 2.5 C 70 % -2.4 C
962 10-02-2004 00:21:01 2.4 C 70 % -2.5 C
963 10-02-2004 00:33:00 2.3 C 69 % -2.79 C
964 10-02-2004 00:45:00 2.3 C 69 % -2.79 C
965 10-02-2004 00:57:00 2.4 C 69 % -2.69 C
966 10-02-2004 01:09:58 2.3 C 70 % -2.59 C
967 10-02-2004 01:21:58 2 C 73 % -2.32 C
968 10-02-2004 01:33:01 1.7 C 77 % -1.89 C
969 10-02-2004 01:45:01 1.5 C 78 % -1.91 C
970 10-02-2004 01:57:01 1.4 C 80 % -1.66 C
971 10-02-2004 02:09:01 1.2 C 80 % -1.86 C
972 10-02-2004 02:21:01 1.3 C 81 % -1.59 C
973 10-02-2004 02:34:02 1.2 C 81 % -1.69 C
974 10-02-2004 02:46:02 1.1 C 81 % -1.79 C
975 10-02-2004 02:58:02 0.8 C 81 % -2.08 C
Sensor: Nr:Datum:Temp:Feuchte:Taupunkt:
Aussen-T/F 976 10-02-2004 03:10:02 0.6 C 81 % -2.28 C
977 10-02-2004 03:22:02 0.6 C 81 % -2.28 C
978 10-02-2004 03:34:00 0.9 C 80 % -2.15 C
979 10-02-2004 03:46:00 1.1 C 77 % -2.47 C
980 10-02-2004 03:58:00 1.3 C 76 % -2.45 C
981 10-02-2004 04:10:59 1.3 C 74 % -2.81 C
982 10-02-2004 04:22:59 1.4 C 74 % -2.71 C
983 10-02-2004 04:34:01 1.4 C 74 % -2.71 C
984 10-02-2004 04:46:01 1.5 C 74 % -2.62 C
985 10-02-2004 04:58:01 1.6 C 74 % -2.52 C
986 10-02-2004 05:10:01 1.6 C 73 % -2.7 C
987 10-02-2004 05:22:01 1.7 C 71 % -2.98 C
988 10-02-2004 05:34:00 1.6 C 72 % -2.89 C
989 10-02-2004 05:46:00 1.6 C 71 % -3.08 C
990 10-02-2004 05:58:00 1.5 C 71 % -3.17 C
991 10-02-2004 06:10:58 1.5 C 72 % -2.99 C
992 10-02-2004 06:22:58 1.3 C 72 % -3.18 C
993 10-02-2004 06:34:01 1.3 C 72 % -3.18 C
994 10-02-2004 06:46:01 1.2 C 72 % -3.27 C
995 10-02-2004 06:58:01 1.2 C 71 % -3.46 C
996 10-02-2004 07:10:01 1.1 C 71 % -3.56 C
997 10-02-2004 07:22:01 1.1 C 71 % -3.56 C
998 10-02-2004 07:34:01 1 C 72 % -3.47 C
999 10-02-2004 07:46:01 0.9 C 73 % -3.38 C
1000 10-02-2004 07:58:01 0.6 C 74 % -3.49 C
Sensor: Nr:Datum:Temp:Feuchte:Taupunkt:
Aussen-T/F 1001 10-02-2004 08:10:01 0.6 C 73 % -3.67 C
1002 10-02-2004 08:22:01 0.6 C 73 % -3.67 C
1003 10-02-2004 08:34:00 0.5 C 73 % -3.76 C
1004 10-02-2004 08:46:00 0.7 C 72 % -3.76 C
1005 10-02-2004 08:58:00 0.7 C 72 % -3.76 C
1006 10-02-2004 09:10:59 0.8 C 71 % -3.85 C
1007 10-02-2004 09:22:59 1 C 69 % -4.03 C
1008 10-02-2004 09:34:01 1 C 69 % -4.03 C
1009 10-02-2004 09:46:01 0.9 C 70 % -3.94 C
1010 10-02-2004 09:58:01 0.9 C 69 % -4.13 C
1011 10-02-2004 10:10:01 0.9 C 69 % -4.13 C
1012 10-02-2004 10:22:01 0.9 C 70 % -3.94 C
1013 10-02-2004 10:34:00 1.1 C 68 % -4.13 C
1014 10-02-2004 10:46:00 1.5 C 67 % -3.95 C
1015 10-02-2004 10:58:00 1.6 C 67 % -3.85 C
1016 10-02-2004 11:10:58 2 C 66 % -3.67 C
1017 10-02-2004 11:22:58 2.2 C 62 % -4.31 C
1018 10-02-2004 11:34:01 2.5 C 59 % -4.68 C
1019 10-02-2004 11:46:01 2.7 C 57 % -4.95 C
1020 10-02-2004 11:58:01 3 C 55 % -5.14 C
1021 10-02-2004 12:10:01 3.2 C 54 % -5.19 C
1022 10-02-2004 12:22:01 3.4 C 53 % -5.25 C
1023 10-02-2004 12:34:01 3.5 C 50 % -5.92 C
1024 10-02-2004 12:46:01 3.8 C 48 % -6.18 C
1025 10-02-2004 12:58:01 4 C 46 % -6.55 C
Sensor: Nr:Datum:Temp:Feuchte:Taupunkt:
Aussen-T/F 1026 10-02-2004 13:10:01 4.1 C 46 % -6.46 C
1027 10-02-2004 13:22:01 4.2 C 45 % -6.65 C
1028 10-02-2004 13:34:00 4.4 C 45 % -6.47 C
1029 10-02-2004 13:46:00 4.3 C 44 % -6.85 C
1030 10-02-2004 13:58:00 4.4 C 44 % -6.76 C
1031 10-02-2004 14:10:00 4.4 C 43 % -7.06 C
1032 10-02-2004 14:22:59 4.2 C 43 % -7.24 C
1033 10-02-2004 14:34:40 4.3 C 45 % -6.56 C
1034 10-02-2004 14:46:40 4.2 C 45 % -6.65 C
1035 10-02-2004 14:58:01 4 C 46 % -6.55 C
1036 10-02-2004 15:10:01 4 C 45 % -6.84 C
1037 10-02-2004 15:22:01 4 C 46 % -6.55 C
1038 10-02-2004 15:34:01 4 C 47 % -6.27 C
1039 10-02-2004 15:46:00 3.9 C 48 % -6.09 C
1040 10-02-2004 15:58:00 3.9 C 49 % -5.82 C
1041 10-02-2004 16:10:59 3.8 C 49 % -5.91 C
1042 10-02-2004 16:22:58 3.8 C 50 % -5.65 C
1043 10-02-2004 16:34:01 3.8 C 51 % -5.39 C
1044 10-02-2004 16:46:01 3.7 C 52 % -5.22 C
1045 10-02-2004 16:58:01 3.6 C 53 % -5.07 C
1046 10-02-2004 17:10:02 3.5 C 54 % -4.91 C
1047 10-02-2004 17:22:01 3.5 C 53 % -5.16 C
1048 10-02-2004 17:34:01 3.4 C 54 % -5.01 C
1049 10-02-2004 17:46:01 3.4 C 53 % -5.25 C
1050 10-02-2004 17:58:01 3.3 C 54 % -5.1 C
Sensor: Nr:Datum:Temp:Feuchte:Taupunkt:
Aussen-T/F 1051 10-02-2004 18:10:00 3.3 C 53 % -5.35 C
1052 10-02-2004 18:22:59 3.4 C 53 % -5.25 C
1053 10-02-2004 18:34:58 3.4 C 52 % -5.5 C
1054 10-02-2004 18:46:01 3.4 C 52 % -5.5 C
1055 10-02-2004 18:58:01 3.3 C 52 % -5.6 C
1056 10-02-2004 19:10:01 3.3 C 52 % -5.6 C
1057 10-02-2004 19:22:01 3.4 C 52 % -5.5 C
1058 10-02-2004 19:34:01 3.4 C 52 % -5.5 C
1059 10-02-2004 19:46:00 3.4 C 52 % -5.5 C
1060 10-02-2004 19:58:00 3.3 C 53 % -5.35 C
1061 10-02-2004 20:10:00 3.4 C 52 % -5.5 C
1062 10-02-2004 20:22:59 3.4 C 53 % -5.25 C
1063 10-02-2004 20:34:57 3.4 C 53 % -5.25 C
1064 10-02-2004 20:46:01 3.4 C 54 % -5.01 C
1065 10-02-2004 20:58:01 3.2 C 59 % -4.02 C
1066 10-02-2004 21:10:01 2.9 C 65 % -3.02 C
1067 10-02-2004 21:22:01 2.2 C 70 % -2.69 C
1068 10-02-2004 21:34:01 1.6 C 76 % -2.16 C
1069 10-02-2004 21:46:00 1.3 C 79 % -1.93 C
1070 10-02-2004 21:58:00 1 C 81 % -1.88 C
1071 10-02-2004 22:10:00 1 C 82 % -1.72 C
1072 10-02-2004 22:22:58 1 C 83 % -1.55 C
1073 10-02-2004 22:34:57 0.8 C 84 % -1.59 C
1074 10-02-2004 22:46:01 1 C 84 % -1.39 C
1075 10-02-2004 22:58:01 0.9 C 84 % -1.49 C
Sensor: Nr:Datum:Temp:Feuchte:Taupunkt:
Aussen-T/F 1076 10-02-2004 23:10:01 1.1 C 84 % -1.29 C
1077 10-02-2004 23:22:01 1.3 C 84 % -1.1 C
1078 10-02-2004 23:34:01 1.4 C 84 % -1 C
1079 10-02-2004 23:46:01 1.5 C 83 % -1.06 C
1080 10-02-2004 23:58:01 1.5 C 83 % -1.06 C
1081 11-02-2004 00:10:01 1.6 C 83 % -0.97 C
1082 11-02-2004 00:22:01 1.7 C 83 % -0.87 C
1083 11-02-2004 00:34:01 1.6 C 83 % -0.97 C
1084 11-02-2004 00:46:00 1.7 C 83 % -0.87 C
1085 11-02-2004 00:58:00 1.8 C 83 % -0.77 C
1086 11-02-2004 01:10:00 1.9 C 83 % -0.67 C
1087 11-02-2004 01:22:59 2 C 82 % -0.74 C
1088 11-02-2004 01:34:57 2 C 82 % -0.74 C
1089 11-02-2004 01:46:01 2.3 C 82 % -0.45 C
1090 11-02-2004 01:58:01 2.3 C 82 % -0.45 C
1091 11-02-2004 02:10:01 2.4 C 82 % -0.35 C
1092 11-02-2004 02:22:01 2.3 C 83 % -0.28 C
1093 11-02-2004 02:34:01 2.4 C 84 % -0.02 C
1094 11-02-2004 02:47:01 2.5 C 84 % 0.08 C
1095 11-02-2004 02:59:01 2.6 C 84 % 0.18 C
1096 11-02-2004 03:11:00 2.7 C 84 % 0.27 C
1097 11-02-2004 03:23:00 2.9 C 84 % 0.47 C
1098 11-02-2004 03:35:01 3 C 83 % 0.4 C
1099 11-02-2004 03:47:01 3.1 C 83 % 0.5 C
1100 11-02-2004 03:59:01 3.1 C 84 % 0.67 C
Sensor: Nr:Datum:Temp:Feuchte:Taupunkt:
Aussen-T/F 1101 11-02-2004 04:11:01 3.2 C 84 % 0.76 C
1102 11-02-2004 04:23:00 3.3 C 85 % 1.03 C
1103 11-02-2004 04:35:00 3.4 C 85 % 1.12 C
1104 11-02-2004 04:47:01 3.4 C 85 % 1.12 C
1105 11-02-2004 04:59:01 3.5 C 85 % 1.22 C
1106 11-02-2004 05:11:01 3.6 C 86 % 1.48 C
1107 11-02-2004 05:23:01 3.7 C 86 % 1.58 C
1108 11-02-2004 05:35:00 3.7 C 86 % 1.58 C
1109 11-02-2004 05:47:01 3.7 C 86 % 1.58 C
1110 11-02-2004 05:59:01 3.7 C 87 % 1.74 C
1111 11-02-2004 06:11:01 3.8 C 87 % 1.84 C
1112 11-02-2004 06:23:01 3.9 C 88 % 2.1 C
1113 11-02-2004 06:35:01 4 C 87 % 2.04 C
1114 11-02-2004 06:47:00 4.1 C 87 % 2.14 C
1115 11-02-2004 06:59:00 4.3 C 88 % 2.49 C
1116 11-02-2004 07:11:00 4.3 C 88 % 2.49 C
1117 11-02-2004 07:23:58 4.4 C 88 % 2.59 C
1118 11-02-2004 07:35:57 4.5 C 88 % 2.69 C
1119 11-02-2004 07:47:01 4.6 C 89 % 2.95 C
1120 11-02-2004 07:59:01 4.7 C 89 % 3.05 C
1121 11-02-2004 08:11:01 5.1 C 89 % 3.44 C
1122 11-02-2004 08:23:01 5.4 C 89 % 3.74 C
1123 11-02-2004 08:35:01 5.3 C 89 % 3.64 C
1124 11-02-2004 08:47:00 5.4 C 90 % 3.89 C
1125 11-02-2004 08:59:00 5.6 C 90 % 4.09 C
Sensor: Nr:Datum:Temp:Feuchte:Taupunkt:
Aussen-T/F 1126 11-02-2004 09:11:59 5.9 C 90 % 4.39 C
1127 11-02-2004 09:23:58 6.3 C 90 % 4.78 C
1128 11-02-2004 09:35:57 6.7 C 90 % 5.18 C
1129 11-02-2004 09:47:04 6.9 C 90 % 5.38 C
1130 11-02-2004 09:59:01 7 C 89 % 5.31 C
1131 11-02-2004 10:11:01 7.3 C 89 % 5.61 C
1132 11-02-2004 10:23:01 7.4 C 88 % 5.55 C
1133 11-02-2004 10:35:00 7.6 C 87 % 5.58 C
1134 11-02-2004 10:47:01 7.5 C 86 % 5.31 C
1135 11-02-2004 10:59:01 7.6 C 84 % 5.07 C
1136 11-02-2004 11:11:01 7.6 C 83 % 4.9 C
1137 11-02-2004 11:23:01 7.8 C 82 % 4.92 C
1138 11-02-2004 11:35:01 8.1 C 79 % 4.68 C
1139 11-02-2004 11:47:00 8.3 C 77 % 4.51 C
1140 11-02-2004 11:59:00 8.5 C 76 % 4.52 C
1141 11-02-2004 12:11:00 8.5 C 74 % 4.14 C
1142 11-02-2004 12:23:58 8.5 C 73 % 3.95 C
1143 11-02-2004 12:35:57 8.4 C 74 % 4.04 C
1144 11-02-2004 12:47:01 8.3 C 75 % 4.14 C
1145 11-02-2004 12:59:01 8 C 76 % 4.04 C
1146 11-02-2004 13:11:01 7.8 C 78 % 4.21 C
1147 11-02-2004 13:23:01 7.6 C 79 % 4.2 C
1148 11-02-2004 13:35:01 7.5 C 81 % 4.46 C
1149 11-02-2004 13:47:00 7.5 C 81 % 4.46 C
1150 11-02-2004 13:59:00 7.5 C 81 % 4.46 C
Sensor: Nr:Datum:Temp:Feuchte:Taupunkt:
Aussen-T/F 1151 11-02-2004 14:11:59 7.5 C 81 % 4.46 C
1152 11-02-2004 14:23:58 7.5 C 80 % 4.28 C
1153 11-02-2004 14:35:57 7.5 C 80 % 4.28 C
1154 11-02-2004 14:47:01 7.5 C 79 % 4.1 C
1155 11-02-2004 14:59:01 7.6 C 78 % 4.02 C
1156 11-02-2004 15:11:01 7.6 C 78 % 4.02 C
1157 11-02-2004 15:23:01 7.7 C 79 % 4.3 C
1158 11-02-2004 15:35:00 7.7 C 79 % 4.3 C
1159 11-02-2004 15:47:01 7.8 C 74 % 3.46 C
1160 11-02-2004 15:59:01 7.7 C 74 % 3.37 C
1161 11-02-2004 16:11:01 7.6 C 74 % 3.27 C
1162 11-02-2004 16:23:01 7.7 C 73 % 3.18 C
1163 11-02-2004 16:35:01 7.7 C 73 % 3.18 C
1164 11-02-2004 16:47:00 7.6 C 73 % 3.08 C
1165 11-02-2004 16:59:00 7.6 C 73 % 3.08 C
1166 11-02-2004 17:11:00 7.5 C 73 % 2.98 C
1167 11-02-2004 17:23:58 7.5 C 73 % 2.98 C
1168 11-02-2004 17:35:57 7.4 C 73 % 2.89 C
1169 11-02-2004 17:47:01 7.4 C 73 % 2.89 C
1170 11-02-2004 17:59:01 7.4 C 73 % 2.89 C
1171 11-02-2004 18:11:01 7.4 C 72 % 2.69 C
1172 11-02-2004 18:23:01 7.1 C 73 % 2.6 C
1173 11-02-2004 18:35:01 7 C 74 % 2.69 C
1174 11-02-2004 18:47:00 6.9 C 76 % 2.97 C
1175 11-02-2004 18:59:00 6.8 C 76 % 2.87 C
Sensor: Nr:Datum:Temp:Feuchte:Taupunkt:
Aussen-T/F 1176 11-02-2004 19:11:59 6.7 C 77 % 2.96 C
1177 11-02-2004 19:23:58 6.6 C 77 % 2.86 C
1178 11-02-2004 19:35:57 6.5 C 78 % 2.95 C
1179 11-02-2004 19:47:01 6.5 C 75 % 2.4 C
1180 11-02-2004 19:59:01 6.5 C 73 % 2.02 C
1181 11-02-2004 20:11:01 6.3 C 74 % 2.02 C
1182 11-02-2004 20:23:01 6 C 75 % 1.91 C
1183 11-02-2004 20:35:01 5.7 C 76 % 1.81 C
1184 11-02-2004 20:47:01 5.3 C 75 % 1.24 C
1185 11-02-2004 20:59:01 5.1 C 75 % 1.04 C
1186 11-02-2004 21:11:01 4.7 C 76 % 0.84 C
1187 11-02-2004 21:23:01 4.3 C 76 % 0.45 C
1188 11-02-2004 21:35:01 3.9 C 77 % 0.25 C
1189 11-02-2004 21:47:00 3.8 C 77 % 0.15 C
1190 11-02-2004 21:59:00 4 C 76 % 0.16 C
1191 11-02-2004 22:11:00 4.3 C 76 % 0.45 C
1192 11-02-2004 22:23:51 4.3 C 76 % 0.45 C
1193 11-02-2004 22:35:51 4.4 C 76 % 0.55 C
1194 11-02-2004 22:47:01 4.5 C 73 % 0.09 C
1195 11-02-2004 22:59:01 4.5 C 72 % -0.1 C
1196 11-02-2004 23:11:01 4.3 C 72 % -0.29 C
1197 11-02-2004 23:23:01 4.1 C 72 % -0.48 C
1198 11-02-2004 23:35:01 3.9 C 74 % -0.3 C
1199 11-02-2004 23:47:00 3.8 C 74 % -0.4 C
1200 11-02-2004 23:59:00 3.6 C 74 % -0.59 C
Sensor: Nr:Datum:Temp:Feuchte:Taupunkt:
Aussen-T/F 1201 12-02-2004 00:11:59 3.5 C 74 % -0.69 C
1202 12-02-2004 00:23:58 3.4 C 74 % -0.78 C
1203 12-02-2004 00:35:57 3.5 C 73 % -0.87 C
1204 12-02-2004 00:47:01 3.4 C 73 % -0.97 C
1205 12-02-2004 00:59:01 3.3 C 72 % -1.25 C
1206 12-02-2004 01:11:01 2.9 C 73 % -1.45 C
1207 12-02-2004 01:23:01 2.6 C 73 % -1.74 C
1208 12-02-2004 01:35:00 2.4 C 73 % -1.93 C
1209 12-02-2004 01:47:01 2.4 C 73 % -1.93 C
1210 12-02-2004 01:59:01 2.4 C 73 % -1.93 C
1211 12-02-2004 02:11:01 2.5 C 73 % -1.84 C
1212 12-02-2004 02:23:01 2.6 C 72 % -1.93 C
1213 12-02-2004 02:35:01 2.5 C 69 % -2.6 C
1214 12-02-2004 02:48:01 2.5 C 68 % -2.79 C
1215 12-02-2004 03:00:01 2.5 C 67 % -2.99 C
1216 12-02-2004 03:12:00 2.4 C 67 % -3.09 C
1217 12-02-2004 03:24:00 2.4 C 68 % -2.89 C
1218 12-02-2004 03:36:01 2.5 C 70 % -2.4 C
1219 12-02-2004 03:48:01 2.4 C 69 % -2.69 C
1220 12-02-2004 04:00:01 2.3 C 70 % -2.59 C
1221 12-02-2004 04:12:01 2.3 C 70 % -2.59 C
1222 12-02-2004 04:24:00 2.3 C 70 % -2.59 C
1223 12-02-2004 04:36:00 2.3 C 70 % -2.59 C
1224 12-02-2004 04:48:01 2.3 C 69 % -2.79 C
1225 12-02-2004 05:00:01 2.2 C 69 % -2.88 C
Sensor: Nr:Datum:Temp:Feuchte:Taupunkt:
Aussen-T/F 1226 12-02-2004 05:12:01 2.1 C 70 % -2.79 C
1227 12-02-2004 05:24:01 1.9 C 71 % -2.79 C
1228 12-02-2004 05:36:01 1.9 C 72 % -2.6 C
1229 12-02-2004 05:48:01 1.9 C 72 % -2.6 C
1230 12-02-2004 06:00:01 1.8 C 71 % -2.88 C
1231 12-02-2004 06:12:01 1.8 C 70 % -3.07 C
1232 12-02-2004 06:24:01 1.7 C 71 % -2.98 C
1233 12-02-2004 06:36:01 1.7 C 70 % -3.17 C
1234 12-02-2004 06:48:00 1.6 C 69 % -3.46 C
1235 12-02-2004 07:00:00 1.5 C 69 % -3.55 C
1236 12-02-2004 07:12:00 1.5 C 70 % -3.36 C
1237 12-02-2004 07:24:59 1.5 C 70 % -3.36 C
1238 12-02-2004 07:36:34 1.6 C 70 % -3.27 C
1239 12-02-2004 07:48:34 1.4 C 70 % -3.46 C
1240 12-02-2004 08:00:34 1.4 C 71 % -3.27 C
1241 12-02-2004 08:12:34 1.5 C 71 % -3.17 C
1242 12-02-2004 08:24:34 1.7 C 71 % -2.98 C
1243 12-02-2004 08:36:34 1.9 C 71 % -2.79 C
1244 12-02-2004 08:48:34 2.1 C 70 % -2.79 C
1245 12-02-2004 09:00:34 2.3 C 70 % -2.59 C
1246 12-02-2004 09:12:34 2.5 C 70 % -2.4 C
1247 12-02-2004 09:24:34 2.7 C 67 % -2.8 C
1248 12-02-2004 09:36:57 2.7 C 66 % -3 C
1249 12-02-2004 09:48:01 3.1 C 67 % -2.42 C
1250 12-02-2004 10:00:01 3.3 C 65 % -2.64 C
Sensor: Nr:Datum:Temp:Feuchte:Taupunkt:
Aussen-T/F 1251 12-02-2004 10:12:01 3.3 C 63 % -3.05 C
1252 12-02-2004 10:24:01 3.3 C 61 % -3.49 C
1253 12-02-2004 10:36:01 3.9 C 63 % -2.49 C
1254 12-02-2004 10:48:01 4.2 C 59 % -3.08 C
1255 12-02-2004 11:00:01 4.4 C 58 % -3.12 C
1256 12-02-2004 11:12:01 4.3 C 56 % -3.69 C
1257 12-02-2004 11:24:01 4.3 C 57 % -3.45 C
1258 12-02-2004 11:36:01 4.8 C 58 % -2.75 C
1259 12-02-2004 11:48:00 5.3 C 57 % -2.51 C
1260 12-02-2004 12:00:00 5.6 C 56 % -2.47 C
1261 12-02-2004 12:12:00 5.8 C 53 % -3.02 C
1262 12-02-2004 12:24:58 6 C 52 % -3.09 C
1263 12-02-2004 12:36:57 6.4 C 54 % -2.21 C
1264 12-02-2004 12:48:01 6.4 C 51 % -2.98 C
1265 12-02-2004 13:00:01 6.2 C 50 % -3.43 C
1266 12-02-2004 13:12:01 6.1 C 51 % -3.26 C
1267 12-02-2004 13:24:01 6.2 C 51 % -3.17 C
1268 12-02-2004 13:36:01 6.7 C 51 % -2.71 C
1269 12-02-2004 13:48:00 6.8 C 48 % -3.42 C
1270 12-02-2004 14:00:00 7 C 49 % -2.97 C
1271 12-02-2004 14:12:59 6.5 C 49 % -3.43 C
1272 12-02-2004 14:24:58 6.8 C 50 % -2.88 C
1273 12-02-2004 14:36:57 6.9 C 50 % -2.79 C
1274 12-02-2004 14:48:01 7 C 50 % -2.69 C
1275 12-02-2004 15:00:01 7 C 49 % -2.97 C
Sensor: Nr:Datum:Temp:Feuchte:Taupunkt:
Aussen-T/F 1276 12-02-2004 15:12:01 6.9 C 50 % -2.79 C
1277 12-02-2004 15:24:01 6.9 C 50 % -2.79 C
1278 12-02-2004 15:36:01 6.6 C 49 % -3.33 C
1279 12-02-2004 15:48:01 6.6 C 50 % -3.06 C
1280 12-02-2004 16:00:01 6.4 C 51 % -2.98 C
1281 12-02-2004 16:12:01 6.5 C 51 % -2.89 C
1282 12-02-2004 16:24:01 6.4 C 51 % -2.98 C
1283 12-02-2004 16:36:01 6.4 C 50 % -3.25 C
1284 12-02-2004 16:48:00 6 C 50 % -3.62 C
1285 12-02-2004 17:00:00 5.6 C 53 % -3.21 C
1286 12-02-2004 17:12:00 5.4 C 57 % -2.42 C
1287 12-02-2004 17:24:58 5.3 C 57 % -2.51 C
1288 12-02-2004 17:36:57 5.2 C 58 % -2.37 C
1289 12-02-2004 17:48:01 5.2 C 59 % -2.14 C
1290 12-02-2004 18:00:01 4.9 C 61 % -1.97 C
1291 12-02-2004 18:12:01 4.5 C 61 % -2.35 C
1292 12-02-2004 18:24:01 4.3 C 60 % -2.76 C
1293 12-02-2004 18:36:01 4.2 C 61 % -2.64 C
1294 12-02-2004 19:00:00 4.2 C 61 % -2.64 C
1295 12-02-2004 19:00:59 4.3 C 62 % -2.32 C
1296 12-02-2004 19:12:59 4.4 C 61 % -2.45 C
1297 12-02-2004 19:24:58 4.4 C 63 % -2.01 C
1298 12-02-2004 19:36:57 4.5 C 64 % -1.7 C
1299 12-02-2004 19:48:01 4.5 C 62 % -2.13 C
1300 12-02-2004 20:00:01 4.5 C 64 % -1.7 C
Sensor: Nr:Datum:Temp:Feuchte:Taupunkt:
Aussen-T/F 1301 12-02-2004 20:12:01 4.5 C 63 % -1.92 C
1302 12-02-2004 20:24:01 4.5 C 64 % -1.7 C
1303 12-02-2004 20:36:01 4.5 C 64 % -1.7 C
1304 12-02-2004 20:48:01 4.5 C 64 % -1.7 C
1305 12-02-2004 21:00:01 4.2 C 64 % -1.99 C
1306 12-02-2004 21:12:01 3.9 C 65 % -2.06 C
1307 12-02-2004 21:24:01 3.7 C 67 % -1.85 C
1308 12-02-2004 21:36:01 3.5 C 67 % -2.04 C
1309 12-02-2004 21:48:00 3.5 C 68 % -1.84 C
1310 12-02-2004 22:00:00 3.7 C 70 % -1.25 C
1311 12-02-2004 22:12:00 3.9 C 70 % -1.06 C
1312 12-02-2004 22:24:58 4 C 69 % -1.16 C
1313 12-02-2004 22:36:57 3.9 C 69 % -1.26 C
1314 12-02-2004 22:48:01 3.7 C 70 % -1.25 C
1315 12-02-2004 23:00:01 3.7 C 70 % -1.25 C
1316 12-02-2004 23:12:01 3.8 C 69 % -1.35 C
1317 12-02-2004 23:24:01 3.8 C 69 % -1.35 C
1318 12-02-2004 23:36:01 3.8 C 70 % -1.16 C
1319 13-02-2004 00:00:00 3.7 C 70 % -1.25 C
1320 13-02-2004 00:00:59 3.8 C 71 % -0.96 C
1321 13-02-2004 00:12:59 3.9 C 71 % -0.87 C
1322 13-02-2004 00:24:59 4 C 70 % -0.96 C
1323 13-02-2004 00:36:57 3.9 C 72 % -0.68 C
1324 13-02-2004 00:48:01 3.7 C 74 % -0.49 C
1325 13-02-2004 01:00:01 3.7 C 76 % -0.13 C
Sensor: Nr:Datum:Temp:Feuchte:Taupunkt:
Aussen-T/F 1326 13-02-2004 01:12:01 3.6 C 78 % 0.13 C
1327 13-02-2004 01:24:01 3.5 C 79 % 0.21 C
1328 13-02-2004 01:36:01 3.4 C 80 % 0.29 C
1329 13-02-2004 01:48:01 3.3 C 81 % 0.36 C
1330 13-02-2004 02:00:01 3.3 C 82 % 0.53 C
1331 13-02-2004 02:12:01 3.4 C 82 % 0.63 C
1332 13-02-2004 02:24:01 3.4 C 82 % 0.63 C
1333 13-02-2004 02:36:01 3.5 C 81 % 0.55 C
1334 13-02-2004 02:49:01 3.5 C 80 % 0.38 C
1335 13-02-2004 03:01:01 3.6 C 80 % 0.48 C
1336 13-02-2004 03:13:59 3.6 C 79 % 0.31 C
1337 13-02-2004 03:24:59 3.6 C 79 % 0.31 C
1338 13-02-2004 03:37:01 3.7 C 79 % 0.4 C
1339 13-02-2004 03:49:01 3.7 C 78 % 0.23 C
1340 13-02-2004 04:01:01 3.8 C 78 % 0.33 C
1341 13-02-2004 04:13:01 3.8 C 78 % 0.33 C
1342 13-02-2004 04:25:01 3.8 C 77 % 0.15 C
1343 13-02-2004 04:37:01 3.8 C 78 % 0.33 C
1344 13-02-2004 04:49:00 3.8 C 79 % 0.5 C
1345 13-02-2004 05:01:59 3.9 C 79 % 0.6 C
1346 13-02-2004 05:13:59 3.9 C 80 % 0.77 C
1347 13-02-2004 05:25:58 3.9 C 80 % 0.77 C
1348 13-02-2004 05:37:57 3.9 C 80 % 0.77 C
1349 13-02-2004 05:49:01 3.9 C 80 % 0.77 C
1350 13-02-2004 06:01:01 4 C 79 % 0.7 C
Sensor: Nr:Datum:Temp:Feuchte:Taupunkt:
Aussen-T/F 1351 13-02-2004 06:13:01 4 C 80 % 0.87 C
1352 13-02-2004 06:25:01 4 C 80 % 0.87 C
1353 13-02-2004 06:37:00 4.1 C 80 % 0.97 C
1354 13-02-2004 06:49:01 4.1 C 80 % 0.97 C
1355 13-02-2004 07:01:01 4.1 C 80 % 0.97 C
1356 13-02-2004 07:13:01 4.1 C 80 % 0.97 C
1357 13-02-2004 07:25:01 4.2 C 81 % 1.24 C
1358 13-02-2004 07:37:01 4.2 C 81 % 1.24 C
1359 13-02-2004 07:49:00 4.3 C 81 % 1.34 C
1360 13-02-2004 08:01:00 4.4 C 81 % 1.43 C
1361 13-02-2004 08:13:00 4.5 C 81 % 1.53 C
1362 13-02-2004 08:25:58 4.5 C 81 % 1.53 C
1363 13-02-2004 08:37:57 4.6 C 80 % 1.46 C
1364 13-02-2004 08:49:01 4.6 C 80 % 1.46 C
1365 13-02-2004 09:01:01 4.7 C 79 % 1.38 C
1366 13-02-2004 09:13:01 4.8 C 79 % 1.47 C
1367 13-02-2004 09:25:01 4.9 C 79 % 1.57 C
1368 13-02-2004 09:37:01 5 C 78 % 1.49 C
1369 13-02-2004 09:49:00 5.1 C 77 % 1.41 C
1370 13-02-2004 10:01:59 5.1 C 77 % 1.41 C
1371 13-02-2004 10:13:59 5.3 C 77 % 1.6 C
1372 13-02-2004 10:25:58 5.3 C 77 % 1.6 C
1373 13-02-2004 10:37:57 5.3 C 77 % 1.6 C
1374 13-02-2004 10:49:01 5.4 C 77 % 1.7 C
1375 13-02-2004 11:01:01 5.6 C 76 % 1.71 C
Sensor: Nr:Datum:Temp:Feuchte:Taupunkt:
Aussen-T/F 1376 13-02-2004 11:13:01 5.8 C 76 % 1.91 C
1377 13-02-2004 11:25:01 5.9 C 75 % 1.82 C
1378 13-02-2004 11:37:00 5.9 C 75 % 1.82 C
1379 13-02-2004 11:49:01 6.1 C 74 % 1.82 C
1380 13-02-2004 12:01:01 6.2 C 73 % 1.73 C
1381 13-02-2004 12:13:01 6.5 C 73 % 2.02 C
1382 13-02-2004 12:25:01 6.5 C 72 % 1.83 C
1383 13-02-2004 12:37:01 6.6 C 72 % 1.92 C
1384 13-02-2004 12:49:00 6.8 C 72 % 2.12 C
1385 13-02-2004 13:01:00 7.1 C 70 % 2.01 C
1386 13-02-2004 13:13:00 7.1 C 70 % 2.01 C
1387 13-02-2004 13:25:58 7.2 C 69 % 1.9 C
1388 13-02-2004 13:37:57 7.4 C 70 % 2.3 C
1389 13-02-2004 13:49:01 7.3 C 69 % 2 C
1390 13-02-2004 14:01:01 7.4 C 69 % 2.1 C
1391 13-02-2004 14:13:01 7.5 C 69 % 2.19 C
1392 13-02-2004 14:25:01 7.5 C 69 % 2.19 C
1393 13-02-2004 14:37:01 7.6 C 68 % 2.08 C
1394 13-02-2004 14:49:01 7.6 C 68 % 2.08 C
1395 13-02-2004 15:01:01 7.7 C 68 % 2.18 C
1396 13-02-2004 15:13:01 7.8 C 67 % 2.07 C
1397 13-02-2004 15:25:01 7.8 C 68 % 2.27 C
1398 13-02-2004 15:37:08 7.7 C 68 % 2.18 C
1399 13-02-2004 15:49:37 7.8 C 68 % 2.27 C
1400 13-02-2004 16:01:00 7.7 C 68 % 2.18 C
Sensor: Nr:Datum:Temp:Feuchte:Taupunkt:
Aussen-T/F 1401 13-02-2004 16:13:00 7.8 C 68 % 2.27 C
1402 13-02-2004 16:25:59 7.7 C 68 % 2.18 C
1403 13-02-2004 16:37:57 7.7 C 68 % 2.18 C
1404 13-02-2004 16:49:01 7.7 C 68 % 2.18 C
1405 13-02-2004 17:01:01 7.6 C 69 % 2.29 C
1406 13-02-2004 17:13:01 7.5 C 71 % 2.59 C
1407 13-02-2004 17:25:01 7.3 C 72 % 2.6 C
1408 13-02-2004 17:37:01 7.4 C 72 % 2.69 C
1409 13-02-2004 17:49:00 7.1 C 72 % 2.4 C
1410 13-02-2004 18:01:00 7 C 72 % 2.31 C
1411 13-02-2004 18:13:00 6.9 C 74 % 2.6 C
1412 13-02-2004 18:25:58 6.8 C 73 % 2.31 C
1413 13-02-2004 18:37:57 6.8 C 74 % 2.5 C
1414 13-02-2004 18:49:01 6.8 C 74 % 2.5 C
1415 13-02-2004 19:01:01 6.7 C 75 % 2.59 C
1416 13-02-2004 19:13:01 6.7 C 75 % 2.59 C
1417 13-02-2004 19:25:01 6.8 C 75 % 2.69 C
1418 13-02-2004 19:37:01 6.7 C 75 % 2.59 C
1419 13-02-2004 19:49:01 6.7 C 75 % 2.59 C
1420 13-02-2004 20:01:01 6.7 C 75 % 2.59 C
1421 13-02-2004 20:13:01 6.7 C 75 % 2.59 C
1422 13-02-2004 20:25:01 6.7 C 75 % 2.59 C
1423 13-02-2004 20:37:01 6.6 C 75 % 2.49 C
1424 13-02-2004 20:49:00 6.7 C 75 % 2.59 C
1425 13-02-2004 21:01:00 6.5 C 75 % 2.4 C
Sensor: Nr:Datum:Temp:Feuchte:Taupunkt:
Aussen-T/F 1426 13-02-2004 21:13:00 6.5 C 76 % 2.58 C
1427 13-02-2004 21:25:59 6.4 C 77 % 2.67 C
1428 13-02-2004 21:37:57 6.4 C 77 % 2.67 C
1429 13-02-2004 21:49:01 6.4 C 77 % 2.67 C
1430 13-02-2004 22:01:01 6.4 C 77 % 2.67 C
1431 13-02-2004 22:13:01 6.4 C 77 % 2.67 C
1432 13-02-2004 22:25:01 6.5 C 77 % 2.77 C
1433 13-02-2004 22:37:01 6.3 C 77 % 2.57 C
1434 13-02-2004 22:49:00 6.3 C 77 % 2.57 C
1435 13-02-2004 23:00:59 6.4 C 77 % 2.67 C
1436 13-02-2004 23:12:59 6.4 C 78 % 2.85 C
1437 13-02-2004 23:25:58 6.4 C 77 % 2.67 C
1438 13-02-2004 23:37:57 6.4 C 77 % 2.67 C
1439 13-02-2004 23:49:01 6.3 C 78 % 2.75 C
1440 14-02-2004 00:01:01 6.3 C 78 % 2.75 C
1441 14-02-2004 00:13:01 6.3 C 78 % 2.75 C
1442 14-02-2004 00:25:01 6.3 C 78 % 2.75 C
1443 14-02-2004 00:37:01 6.2 C 78 % 2.66 C
1444 14-02-2004 00:49:00 6.2 C 78 % 2.66 C
1445 14-02-2004 01:01:00 6.2 C 78 % 2.66 C
1446 14-02-2004 01:13:00 6.2 C 78 % 2.66 C
1447 14-02-2004 01:25:59 6 C 78 % 2.46 C
1448 14-02-2004 01:37:58 6.1 C 78 % 2.56 C
1449 14-02-2004 01:49:01 6.1 C 78 % 2.56 C
1450 14-02-2004 02:01:01 6.1 C 78 % 2.56 C
Sensor: Nr:Datum:Temp:Feuchte:Taupunkt:
Aussen-T/F 1451 14-02-2004 02:13:01 6.1 C 78 % 2.56 C
1452 14-02-2004 02:25:01 6 C 78 % 2.46 C
1453 14-02-2004 02:37:01 6 C 78 % 2.46 C
1454 14-02-2004 02:50:01 6 C 78 % 2.46 C
1455 14-02-2004 03:02:01 6 C 78 % 2.46 C
1456 14-02-2004 03:14:00 6 C 78 % 2.46 C
1457 14-02-2004 03:26:00 6 C 78 % 2.46 C
1458 14-02-2004 03:38:01 5.9 C 79 % 2.54 C
1459 14-02-2004 03:50:01 5.9 C 79 % 2.54 C
1460 14-02-2004 04:02:01 5.9 C 79 % 2.54 C
1461 14-02-2004 04:14:01 5.9 C 79 % 2.54 C
1462 14-02-2004 04:26:00 5.9 C 79 % 2.54 C
1463 14-02-2004 04:38:00 5.8 C 79 % 2.45 C
1464 14-02-2004 04:50:01 5.8 C 79 % 2.45 C
1465 14-02-2004 05:02:01 5.7 C 79 % 2.35 C
1466 14-02-2004 05:14:01 5.7 C 80 % 2.53 C
1467 14-02-2004 05:26:01 5.6 C 80 % 2.43 C
1468 14-02-2004 05:38:01 5.5 C 80 % 2.33 C
1469 14-02-2004 05:50:00 5.6 C 80 % 2.43 C
1470 14-02-2004 06:02:59 5.6 C 80 % 2.43 C
1471 14-02-2004 06:14:58 5.6 C 80 % 2.43 C
1472 14-02-2004 06:26:58 5.5 C 80 % 2.33 C
1473 14-02-2004 06:38:57 5.5 C 80 % 2.33 C
1474 14-02-2004 06:50:01 5.5 C 81 % 2.51 C
1475 14-02-2004 07:02:01 5.5 C 81 % 2.51 C
Sensor: Nr:Datum:Temp:Feuchte:Taupunkt:
Aussen-T/F 1476 14-02-2004 07:14:01 5.5 C 81 % 2.51 C
1477 14-02-2004 07:26:01 5.5 C 81 % 2.51 C
1478 14-02-2004 07:38:00 5.3 C 81 % 2.31 C
1479 14-02-2004 07:50:01 5.3 C 81 % 2.31 C
1480 14-02-2004 08:02:01 5.3 C 81 % 2.31 C
1481 14-02-2004 08:14:01 5.4 C 81 % 2.41 C
1482 14-02-2004 08:26:01 5.5 C 81 % 2.51 C
1483 14-02-2004 08:38:01 5.6 C 81 % 2.6 C
1484 14-02-2004 08:50:00 5.7 C 80 % 2.53 C
1485 14-02-2004 09:02:00 5.9 C 79 % 2.54 C
1486 14-02-2004 09:14:00 6 C 78 % 2.46 C
1487 14-02-2004 09:26:59 6.1 C 77 % 2.38 C
1488 14-02-2004 09:38:58 6.2 C 77 % 2.48 C
1489 14-02-2004 09:50:01 6.4 C 76 % 2.49 C
1490 14-02-2004 10:02:01 6.5 C 76 % 2.58 C
1491 14-02-2004 10:14:01 6.6 C 76 % 2.68 C
1492 14-02-2004 10:26:01 6.9 C 75 % 2.78 C
1493 14-02-2004 10:38:01 7.2 C 73 % 2.69 C
1494 14-02-2004 10:50:01 7.2 C 73 % 2.69 C
1495 14-02-2004 11:02:01 7.4 C 72 % 2.69 C
1496 14-02-2004 11:14:01 7.5 C 72 % 2.79 C
1497 14-02-2004 11:26:01 7.8 C 71 % 2.88 C
1498 14-02-2004 11:38:01 8.2 C 69 % 2.86 C
1499 14-02-2004 11:50:01 8.4 C 69 % 3.05 C
1500 14-02-2004 12:02:00 8.1 C 68 % 2.56 C
Sensor: Nr:Datum:Temp:Feuchte:Taupunkt:
Aussen-T/F 1501 14-02-2004 12:14:00 8.2 C 69 % 2.86 C
1502 14-02-2004 12:26:59 8.4 C 69 % 3.05 C
1503 14-02-2004 12:38:57 8.7 C 67 % 2.92 C
1504 14-02-2004 12:50:01 8.8 C 67 % 3.02 C
1505 14-02-2004 13:02:01 8.7 C 67 % 2.92 C
1506 14-02-2004 13:14:01 8.7 C 68 % 3.13 C
1507 14-02-2004 13:26:01 8.6 C 66 % 2.62 C
1508 14-02-2004 13:38:01 8.6 C 67 % 2.83 C
1509 14-02-2004 13:50:00 8.5 C 67 % 2.73 C
1510 14-02-2004 14:14:00 8.2 C 69 % 2.86 C
1511 14-02-2004 14:14:58 8.2 C 70 % 3.06 C
1512 14-02-2004 14:26:58 8.4 C 70 % 3.26 C
1513 14-02-2004 14:38:57 8.6 C 69 % 3.24 C
1514 14-02-2004 14:50:01 8.6 C 68 % 3.04 C
1515 14-02-2004 15:02:01 8.6 C 68 % 3.04 C
1516 14-02-2004 15:14:01 8.4 C 68 % 2.85 C
1517 14-02-2004 15:26:01 8.5 C 69 % 3.15 C
1518 14-02-2004 15:38:01 8.5 C 69 % 3.15 C
1519 14-02-2004 15:50:01 8.6 C 68 % 3.04 C
1520 14-02-2004 16:02:01 8.6 C 68 % 3.04 C
1521 14-02-2004 16:14:01 8.6 C 68 % 3.04 C
1522 14-02-2004 16:26:01 8.5 C 67 % 2.73 C
1523 14-02-2004 16:38:01 8.4 C 66 % 2.43 C
1524 14-02-2004 16:50:00 8.5 C 66 % 2.52 C
1525 14-02-2004 17:02:00 8.4 C 67 % 2.64 C
Sensor: Nr:Datum:Temp:Feuchte:Taupunkt:
Aussen-T/F 1526 14-02-2004 17:14:00 8.3 C 66 % 2.33 C
1527 14-02-2004 17:26:59 8.1 C 67 % 2.35 C
1528 14-02-2004 17:38:58 8 C 68 % 2.47 C
1529 14-02-2004 17:50:01 7.9 C 70 % 2.78 C
1530 14-02-2004 18:02:01 7.8 C 67 % 2.07 C
1531 14-02-2004 18:14:01 7.7 C 68 % 2.18 C
1532 14-02-2004 18:26:01 7.6 C 65 % 1.45 C
1533 14-02-2004 18:38:01 7.6 C 68 % 2.08 C
1534 14-02-2004 18:50:00 7.4 C 69 % 2.1 C
1535 14-02-2004 19:14:00 7.3 C 68 % 1.8 C
1536 14-02-2004 19:14:58 7.3 C 68 % 1.8 C
1537 14-02-2004 19:26:58 7.1 C 68 % 1.61 C
1538 14-02-2004 19:38:57 7.2 C 68 % 1.7 C
1539 14-02-2004 19:50:01 7.1 C 70 % 2.01 C
1540 14-02-2004 20:02:01 7 C 70 % 1.91 C
1541 14-02-2004 20:14:01 7 C 69 % 1.71 C
1542 14-02-2004 20:26:01 7 C 69 % 1.71 C
1543 14-02-2004 20:38:01 6.9 C 70 % 1.82 C
1544 14-02-2004 20:50:01 6.9 C 71 % 2.02 C
1545 14-02-2004 21:02:01 6.8 C 72 % 2.12 C
1546 14-02-2004 21:14:01 6.7 C 72 % 2.02 C
1547 14-02-2004 21:26:01 6.7 C 72 % 2.02 C
1548 14-02-2004 21:38:01 6.7 C 73 % 2.21 C
1549 14-02-2004 21:50:00 6.6 C 73 % 2.12 C
1550 14-02-2004 22:02:00 6.6 C 73 % 2.12 C
Sensor: Nr:Datum:Temp:Feuchte:Taupunkt:
Aussen-T/F 1551 14-02-2004 22:14:00 6.6 C 73 % 2.12 C
1552 14-02-2004 22:26:59 6.5 C 73 % 2.02 C
1553 14-02-2004 22:38:57 6.5 C 74 % 2.21 C
1554 14-02-2004 22:50:01 6.5 C 74 % 2.21 C
1555 14-02-2004 23:02:01 6.4 C 74 % 2.11 C
1556 14-02-2004 23:14:01 6.4 C 74 % 2.11 C
1557 14-02-2004 23:26:01 6.3 C 74 % 2.02 C
1558 14-02-2004 23:38:01 6.2 C 74 % 1.92 C
1559 14-02-2004 23:50:00 6.2 C 75 % 2.11 C
1560 15-02-2004 00:13:59 6.1 C 75 % 2.01 C
1561 15-02-2004 00:14:59 6 C 75 % 1.91 C
1562 15-02-2004 00:26:59 6 C 75 % 1.91 C
1563 15-02-2004 00:38:57 6 C 75 % 1.91 C
1564 15-02-2004 00:50:01 6 C 76 % 2.1 C
1565 15-02-2004 01:02:01 6 C 76 % 2.1 C
1566 15-02-2004 01:14:01 5.9 C 77 % 2.19 C
1567 15-02-2004 01:26:01 5.9 C 77 % 2.19 C
1568 15-02-2004 01:38:01 5.9 C 77 % 2.19 C
1569 15-02-2004 01:50:01 5.8 C 77 % 2.09 C
1570 15-02-2004 02:02:01 5.8 C 77 % 2.09 C
1571 15-02-2004 02:14:01 5.7 C 77 % 1.99 C
1572 15-02-2004 02:26:01 5.7 C 77 % 1.99 C
1573 15-02-2004 02:38:01 5.7 C 78 % 2.17 C
1574 15-02-2004 02:51:01 5.7 C 77 % 1.99 C
1575 15-02-2004 03:03:01 5.6 C 78 % 2.07 C
Sensor: Nr:Datum:Temp:Feuchte:Taupunkt:
Aussen-T/F 1576 15-02-2004 03:15:00 5.6 C 78 % 2.07 C
1577 15-02-2004 03:27:00 5.5 C 78 % 1.98 C
1578 15-02-2004 03:39:01 5.4 C 79 % 2.06 C
1579 15-02-2004 03:51:01 5.4 C 79 % 2.06 C
1580 15-02-2004 04:03:01 5.4 C 79 % 2.06 C
1581 15-02-2004 04:15:00 5.4 C 79 % 2.06 C
1582 15-02-2004 04:27:00 5.4 C 79 % 2.06 C
1583 15-02-2004 04:39:00 5.4 C 79 % 2.06 C
1584 15-02-2004 04:51:01 5.3 C 79 % 1.96 C
1585 15-02-2004 05:03:01 5.3 C 79 % 1.96 C
1586 15-02-2004 05:15:01 5.2 C 79 % 1.86 C
1587 15-02-2004 05:27:01 5.2 C 79 % 1.86 C
1588 15-02-2004 05:39:01 5.1 C 79 % 1.77 C
1589 15-02-2004 05:51:00 5.1 C 79 % 1.77 C
1590 15-02-2004 06:03:59 5.1 C 79 % 1.77 C
1591 15-02-2004 06:15:58 5 C 79 % 1.67 C
1592 15-02-2004 06:27:58 5 C 79 % 1.67 C
1593 15-02-2004 06:39:57 5 C 79 % 1.67 C
1594 15-02-2004 06:51:01 5 C 79 % 1.67 C
1595 15-02-2004 07:03:01 5 C 79 % 1.67 C
1596 15-02-2004 07:15:01 5 C 80 % 1.84 C
1597 15-02-2004 07:27:01 5 C 79 % 1.67 C
1598 15-02-2004 07:39:01 5 C 79 % 1.67 C
1599 15-02-2004 07:51:01 5 C 79 % 1.67 C
1600 15-02-2004 08:03:01 5 C 79 % 1.67 C
Sensor: Nr:Datum:Temp:Feuchte:Taupunkt:
Aussen-T/F 1601 15-02-2004 08:15:01 5 C 79 % 1.67 C
1602 15-02-2004 08:27:01 5 C 79 % 1.67 C
1603 15-02-2004 08:39:01 5.1 C 78 % 1.59 C
1604 15-02-2004 08:51:00 5.1 C 78 % 1.59 C
1605 15-02-2004 09:03:00 5.1 C 78 % 1.59 C
1606 15-02-2004 09:15:58 5.2 C 78 % 1.69 C
1607 15-02-2004 09:27:58 5.2 C 78 % 1.69 C
1608 15-02-2004 09:39:57 5.3 C 78 % 1.78 C
1609 15-02-2004 09:51:01 5.4 C 78 % 1.88 C
1610 15-02-2004 10:03:01 5.4 C 77 % 1.7 C
1611 15-02-2004 10:15:01 5.7 C 76 % 1.81 C
1612 15-02-2004 10:27:01 5.9 C 75 % 1.82 C
1613 15-02-2004 10:39:01 6 C 73 % 1.54 C
1614 15-02-2004 10:51:00 6.3 C 72 % 1.63 C
1615 15-02-2004 11:03:59 6.6 C 71 % 1.73 C
1616 15-02-2004 11:15:58 6.6 C 71 % 1.73 C
1617 15-02-2004 11:27:58 6.8 C 70 % 1.72 C
1618 15-02-2004 11:39:57 6.9 C 70 % 1.82 C
1619 15-02-2004 11:51:01 7.1 C 66 % 1.19 C
1620 15-02-2004 12:03:01 7.3 C 66 % 1.38 C
1621 15-02-2004 12:15:01 7.5 C 65 % 1.36 C
1622 15-02-2004 12:27:01 7.5 C 65 % 1.36 C
1623 15-02-2004 12:39:00 7.6 C 66 % 1.67 C
1624 15-02-2004 12:51:01 7.6 C 65 % 1.45 C
1625 15-02-2004 13:03:01 7.6 C 65 % 1.45 C
Sensor: Nr:Datum:Temp:Feuchte:Taupunkt:
Aussen-T/F 1626 15-02-2004 13:15:01 7.5 C 65 % 1.36 C
1627 15-02-2004 13:27:01 7.5 C 65 % 1.36 C
1628 15-02-2004 13:39:01 7.7 C 64 % 1.33 C
1629 15-02-2004 13:51:01 7.8 C 63 % 1.21 C
1630 15-02-2004 14:03:00 7.7 C 62 % 0.89 C
1631 15-02-2004 14:15:58 7.9 C 61 % 0.86 C
1632 15-02-2004 14:27:58 7.6 C 62 % 0.8 C
1633 15-02-2004 14:39:57 7.6 C 62 % 0.8 C
1634 15-02-2004 14:51:01 7.6 C 62 % 0.8 C
1635 15-02-2004 15:03:02 7.6 C 62 % 0.8 C
1636 15-02-2004 15:15:01 7.7 C 62 % 0.89 C
1637 15-02-2004 15:27:01 7.6 C 62 % 0.8 C
1638 15-02-2004 15:39:01 7.6 C 63 % 1.02 C
1639 15-02-2004 15:51:00 7.6 C 64 % 1.24 C
1640 15-02-2004 16:03:59 7.5 C 64 % 1.14 C
1641 15-02-2004 16:15:58 7.4 C 65 % 1.26 C
1642 15-02-2004 16:27:58 7.4 C 65 % 1.26 C
1643 15-02-2004 16:39:57 7.3 C 65 % 1.17 C
1644 15-02-2004 16:51:01 7.3 C 66 % 1.38 C
1645 15-02-2004 17:03:01 7.2 C 66 % 1.29 C
1646 15-02-2004 17:15:01 7.2 C 67 % 1.49 C
1647 15-02-2004 17:27:01 7.1 C 67 % 1.4 C
1648 15-02-2004 17:39:01 6.9 C 68 % 1.41 C
1649 15-02-2004 17:51:01 6.8 C 69 % 1.52 C
1650 15-02-2004 18:03:01 6.7 C 70 % 1.63 C
Sensor: Nr:Datum:Temp:Feuchte:Taupunkt:
Aussen-T/F 1651 15-02-2004 18:15:01 6.7 C 70 % 1.63 C
1652 15-02-2004 18:27:01 6.7 C 70 % 1.63 C
1653 15-02-2004 18:39:01 6.6 C 71 % 1.73 C
1654 15-02-2004 18:51:00 6.7 C 71 % 1.82 C
1655 15-02-2004 19:03:00 6.7 C 71 % 1.82 C
1656 15-02-2004 19:15:58 6.6 C 72 % 1.92 C
1657 15-02-2004 19:27:58 6.5 C 72 % 1.83 C
1658 15-02-2004 19:39:57 6.4 C 72 % 1.73 C
1659 15-02-2004 19:51:01 6.4 C 73 % 1.92 C
1660 15-02-2004 20:03:01 6.4 C 73 % 1.92 C
1661 15-02-2004 20:15:01 6.4 C 74 % 2.11 C
1662 15-02-2004 20:27:01 6.5 C 74 % 2.21 C
1663 15-02-2004 20:39:01 6.5 C 74 % 2.21 C
1664 15-02-2004 20:51:00 6.5 C 74 % 2.21 C
1665 15-02-2004 21:03:00 6.6 C 73 % 2.12 C
1666 15-02-2004 21:15:58 6.6 C 74 % 2.31 C
1667 15-02-2004 21:27:58 6.6 C 74 % 2.31 C
1668 15-02-2004 21:39:57 6.5 C 75 % 2.4 C
1669 15-02-2004 21:51:01 6.3 C 76 % 2.39 C
1670 15-02-2004 22:03:01 6.4 C 77 % 2.67 C
1671 15-02-2004 22:15:30 6.3 C 77 % 2.57 C
1672 15-02-2004 22:27:01 6.3 C 77 % 2.57 C
1673 15-02-2004 22:39:01 6.4 C 76 % 2.49 C
1674 15-02-2004 22:51:01 6.4 C 76 % 2.49 C
1675 15-02-2004 23:03:01 6.4 C 75 % 2.3 C
Sensor: Nr:Datum:Temp:Feuchte:Taupunkt:
Aussen-T/F 1676 15-02-2004 23:15:01 6.4 C 75 % 2.3 C
1677 15-02-2004 23:27:01 6.4 C 75 % 2.3 C
1678 15-02-2004 23:39:01 6.2 C 75 % 2.11 C
1679 15-02-2004 23:51:00 5.9 C 77 % 2.19 C
1680 16-02-2004 00:03:00 5.7 C 77 % 1.99 C
1681 16-02-2004 00:15:59 5.6 C 78 % 2.07 C
1682 16-02-2004 00:27:59 5.5 C 78 % 1.98 C
1683 16-02-2004 00:39:58 5.5 C 78 % 1.98 C
1684 16-02-2004 00:51:01 5.5 C 79 % 2.16 C
1685 16-02-2004 01:03:00 5.5 C 79 % 2.16 C
1686 16-02-2004 01:15:00 5.5 C 79 % 2.16 C
1687 16-02-2004 01:27:00 5.6 C 79 % 2.25 C
1688 16-02-2004 01:39:00 5.4 C 78 % 1.88 C
1689 16-02-2004 01:51:01 5.5 C 79 % 2.16 C
1690 16-02-2004 02:03:01 5.2 C 78 % 1.69 C
1691 16-02-2004 02:15:01 5.1 C 78 % 1.59 C
1692 16-02-2004 02:27:01 4.9 C 79 % 1.57 C
1693 16-02-2004 02:39:01 4.9 C 79 % 1.57 C
1694 16-02-2004 02:52:03 4.9 C 80 % 1.75 C
1695 16-02-2004 03:04:03 5 C 79 % 1.67 C
1696 16-02-2004 03:16:03 5 C 79 % 1.67 C
1697 16-02-2004 03:28:03 5.1 C 78 % 1.59 C
1698 16-02-2004 03:40:00 4.9 C 78 % 1.39 C
1699 16-02-2004 03:52:00 4.7 C 78 % 1.2 C
1700 16-02-2004 04:04:00 4.7 C 78 % 1.2 C
Sensor: Nr:Datum:Temp:Feuchte:Taupunkt:
Aussen-T/F 1701 16-02-2004 04:16:59 4.6 C 78 % 1.1 C
1702 16-02-2004 04:28:59 4.5 C 77 % 0.83 C
1703 16-02-2004 04:40:58 4.4 C 77 % 0.73 C
1704 16-02-2004 04:52:01 4.3 C 77 % 0.63 C
1705 16-02-2004 05:04:01 4.2 C 77 % 0.54 C
1706 16-02-2004 05:16:00 4.2 C 77 % 0.54 C
1707 16-02-2004 05:28:00 4.1 C 76 % 0.26 C
1708 16-02-2004 05:40:00 3.9 C 77 % 0.25 C
1709 16-02-2004 05:52:01 3.7 C 77 % 0.05 C
1710 16-02-2004 06:04:01 3.6 C 77 % -0.05 C
1711 16-02-2004 06:16:01 3.6 C 77 % -0.05 C
1712 16-02-2004 06:28:01 3.4 C 77 % -0.24 C
1713 16-02-2004 06:40:01 3.3 C 77 % -0.34 C
1714 16-02-2004 06:52:01 3 C 77 % -0.63 C
1715 16-02-2004 07:04:01 2.6 C 78 % -0.84 C
1716 16-02-2004 07:16:01 2.3 C 79 % -0.96 C
1717 16-02-2004 07:28:01 2 C 79 % -1.25 C
1718 16-02-2004 07:40:01 1.7 C 81 % -1.2 C
1719 16-02-2004 07:52:00 1.6 C 81 % -1.3 C
1720 16-02-2004 08:04:00 1.6 C 81 % -1.3 C
1721 16-02-2004 08:16:59 1.6 C 82 % -1.13 C
1722 16-02-2004 08:28:59 1.5 C 81 % -1.4 C
1723 16-02-2004 08:40:57 1.6 C 82 % -1.13 C
1724 16-02-2004 08:52:01 1.6 C 82 % -1.13 C
1725 16-02-2004 09:04:01 1.6 C 82 % -1.13 C
Sensor: Nr:Datum:Temp:Feuchte:Taupunkt:
Aussen-T/F 1726 16-02-2004 09:16:01 1.7 C 82 % -1.03 C
1727 16-02-2004 09:28:01 1.9 C 83 % -0.67 C
1728 16-02-2004 09:40:01 2.5 C 83 % -0.09 C
1729 16-02-2004 09:52:00 3 C 83 % 0.4 C
1730 16-02-2004 10:03:59 3.3 C 79 % 0.02 C
1731 16-02-2004 10:16:58 3.9 C 77 % 0.25 C
1732 16-02-2004 10:28:58 4 C 75 % -0.02 C
1733 16-02-2004 10:40:57 4.4 C 74 % 0.18 C
1734 16-02-2004 10:52:01 5.1 C 71 % 0.29 C
1735 16-02-2004 11:04:01 5.2 C 69 % -0.01 C
1736 16-02-2004 11:16:01 5.2 C 69 % -0.01 C
1737 16-02-2004 11:28:01 5.5 C 68 % 0.08 C
1738 16-02-2004 11:40:01 6.2 C 65 % 0.12 C
1739 16-02-2004 11:52:01 6.5 C 62 % -0.24 C
1740 16-02-2004 12:04:01 6.7 C 63 % 0.17 C
1741 16-02-2004 12:16:01 7 C 61 % 0.01 C
1742 16-02-2004 12:28:01 7.4 C 60 % 0.16 C
1743 16-02-2004 12:40:01 7.6 C 59 % 0.11 C
1744 16-02-2004 12:52:00 7.9 C 58 % 0.16 C
1745 16-02-2004 13:04:00 8.6 C 55 % 0.08 C
1746 16-02-2004 13:16:58 9 C 54 % 0.2 C
1747 16-02-2004 13:28:58 9.1 C 51 % -0.49 C
1748 16-02-2004 13:40:57 9.5 C 51 % -0.12 C
1749 16-02-2004 13:52:01 9.2 C 50 % -0.67 C
1750 16-02-2004 14:04:01 10.1 C 49 % -0.11 C
Sensor: Nr:Datum:Temp:Feuchte:Taupunkt:
Aussen-T/F 1751 16-02-2004 14:16:01 10.1 C 49 % -0.11 C
1752 16-02-2004 14:28:01 10 C 49 % -0.21 C
1753 16-02-2004 14:40:01 10.2 C 48 % -0.31 C
1754 16-02-2004 14:52:00 10.3 C 48 % -0.21 C
1755 16-02-2004 15:04:59 10.2 C 48 % -0.31 C
1756 16-02-2004 15:16:58 9.8 C 48 % -0.67 C
1757 16-02-2004 15:28:58 9.3 C 49 % -0.85 C
1758 16-02-2004 15:40:57 9.5 C 49 % -0.67 C
1759 16-02-2004 15:52:01 8.7 C 50 % -1.13 C
1760 16-02-2004 16:04:01 8.4 C 50 % -1.4 C
1761 16-02-2004 16:16:01 8.3 C 52 % -0.96 C
1762 16-02-2004 16:28:01 8 C 52 % -1.24 C
1763 16-02-2004 16:40:00 8.3 C 52 % -0.96 C
1764 16-02-2004 16:52:01 8.6 C 52 % -0.68 C
1765 16-02-2004 17:04:01 8.1 C 53 % -0.89 C
1766 16-02-2004 17:16:01 6.4 C 56 % -1.72 C
1767 16-02-2004 17:28:01 6.5 C 59 % -0.92 C
1768 16-02-2004 17:40:01 6.2 C 60 % -0.97 C
1769 16-02-2004 17:52:00 5.7 C 62 % -1 C
1770 16-02-2004 18:04:00 5.1 C 64 % -1.13 C
1771 16-02-2004 18:16:58 4.7 C 67 % -0.89 C
1772 16-02-2004 18:28:58 4.5 C 69 % -0.68 C
1773 16-02-2004 18:40:57 4.3 C 70 % -0.68 C
1774 16-02-2004 18:52:01 4.3 C 71 % -0.48 C
1775 16-02-2004 19:04:01 4.2 C 71 % -0.58 C
Sensor: Nr:Datum:Temp:Feuchte:Taupunkt:
Aussen-T/F 1776 16-02-2004 19:16:01 4.1 C 71 % -0.67 C
1777 16-02-2004 19:28:01 4 C 72 % -0.58 C
1778 16-02-2004 19:40:01 4.1 C 73 % -0.29 C
1779 16-02-2004 19:52:01 4.3 C 72 % -0.29 C
1780 16-02-2004 20:04:01 4.7 C 72 % 0.09 C
1781 16-02-2004 20:16:01 4.9 C 71 % 0.09 C
1782 16-02-2004 20:28:01 5.1 C 69 % -0.11 C
1783 16-02-2004 20:40:02 5.1 C 69 % -0.11 C
1784 16-02-2004 20:52:01 5.2 C 69 % -0.01 C
1785 16-02-2004 21:04:01 5.1 C 69 % -0.11 C
1786 16-02-2004 21:16:01 5.2 C 69 % -0.01 C
1787 16-02-2004 21:28:01 5.1 C 69 % -0.11 C
1788 16-02-2004 21:40:58 5.2 C 69 % -0.01 C
1789 16-02-2004 21:52:00 5.1 C 70 % 0.09 C
1790 16-02-2004 22:04:00 5.2 C 70 % 0.19 C
1791 16-02-2004 22:16:00 5.1 C 70 % 0.09 C
1792 16-02-2004 22:28:00 5 C 70 % 0 C
1793 16-02-2004 22:40:01 5 C 70 % 0 C
1794 16-02-2004 22:52:00 5 C 70 % 0 C
1795 16-02-2004 23:04:00 5 C 70 % 0 C
1796 16-02-2004 23:16:59 5 C 70 % 0 C
1797 16-02-2004 23:28:59 4.9 C 70 % -0.1 C
1798 16-02-2004 23:40:57 4.7 C 70 % -0.29 C
1799 16-02-2004 23:52:01 4.6 C 70 % -0.39 C
1800 17-02-2004 00:04:01 4.5 C 70 % -0.48 C
Sensor: Nr:Datum:Temp:Feuchte:Taupunkt:
Aussen-T/F 1801 17-02-2004 00:16:01 4.5 C 71 % -0.29 C
1802 17-02-2004 00:28:01 4.4 C 71 % -0.39 C
1803 17-02-2004 00:40:01 4.4 C 71 % -0.39 C
1804 17-02-2004 00:52:00 4.3 C 71 % -0.48 C
1805 17-02-2004 01:04:00 4.3 C 71 % -0.48 C
1806 17-02-2004 01:16:58 4.3 C 71 % -0.48 C
1807 17-02-2004 01:28:58 4.1 C 71 % -0.67 C
1808 17-02-2004 01:40:57 4.1 C 71 % -0.67 C
1809 17-02-2004 01:52:01 4.1 C 71 % -0.67 C
1810 17-02-2004 02:04:01 4 C 71 % -0.77 C
1811 17-02-2004 02:16:01 4 C 71 % -0.77 C
1812 17-02-2004 02:28:01 3.9 C 72 % -0.68 C
1813 17-02-2004 02:40:01 4 C 71 % -0.77 C
1814 17-02-2004 02:53:02 4 C 71 % -0.77 C
1815 17-02-2004 03:05:02 3.8 C 72 % -0.77 C
1816 17-02-2004 03:17:02 3.8 C 72 % -0.77 C
1817 17-02-2004 03:29:02 3.7 C 72 % -0.87 C
1818 17-02-2004 03:41:00 3.6 C 72 % -0.96 C
1819 17-02-2004 03:53:00 3.6 C 72 % -0.96 C
1820 17-02-2004 04:05:00 3.6 C 72 % -0.96 C
1821 17-02-2004 04:17:59 3.6 C 72 % -0.96 C
1822 17-02-2004 04:29:59 3.6 C 71 % -1.15 C
1823 17-02-2004 04:41:57 3.5 C 71 % -1.25 C
1824 17-02-2004 04:53:01 3.5 C 72 % -1.06 C
1825 17-02-2004 05:05:01 3.4 C 71 % -1.35 C
Sensor: Nr:Datum:Temp:Feuchte:Taupunkt:
Aussen-T/F 1826 17-02-2004 05:17:01 3.4 C 71 % -1.35 C
1827 17-02-2004 05:29:01 3.3 C 71 % -1.44 C
1828 17-02-2004 05:41:01 3.3 C 71 % -1.44 C
1829 17-02-2004 05:53:00 3.3 C 71 % -1.44 C
1830 17-02-2004 06:05:59 3.3 C 71 % -1.44 C
1831 17-02-2004 06:17:58 3.3 C 70 % -1.64 C
1832 17-02-2004 06:29:58 3 C 71 % -1.73 C
1833 17-02-2004 06:41:57 2.9 C 72 % -1.64 C
1834 17-02-2004 06:53:01 2.9 C 71 % -1.83 C
1835 17-02-2004 07:05:01 2.8 C 71 % -1.92 C
1836 17-02-2004 07:17:01 2.9 C 71 % -1.83 C
1837 17-02-2004 07:29:01 2.8 C 71 % -1.92 C
1838 17-02-2004 07:41:01 2.5 C 72 % -2.02 C
1839 17-02-2004 07:53:01 2.5 C 72 % -2.02 C
1840 17-02-2004 08:05:01 2.5 C 72 % -2.02 C
1841 17-02-2004 08:17:01 2.5 C 72 % -2.02 C
1842 17-02-2004 08:29:01 2.6 C 72 % -1.93 C
1843 17-02-2004 08:41:01 2.4 C 72 % -2.12 C
1844 17-02-2004 08:53:00 2.3 C 71 % -2.4 C
1845 17-02-2004 09:05:00 2.4 C 71 % -2.31 C
1846 17-02-2004 09:17:58 2.5 C 71 % -2.21 C
1847 17-02-2004 09:29:58 2.5 C 71 % -2.21 C
1848 17-02-2004 09:41:57 2.5 C 71 % -2.21 C
1849 17-02-2004 09:53:01 2.6 C 71 % -2.12 C
1850 17-02-2004 10:05:01 3 C 71 % -1.73 C
Sensor: Nr:Datum:Temp:Feuchte:Taupunkt:
Aussen-T/F 1851 17-02-2004 10:17:01 2.8 C 71 % -1.92 C
1852 17-02-2004 10:29:01 2.8 C 71 % -1.92 C
1853 17-02-2004 10:41:01 3.2 C 70 % -1.73 C
1854 17-02-2004 10:53:00 3.2 C 69 % -1.93 C
1855 17-02-2004 11:05:45 3.1 C 68 % -2.22 C
1856 17-02-2004 11:17:58 3 C 69 % -2.12 C
1857 17-02-2004 11:29:58 3.2 C 68 % -2.12 C
1858 17-02-2004 11:41:57 2.8 C 69 % -2.31 C
1859 17-02-2004 11:53:01 2.9 C 69 % -2.21 C
1860 17-02-2004 12:05:01 3 C 67 % -2.51 C
1861 17-02-2004 12:17:01 3.1 C 67 % -2.42 C
1862 17-02-2004 12:29:01 3.2 C 66 % -2.53 C
1863 17-02-2004 12:41:00 3.2 C 66 % -2.53 C
1864 17-02-2004 12:53:01 3.2 C 67 % -2.32 C
1865 17-02-2004 13:05:01 3.2 C 67 % -2.32 C
1866 17-02-2004 13:17:01 2.9 C 68 % -2.41 C
1867 17-02-2004 13:29:01 3.1 C 68 % -2.22 C
1868 17-02-2004 13:41:01 3.3 C 65 % -2.64 C
1869 17-02-2004 13:53:00 3.2 C 65 % -2.73 C
1870 17-02-2004 14:05:00 3.2 C 64 % -2.94 C
1871 17-02-2004 14:17:58 3.2 C 64 % -2.94 C
1872 17-02-2004 14:29:58 3.2 C 64 % -2.94 C
1873 17-02-2004 14:41:57 3.2 C 64 % -2.94 C
1874 17-02-2004 14:53:01 3.3 C 63 % -3.05 C
1875 17-02-2004 15:05:01 3.5 C 63 % -2.86 C
Sensor: Nr:Datum:Temp:Feuchte:Taupunkt:
Aussen-T/F 1876 17-02-2004 15:17:01 3.5 C 63 % -2.86 C
1877 17-02-2004 15:29:01 3.5 C 64 % -2.65 C
1878 17-02-2004 15:41:01 3.6 C 63 % -2.77 C
1879 17-02-2004 15:53:00 3.6 C 63 % -2.77 C
1880 17-02-2004 16:05:59 3.6 C 63 % -2.77 C
1881 17-02-2004 16:17:58 3.6 C 63 % -2.77 C
1882 17-02-2004 16:29:58 3.4 C 63 % -2.96 C
1883 17-02-2004 16:41:57 3.4 C 64 % -2.75 C
1884 17-02-2004 16:53:01 3.5 C 64 % -2.65 C
1885 17-02-2004 17:05:01 3.6 C 65 % -2.35 C
1886 17-02-2004 17:17:01 3.6 C 64 % -2.56 C
1887 17-02-2004 17:29:01 3.5 C 65 % -2.44 C
1888 17-02-2004 17:41:02 3.5 C 65 % -2.44 C
1889 17-02-2004 17:53:04 3.4 C 65 % -2.54 C
1890 17-02-2004 18:05:07 3.4 C 66 % -2.33 C
1891 17-02-2004 18:17:07 3.4 C 66 % -2.33 C
1892 17-02-2004 18:29:07 3.4 C 66 % -2.33 C
1893 17-02-2004 18:41:14 3.5 C 66 % -2.24 C
1894 17-02-2004 18:53:01 3.4 C 66 % -2.33 C
1895 17-02-2004 19:05:01 3.4 C 66 % -2.33 C
1896 17-02-2004 19:17:00 3.3 C 66 % -2.43 C
1897 17-02-2004 19:29:00 3.3 C 67 % -2.23 C
1898 17-02-2004 19:41:00 3.2 C 67 % -2.32 C
1899 17-02-2004 19:53:01 3.3 C 67 % -2.23 C
1900 17-02-2004 20:05:01 3.3 C 68 % -2.03 C
Sensor: Nr:Datum:Temp:Feuchte:Taupunkt:
Aussen-T/F 1901 17-02-2004 20:17:01 3.3 C 68 % -2.03 C
1902 17-02-2004 20:29:01 3.3 C 68 % -2.03 C
1903 17-02-2004 20:41:01 3.3 C 68 % -2.03 C
1904 17-02-2004 20:53:01 3.3 C 68 % -2.03 C
1905 17-02-2004 21:05:01 3.3 C 68 % -2.03 C
1906 17-02-2004 21:17:01 3.3 C 68 % -2.03 C
1907 17-02-2004 21:29:01 3.3 C 68 % -2.03 C
1908 17-02-2004 21:41:01 3.3 C 68 % -2.03 C
1909 17-02-2004 21:53:00 3.3 C 68 % -2.03 C
1910 17-02-2004 22:05:59 3.4 C 68 % -1.93 C
1911 17-02-2004 22:17:56 3.4 C 69 % -1.73 C
1912 17-02-2004 22:29:56 3.4 C 69 % -1.73 C
1913 17-02-2004 22:41:55 3.3 C 70 % -1.64 C
1914 17-02-2004 22:53:00 3.4 C 70 % -1.54 C
1915 17-02-2004 23:05:00 3.3 C 70 % -1.64 C
1916 17-02-2004 23:17:59 3.3 C 70 % -1.64 C
1917 17-02-2004 23:29:59 3.4 C 70 % -1.54 C
1918 17-02-2004 23:41:58 3.4 C 70 % -1.54 C
1919 17-02-2004 23:53:01 3.3 C 70 % -1.64 C
1920 18-02-2004 00:05:00 3.3 C 71 % -1.44 C
1921 18-02-2004 00:17:00 3.3 C 71 % -1.44 C
1922 18-02-2004 00:29:00 3.3 C 72 % -1.25 C
1923 18-02-2004 00:41:00 3.3 C 72 % -1.25 C
1924 18-02-2004 00:53:01 3.4 C 72 % -1.16 C
1925 18-02-2004 01:05:01 3.4 C 72 % -1.16 C
Sensor: Nr:Datum:Temp:Feuchte:Taupunkt:
Aussen-T/F 1926 18-02-2004 01:17:01 3.4 C 72 % -1.16 C
1927 18-02-2004 01:29:01 3.5 C 72 % -1.06 C
1928 18-02-2004 01:41:01 3.4 C 72 % -1.16 C
1929 18-02-2004 01:53:01 3.5 C 72 % -1.06 C
1930 18-02-2004 02:05:01 3.5 C 72 % -1.06 C
1931 18-02-2004 02:17:01 3.5 C 72 % -1.06 C
1932 18-02-2004 02:29:01 3.6 C 72 % -0.96 C
1933 18-02-2004 02:41:01 3.5 C 74 % -0.69 C
1934 18-02-2004 02:54:01 3.4 C 76 % -0.42 C
1935 18-02-2004 03:06:01 3.4 C 77 % -0.24 C
1936 18-02-2004 03:18:00 3.7 C 79 % 0.4 C
1937 18-02-2004 03:30:00 3.8 C 79 % 0.5 C
1938 18-02-2004 03:42:01 3.8 C 79 % 0.5 C
1939 18-02-2004 03:54:01 3.8 C 79 % 0.5 C
1940 18-02-2004 04:06:01 3.9 C 78 % 0.42 C
1941 18-02-2004 04:18:00 3.8 C 78 % 0.33 C
1942 18-02-2004 04:30:00 3.9 C 77 % 0.25 C
1943 18-02-2004 04:42:00 3.8 C 77 % 0.15 C
1944 18-02-2004 04:54:01 4 C 73 % -0.39 C
1945 18-02-2004 05:06:01 3.9 C 73 % -0.49 C
1946 18-02-2004 05:18:01 3.9 C 72 % -0.68 C
1947 18-02-2004 05:30:01 3.6 C 73 % -0.78 C
1948 18-02-2004 05:42:01 3.7 C 68 % -1.64 C
1949 18-02-2004 05:54:01 3.7 C 65 % -2.25 C
1950 18-02-2004 06:06:01 3.8 C 63 % -2.58 C
Sensor: Nr:Datum:Temp:Feuchte:Taupunkt:
Aussen-T/F 1951 18-02-2004 06:18:01 3.8 C 65 % -2.16 C
1952 18-02-2004 06:30:01 3.8 C 66 % -1.95 C
1953 18-02-2004 06:42:01 3.8 C 66 % -1.95 C
1954 18-02-2004 06:54:00 3.8 C 66 % -1.95 C
1955 18-02-2004 07:06:00 3.7 C 67 % -1.85 C
1956 18-02-2004 07:18:59 3.8 C 66 % -1.95 C
1957 18-02-2004 07:30:57 3.7 C 67 % -1.85 C
1958 18-02-2004 07:42:57 3.8 C 67 % -1.75 C
1959 18-02-2004 07:54:01 3.8 C 66 % -1.95 C
1960 18-02-2004 08:06:01 3.9 C 67 % -1.65 C
1961 18-02-2004 08:18:01 3.9 C 67 % -1.65 C
1962 18-02-2004 08:30:01 4 C 66 % -1.76 C
1963 18-02-2004 08:42:01 4.1 C 66 % -1.67 C
1964 18-02-2004 08:54:00 4.2 C 66 % -1.57 C
1965 18-02-2004 09:05:59 4.3 C 65 % -1.68 C
1966 18-02-2004 09:18:58 4.4 C 65 % -1.59 C
1967 18-02-2004 09:30:57 4.5 C 64 % -1.7 C
1968 18-02-2004 09:42:57 4.7 C 64 % -1.51 C
1969 18-02-2004 09:54:01 4.7 C 64 % -1.51 C
1970 18-02-2004 10:06:01 4.7 C 64 % -1.51 C
1971 18-02-2004 10:18:01 4.6 C 63 % -1.82 C
1972 18-02-2004 10:30:01 4.6 C 63 % -1.82 C
1973 18-02-2004 10:42:01 5.3 C 57 % -2.51 C
1974 18-02-2004 10:54:01 5.3 C 57 % -2.51 C
1975 18-02-2004 11:06:01 5 C 59 % -2.33 C
Sensor: Nr:Datum:Temp:Feuchte:Taupunkt:
Aussen-T/F 1976 18-02-2004 11:18:01 5 C 54 % -3.52 C
1977 18-02-2004 11:30:01 5.6 C 46 % -5.09 C
1978 18-02-2004 11:42:01 5.5 C 46 % -5.18 C
1979 18-02-2004 11:54:00 5.6 C 45 % -5.38 C
1980 18-02-2004 12:06:00 5.7 C 46 % -5 C
1981 18-02-2004 12:18:59 5.7 C 48 % -4.43 C
1982 18-02-2004 12:30:57 5.6 C 52 % -3.46 C
1983 18-02-2004 12:42:57 5.5 C 53 % -3.3 C
1984 18-02-2004 12:54:01 5.4 C 55 % -2.9 C
1985 18-02-2004 13:06:01 5.5 C 57 % -2.33 C
1986 18-02-2004 13:18:01 5.6 C 57 % -2.23 C
1987 18-02-2004 13:30:01 5.6 C 57 % -2.23 C
1988 18-02-2004 13:42:01 5.2 C 60 % -1.92 C
1989 18-02-2004 13:54:00 4.8 C 66 % -1 C
1990 18-02-2004 14:06:00 4.5 C 69 % -0.68 C
1991 18-02-2004 14:18:58 4.7 C 69 % -0.49 C
1992 18-02-2004 14:30:57 5.6 C 69 % 0.37 C
1993 18-02-2004 14:42:57 5.8 C 63 % -0.69 C
1994 18-02-2004 14:54:01 6.6 C 59 % -0.83 C
1995 18-02-2004 15:06:01 6.9 C 51 % -2.52 C
1996 18-02-2004 15:18:01 6.7 C 54 % -1.94 C
1997 18-02-2004 15:30:01 6.3 C 51 % -3.08 C
1998 18-02-2004 15:42:01 7 C 52 % -2.17 C
1999 18-02-2004 15:54:01 7.8 C 46 % -3.08 C
2000 18-02-2004 16:06:01 7.1 C 48 % -3.15 C
Sensor: Nr:Datum:Temp:Feuchte:Taupunkt:
Aussen-T/F 2001 18-02-2004 16:18:01 6.6 C 48 % -3.61 C
2002 18-02-2004 16:30:01 6.7 C 49 % -3.24 C
2003 18-02-2004 16:42:01 7.2 C 46 % -3.63 C
2004 18-02-2004 16:54:00 7 C 45 % -4.1 C
2005 18-02-2004 17:06:00 7.2 C 45 % -3.92 C
2006 18-02-2004 17:18:58 7.2 C 45 % -3.92 C
2007 18-02-2004 17:30:57 6.5 C 46 % -4.27 C
2008 18-02-2004 17:42:57 6 C 48 % -4.16 C
2009 18-02-2004 17:54:01 5.6 C 50 % -3.99 C
2010 18-02-2004 18:06:01 5.2 C 51 % -4.09 C
2011 18-02-2004 18:18:01 4.9 C 53 % -3.86 C
2012 18-02-2004 18:30:01 4.6 C 54 % -3.89 C
2013 18-02-2004 18:42:01 4.3 C 56 % -3.69 C
2014 18-02-2004 18:54:00 3.8 C 60 % -3.23 C
2015 18-02-2004 19:06:59 3.9 C 60 % -3.14 C
2016 18-02-2004 19:18:58 4.1 C 58 % -3.41 C
2017 18-02-2004 19:30:57 4.1 C 58 % -3.41 C
2018 18-02-2004 19:42:57 4.1 C 60 % -2.95 C
2019 18-02-2004 19:54:01 3.7 C 61 % -3.11 C
2020 18-02-2004 20:06:01 3.3 C 63 % -3.05 C
2021 18-02-2004 20:18:01 2.7 C 65 % -3.21 C
2022 18-02-2004 20:30:01 2.4 C 67 % -3.09 C
2023 18-02-2004 20:42:01 2 C 67 % -3.47 C
2024 18-02-2004 20:54:01 1.8 C 69 % -3.27 C
2025 18-02-2004 21:06:01 1.6 C 70 % -3.27 C
Sensor: Nr:Datum:Temp:Feuchte:Taupunkt:
Aussen-T/F 2026 18-02-2004 21:18:01 1.4 C 70 % -3.46 C
2027 18-02-2004 21:30:01 1.2 C 71 % -3.46 C
2028 18-02-2004 21:42:01 0.9 C 72 % -3.56 C
2029 18-02-2004 21:54:00 0.7 C 72 % -3.76 C
2030 18-02-2004 22:06:00 0.6 C 73 % -3.67 C
2031 18-02-2004 22:18:58 0.5 C 74 % -3.58 C
2032 18-02-2004 22:30:57 0.2 C 74 % -3.87 C
2033 18-02-2004 22:42:57 0.1 C 74 % -3.97 C
2034 18-02-2004 22:54:01 0.1 C 75 % -3.79 C
2035 18-02-2004 23:06:01 0 C 76 % -3.71 C
2036 18-02-2004 23:18:01 0.2 C 76 % -3.52 C
2037 18-02-2004 23:30:01 0 C 75 % -3.89 C
2038 18-02-2004 23:42:01 0.1 C 75 % -3.79 C
2039 18-02-2004 23:54:00 0.4 C 75 % -3.5 C
2040 19-02-2004 00:06:59 0.3 C 74 % -3.78 C
2041 19-02-2004 00:18:58 0.1 C 74 % -3.97 C
2042 19-02-2004 00:30:57 0.1 C 75 % -3.79 C
2043 19-02-2004 00:42:57 0.2 C 75 % -3.69 C
2044 19-02-2004 00:54:01 0.2 C 75 % -3.69 C
2045 19-02-2004 01:06:01 0.3 C 75 % -3.6 C
2046 19-02-2004 01:18:01 0.1 C 75 % -3.79 C
2047 19-02-2004 01:30:01 -0.1 C 75 % -3.99 C
2048 19-02-2004 01:42:01 -0.3 C 76 % -4.01 C
2049 19-02-2004 01:54:01 -0.4 C 76 % -4.1 C
2050 19-02-2004 02:06:01 -0.6 C 76 % -4.3 C
Sensor: Nr:Datum:Temp:Feuchte:Taupunkt:
Aussen-T/F 2051 19-02-2004 02:18:01 -0.8 C 76 % -4.49 C
2052 19-02-2004 02:30:01 -1 C 77 % -4.51 C
2053 19-02-2004 02:42:01 -1 C 77 % -4.51 C
2054 19-02-2004 02:55:01 -1.2 C 77 % -4.71 C
2055 19-02-2004 03:07:01 -1.3 C 77 % -4.8 C
2056 19-02-2004 03:19:00 -1.2 C 78 % -4.54 C
2057 19-02-2004 03:31:01 -1.3 C 79 % -4.46 C
2058 19-02-2004 03:43:01 -1.5 C 78 % -4.83 C
2059 19-02-2004 03:55:01 -1.8 C 78 % -5.12 C
2060 19-02-2004 04:07:01 -1.9 C 78 % -5.22 C
2061 19-02-2004 04:19:00 -2 C 79 % -5.15 C
2062 19-02-2004 04:31:00 -2.1 C 79 % -5.24 C
2063 19-02-2004 04:43:00 -2 C 79 % -5.15 C
2064 19-02-2004 04:55:01 -1.2 C 80 % -4.2 C
2065 19-02-2004 05:07:01 -1.2 C 82 % -3.87 C
2066 19-02-2004 05:19:01 -1.1 C 82 % -3.77 C
2067 19-02-2004 05:31:01 -1 C 82 % -3.68 C
2068 19-02-2004 05:43:01 -1 C 82 % -3.68 C
2069 19-02-2004 05:55:01 -0.7 C 82 % -3.38 C
2070 19-02-2004 06:07:01 -0.5 C 82 % -3.19 C
2071 19-02-2004 06:19:01 -0.4 C 81 % -3.25 C
2072 19-02-2004 06:31:01 -0.3 C 80 % -3.32 C
2073 19-02-2004 06:43:01 -0.3 C 79 % -3.49 C
2074 19-02-2004 06:55:00 -0.2 C 78 % -3.56 C
2075 19-02-2004 07:07:00 -0.2 C 77 % -3.74 C
Sensor: Nr:Datum:Temp:Feuchte:Taupunkt:
Aussen-T/F 2076 19-02-2004 07:19:59 0 C 77 % -3.54 C
2077 19-02-2004 07:31:57 0 C 77 % -3.54 C
2078 19-02-2004 07:43:57 0.2 C 76 % -3.52 C
2079 19-02-2004 07:55:01 0.3 C 75 % -3.6 C
2080 19-02-2004 08:07:01 0.4 C 74 % -3.68 C
2081 19-02-2004 08:19:01 0.5 C 74 % -3.58 C
2082 19-02-2004 08:31:01 0.8 C 75 % -3.11 C
2083 19-02-2004 08:43:01 1.1 C 73 % -3.19 C
2084 19-02-2004 08:55:00 1.3 C 73 % -2.99 C
2085 19-02-2004 09:06:59 1.7 C 72 % -2.79 C
2086 19-02-2004 09:19:58 1.9 C 70 % -2.98 C
2087 19-02-2004 09:31:57 2.2 C 68 % -3.08 C
2088 19-02-2004 09:43:57 2.4 C 64 % -3.7 C
2089 19-02-2004 09:55:01 2.7 C 60 % -4.27 C
2090 19-02-2004 10:07:01 2.8 C 58 % -4.63 C
2091 19-02-2004 10:19:01 2.5 C 58 % -4.91 C
2092 19-02-2004 10:31:01 2.9 C 57 % -4.76 C
2093 19-02-2004 10:43:01 3.2 C 51 % -5.94 C
2094 19-02-2004 10:55:01 3.1 C 46 % -7.37 C
2095 19-02-2004 11:07:01 3.1 C 45 % -7.66 C
2096 19-02-2004 11:19:01 3.7 C 45 % -7.11 C
2097 19-02-2004 11:31:01 3.7 C 45 % -7.11 C
2098 19-02-2004 11:43:01 3.4 C 46 % -7.1 C
2099 19-02-2004 11:55:00 3.7 C 43 % -7.7 C
2100 19-02-2004 12:07:00 4.1 C 41 % -7.95 C
Sensor: Nr:Datum:Temp:Feuchte:Taupunkt:
Aussen-T/F 2101 19-02-2004 12:19:58 4.5 C 39 % -8.23 C
2102 19-02-2004 12:31:57 4.6 C 38 % -8.47 C
2103 19-02-2004 12:43:57 4.7 C 39 % -8.05 C
2104 19-02-2004 12:55:01 4.4 C 38 % -8.65 C
2105 19-02-2004 13:07:01 4.2 C 37 % -9.17 C
2106 19-02-2004 13:19:01 4.1 C 37 % -9.26 C
2107 19-02-2004 13:31:01 3.8 C 39 % -8.86 C
2108 19-02-2004 13:43:01 3.5 C 39 % -9.12 C
2109 19-02-2004 13:55:00 3.5 C 39 % -9.12 C
2110 19-02-2004 14:07:00 3.6 C 40 % -8.71 C
2111 19-02-2004 14:19:58 3.4 C 42 % -8.27 C
2112 19-02-2004 14:31:57 3.4 C 44 % -7.67 C
2113 19-02-2004 14:43:57 3.3 C 45 % -7.47 C
2114 19-02-2004 14:55:01 3.1 C 45 % -7.66 C
2115 19-02-2004 15:07:01 3 C 45 % -7.75 C
2116 19-02-2004 15:19:01 2.9 C 46 % -7.56 C
2117 19-02-2004 15:31:02 2.8 C 46 % -7.65 C
2118 19-02-2004 15:43:02 2.7 C 47 % -7.46 C
2119 19-02-2004 15:55:00 2.6 C 47 % -7.55 C
2120 19-02-2004 16:07:00 2.4 C 46 % -8.01 C
2121 19-02-2004 16:19:59 2.4 C 46 % -8.01 C
2122 19-02-2004 16:31:59 2.5 C 46 % -7.92 C
2123 19-02-2004 16:43:59 2.3 C 45 % -8.39 C
2124 19-02-2004 16:55:01 2.3 C 45 % -8.39 C
2125 19-02-2004 17:07:01 2.2 C 45 % -8.48 C
Sensor: Nr:Datum:Temp:Feuchte:Taupunkt:
Aussen-T/F 2126 19-02-2004 17:19:01 2 C 45 % -8.66 C
2127 19-02-2004 17:31:02 1.8 C 46 % -8.56 C
2128 19-02-2004 17:43:02 1.7 C 46 % -8.65 C
2129 19-02-2004 17:55:01 1.6 C 46 % -8.75 C
2130 19-02-2004 18:07:01 1.5 C 45 % -9.12 C
2131 19-02-2004 18:19:01 1.4 C 46 % -8.93 C
2132 19-02-2004 18:31:01 1.4 C 46 % -8.93 C
2133 19-02-2004 18:43:01 1.3 C 46 % -9.02 C
2134 19-02-2004 18:55:00 1.2 C 46 % -9.11 C
2135 19-02-2004 19:07:00 1.2 C 46 % -9.11 C
2136 19-02-2004 19:19:59 1.2 C 46 % -9.11 C
2137 19-02-2004 19:31:57 1.2 C 46 % -9.11 C
2138 19-02-2004 19:43:57 1.1 C 47 % -8.93 C
2139 19-02-2004 19:55:01 1.1 C 47 % -8.93 C
2140 19-02-2004 20:07:01 1.1 C 47 % -8.93 C
2141 19-02-2004 20:19:01 1.1 C 47 % -8.93 C
2142 19-02-2004 20:31:01 1.1 C 47 % -8.93 C
2143 19-02-2004 20:43:01 1.1 C 47 % -8.93 C
2144 19-02-2004 20:55:00 1.1 C 47 % -8.93 C
2145 19-02-2004 21:07:00 1.1 C 48 % -8.66 C
2146 19-02-2004 21:19:58 1.1 C 48 % -8.66 C
2147 19-02-2004 21:31:57 1.1 C 48 % -8.66 C
2148 19-02-2004 21:43:57 1.1 C 48 % -8.66 C
2149 19-02-2004 21:55:01 1 C 48 % -8.75 C
2150 19-02-2004 22:07:01 0.9 C 50 % -8.33 C
Sensor: Nr:Datum:Temp:Feuchte:Taupunkt:
Aussen-T/F 2151 19-02-2004 22:19:01 1 C 48 % -8.75 C
2152 19-02-2004 22:31:01 0.9 C 49 % -8.58 C
2153 19-02-2004 22:43:01 0.9 C 48 % -8.85 C
2154 19-02-2004 22:55:01 1 C 47 % -9.02 C
2155 19-02-2004 23:07:01 0.9 C 49 % -8.58 C
2156 19-02-2004 23:19:01 0.9 C 49 % -8.58 C
2157 19-02-2004 23:31:01 0.9 C 49 % -8.58 C
2158 19-02-2004 23:43:01 0.8 C 49 % -8.68 C
2159 19-02-2004 23:55:01 0.8 C 50 % -8.42 C
2160 20-02-2004 00:07:00 0.8 C 49 % -8.68 C
2161 20-02-2004 00:19:59 0.8 C 49 % -8.68 C
2162 20-02-2004 00:31:57 0.8 C 49 % -8.68 C
2163 20-02-2004 00:43:57 0.7 C 49 % -8.77 C
2164 20-02-2004 00:55:01 0.7 C 49 % -8.77 C
2165 20-02-2004 01:07:01 0.7 C 49 % -8.77 C
2166 20-02-2004 01:19:01 0.4 C 50 % -8.79 C
2167 20-02-2004 01:31:01 0.3 C 51 % -8.63 C
2168 20-02-2004 01:43:01 0.2 C 51 % -8.72 C
2169 20-02-2004 01:55:00 0.3 C 51 % -8.63 C
2170 20-02-2004 02:07:59 0.3 C 51 % -8.63 C
2171 20-02-2004 02:19:58 0.1 C 52 % -8.56 C
2172 20-02-2004 02:31:57 0 C 52 % -8.66 C
2173 20-02-2004 02:43:57 -0.2 C 54 % -8.37 C
2174 20-02-2004 02:56:02 -0.2 C 54 % -8.37 C
2175 20-02-2004 03:08:02 -0.3 C 54 % -8.47 C
Sensor: Nr:Datum:Temp:Feuchte:Taupunkt:
Aussen-T/F 2176 20-02-2004 03:20:02 -0.3 C 55 % -8.23 C
2177 20-02-2004 03:32:00 -0.3 C 55 % -8.23 C
2178 20-02-2004 03:44:00 -0.3 C 55 % -8.23 C
2179 20-02-2004 03:56:00 -0.4 C 56 % -8.09 C
2180 20-02-2004 04:08:00 -0.6 C 56 % -8.28 C
2181 20-02-2004 04:20:59 -0.7 C 56 % -8.38 C
2182 20-02-2004 04:32:57 -1 C 57 % -8.43 C
2183 20-02-2004 04:44:01 -1.1 C 57 % -8.52 C
2184 20-02-2004 04:56:01 -1.1 C 57 % -8.52 C
2185 20-02-2004 05:08:01 -1.2 C 57 % -8.62 C
2186 20-02-2004 05:20:01 -1.2 C 57 % -8.62 C
2187 20-02-2004 05:32:01 -1.2 C 57 % -8.62 C
2188 20-02-2004 05:44:01 -1.3 C 58 % -8.49 C
2189 20-02-2004 05:56:00 -1.5 C 58 % -8.68 C
2190 20-02-2004 06:08:00 -1.6 C 60 % -8.34 C
2191 20-02-2004 06:20:58 -1.5 C 59 % -8.46 C
2192 20-02-2004 06:32:57 -1.4 C 59 % -8.36 C
2193 20-02-2004 06:44:01 -1.4 C 59 % -8.36 C
2194 20-02-2004 06:56:01 -1.5 C 59 % -8.46 C
2195 20-02-2004 07:08:01 -1.6 C 60 % -8.34 C
2196 20-02-2004 07:20:01 -1.6 C 61 % -8.13 C
2197 20-02-2004 07:32:01 -1.7 C 61 % -8.22 C
2198 20-02-2004 07:44:01 -1.8 C 61 % -8.31 C
2199 20-02-2004 07:56:01 -1.8 C 61 % -8.31 C
2200 20-02-2004 08:08:01 -1.6 C 61 % -8.13 C
Sensor: Nr:Datum:Temp:Feuchte:Taupunkt:
Aussen-T/F 2201 20-02-2004 08:20:01 -1.6 C 60 % -8.34 C
2202 20-02-2004 08:32:01 -1.5 C 60 % -8.24 C
2203 20-02-2004 08:44:01 -1.4 C 60 % -8.15 C
2204 20-02-2004 08:56:00 -1.2 C 59 % -8.18 C
2205 20-02-2004 09:08:00 -1.3 C 59 % -8.27 C
2206 20-02-2004 09:20:59 -1.2 C 59 % -8.18 C
2207 20-02-2004 09:32:58 -1.1 C 58 % -8.3 C
2208 20-02-2004 09:44:01 -0.8 C 57 % -8.24 C
2209 20-02-2004 09:56:01 -0.7 C 57 % -8.15 C
2210 20-02-2004 10:08:01 -0.6 C 56 % -8.28 C
2211 20-02-2004 10:20:01 -0.2 C 55 % -8.14 C
2212 20-02-2004 10:32:01 0.4 C 54 % -7.8 C
2213 20-02-2004 10:44:01 0.7 C 52 % -8.01 C
2214 20-02-2004 10:56:00 1.2 C 50 % -8.05 C
2215 20-02-2004 11:08:00 1.5 C 49 % -8.03 C
2216 20-02-2004 11:20:58 2 C 47 % -8.1 C
2217 20-02-2004 11:32:57 2.2 C 46 % -8.2 C
2218 20-02-2004 11:44:01 2.6 C 44 % -8.4 C
2219 20-02-2004 11:56:01 2.9 C 43 % -8.42 C
2220 20-02-2004 12:08:01 3.4 C 42 % -8.27 C
2221 20-02-2004 12:20:01 3.9 C 40 % -8.44 C
2222 20-02-2004 12:32:01 4.3 C 38 % -8.74 C
2223 20-02-2004 12:44:01 4.6 C 37 % -8.81 C
2224 20-02-2004 12:56:00 5 C 37 % -8.45 C
2225 20-02-2004 13:08:59 5.6 C 36 % -8.27 C
Sensor: Nr:Datum:Temp:Feuchte:Taupunkt:
Aussen-T/F 2226 20-02-2004 13:20:58 6 C 33 % -9.03 C
2227 20-02-2004 13:32:57 6.6 C 34 % -8.12 C
2228 20-02-2004 13:44:01 6.9 C 31 % -9.03 C
2229 20-02-2004 13:56:01 7.1 C 30 % -9.27 C
2230 20-02-2004 14:08:01 7.7 C 29 % -9.18 C
2231 20-02-2004 14:20:01 8.2 C 29 % -8.75 C
2232 20-02-2004 14:32:00 8.2 C 26 % -10.13 C
2233 20-02-2004 14:44:00 8.4 C 27 % -9.48 C
2234 20-02-2004 14:56:01 8.7 C 26 % -9.7 C
2235 20-02-2004 15:08:01 9.1 C 25 % -9.86 C
2236 20-02-2004 15:20:01 8.9 C 25 % -10.03 C
2237 20-02-2004 15:32:01 9.1 C 25 % -9.86 C
2238 20-02-2004 15:44:01 9.2 C 25 % -9.77 C
2239 20-02-2004 15:56:00 9.3 C 25 % -9.69 C
2240 20-02-2004 16:07:59 9.1 C 26 % -9.36 C
2241 20-02-2004 16:20:58 9.3 C 25 % -9.69 C
2242 20-02-2004 16:32:04 9.2 C 25 % -9.77 C
2243 20-02-2004 16:44:04 8.8 C 26 % -9.62 C
2244 20-02-2004 16:56:02 8.7 C 29 % -8.32 C
2245 20-02-2004 17:08:02 8.6 C 30 % -7.97 C
2246 20-02-2004 17:20:10 7.9 C 32 % -7.75 C
2247 20-02-2004 17:32:13 7.1 C 34 % -7.67 C
2248 20-02-2004 17:44:13 5.8 C 38 % -7.4 C
2249 20-02-2004 17:56:01 5 C 40 % -7.45 C
2250 20-02-2004 18:08:01 4.2 C 42 % -7.55 C
Sensor: Nr:Datum:Temp:Feuchte:Taupunkt:
Aussen-T/F 2251 20-02-2004 18:20:01 3.6 C 45 % -7.2 C
2252 20-02-2004 18:32:01 3.3 C 46 % -7.19 C
2253 20-02-2004 18:44:01 3.1 C 46 % -7.37 C
2254 20-02-2004 18:56:01 2.9 C 48 % -7.01 C
2255 20-02-2004 19:08:01 2.7 C 48 % -7.19 C
2256 20-02-2004 19:20:01 2.5 C 49 % -7.11 C
2257 20-02-2004 19:32:01 2.4 C 50 % -6.94 C
2258 20-02-2004 19:44:01 2.3 C 50 % -7.03 C
2259 20-02-2004 19:56:00 2.3 C 50 % -7.03 C
2260 20-02-2004 20:08:57 2.1 C 51 % -6.96 C
2261 20-02-2004 20:20:56 1.9 C 52 % -6.89 C
2262 20-02-2004 20:32:54 1.7 C 53 % -6.83 C
2263 20-02-2004 20:44:00 1.5 C 53 % -7.02 C
2264 20-02-2004 20:56:00 1.4 C 54 % -6.87 C
2265 20-02-2004 21:08:00 1.3 C 55 % -6.73 C
2266 20-02-2004 21:20:59 1.2 C 55 % -6.82 C
2267 20-02-2004 21:32:58 1 C 56 % -6.77 C
2268 20-02-2004 21:44:01 0.9 C 57 % -6.64 C
2269 20-02-2004 21:56:01 0.7 C 57 % -6.82 C
2270 20-02-2004 22:08:00 0.6 C 58 % -6.69 C
2271 20-02-2004 22:20:59 0.5 C 59 % -6.56 C
2272 20-02-2004 22:32:58 0.4 C 59 % -6.66 C
2273 20-02-2004 22:44:01 0.2 C 59 % -6.85 C
2274 20-02-2004 22:56:01 0.1 C 59 % -6.94 C
2275 20-02-2004 23:08:01 0 C 60 % -6.82 C
Sensor: Nr:Datum:Temp:Feuchte:Taupunkt:
Aussen-T/F 2276 20-02-2004 23:20:00 -0.1 C 60 % -6.92 C
2277 20-02-2004 23:32:00 -0.1 C 60 % -6.92 C
2278 20-02-2004 23:44:00 -0.1 C 59 % -7.14 C
2279 20-02-2004 23:56:01 -0.1 C 59 % -7.14 C
2280 21-02-2004 00:08:01 -0.2 C 59 % -7.23 C
2281 21-02-2004 00:20:02 -0.3 C 60 % -7.11 C
2282 21-02-2004 00:32:01 -0.3 C 60 % -7.11 C
2283 21-02-2004 00:44:01 -0.4 C 61 % -6.99 C
2284 21-02-2004 00:56:01 -0.6 C 62 % -6.97 C
2285 21-02-2004 01:08:01 -0.9 C 61 % -7.46 C
2286 21-02-2004 01:20:01 -1 C 62 % -7.35 C
2287 21-02-2004 01:32:01 -1.1 C 63 % -7.24 C
2288 21-02-2004 01:44:01 -1.3 C 64 % -7.22 C
2289 21-02-2004 01:56:01 -1.2 C 63 % -7.33 C
2290 21-02-2004 02:08:01 -1.4 C 63 % -7.52 C
2291 21-02-2004 02:20:01 -1.4 C 63 % -7.52 C
2292 21-02-2004 02:32:01 -1.3 C 63 % -7.43 C
2293 21-02-2004 02:44:01 -1.5 C 65 % -7.21 C
2294 21-02-2004 02:57:01 -1.6 C 66 % -7.11 C
2295 21-02-2004 03:09:01 -1.8 C 65 % -7.5 C
2296 21-02-2004 03:20:59 -1.9 C 66 % -7.4 C
2297 21-02-2004 03:33:01 -2 C 65 % -7.69 C
2298 21-02-2004 03:45:01 -2.1 C 66 % -7.59 C
2299 21-02-2004 03:57:01 -2.3 C 66 % -7.78 C
2300 21-02-2004 04:09:01 -2.5 C 66 % -7.97 C
Sensor: Nr:Datum:Temp:Feuchte:Taupunkt:
Aussen-T/F 2301 21-02-2004 04:21:01 -2.4 C 66 % -7.87 C
2302 21-02-2004 04:33:01 -2.3 C 67 % -7.58 C
2303 21-02-2004 04:45:00 -2 C 66 % -7.49 C
2304 21-02-2004 04:57:00 -1.9 C 65 % -7.59 C
2305 21-02-2004 05:09:59 -1.8 C 63 % -7.9 C
2306 21-02-2004 05:21:58 -1.8 C 63 % -7.9 C
2307 21-02-2004 05:33:57 -1.8 C 62 % -8.11 C
2308 21-02-2004 05:45:01 -1.8 C 62 % -8.11 C
2309 21-02-2004 05:57:01 -2 C 63 % -8.09 C
2310 21-02-2004 06:09:01 -1.9 C 63 % -8 C
2311 21-02-2004 06:21:01 -2 C 63 % -8.09 C
2312 21-02-2004 06:33:01 -2 C 63 % -8.09 C
2313 21-02-2004 06:45:01 -2 C 64 % -7.89 C
2314 21-02-2004 06:57:01 -1.8 C 63 % -7.9 C
2315 21-02-2004 07:09:01 -1.4 C 61 % -7.94 C
2316 21-02-2004 07:21:01 -1.4 C 60 % -8.15 C
2317 21-02-2004 07:33:01 -1.1 C 59 % -8.08 C
2318 21-02-2004 07:45:00 -1.1 C 58 % -8.3 C
2319 21-02-2004 07:57:00 -1.4 C 60 % -8.15 C
2320 21-02-2004 08:09:00 -0.9 C 58 % -8.11 C
2321 21-02-2004 08:21:58 -0.7 C 58 % -7.92 C
2322 21-02-2004 08:33:57 -0.4 C 56 % -8.09 C
2323 21-02-2004 08:45:01 -0.4 C 56 % -8.09 C
2324 21-02-2004 08:57:01 -0.4 C 57 % -7.87 C
2325 21-02-2004 09:09:01 -0.3 C 57 % -7.77 C
Sensor: Nr:Datum:Temp:Feuchte:Taupunkt:
Aussen-T/F 2326 21-02-2004 09:21:01 0.1 C 56 % -7.61 C
2327 21-02-2004 09:33:01 0.4 C 55 % -7.57 C
2328 21-02-2004 09:45:00 0.5 C 54 % -7.71 C
2329 21-02-2004 09:57:00 0.7 C 54 % -7.52 C
2330 21-02-2004 10:09:59 1 C 52 % -7.73 C
2331 21-02-2004 10:21:58 1.1 C 52 % -7.64 C
2332 21-02-2004 10:33:57 1.2 C 53 % -7.3 C
2333 21-02-2004 10:45:01 1.3 C 51 % -7.7 C
2334 21-02-2004 10:57:01 1.5 C 50 % -7.77 C
2335 21-02-2004 11:09:01 1.5 C 50 % -7.77 C
2336 21-02-2004 11:21:01 1.5 C 51 % -7.52 C
2337 21-02-2004 11:33:01 1.6 C 51 % -7.42 C
2338 21-02-2004 11:45:01 1.8 C 51 % -7.24 C
2339 21-02-2004 11:57:01 2.2 C 50 % -7.12 C
2340 21-02-2004 12:09:01 2.4 C 50 % -6.94 C
2341 21-02-2004 12:21:01 3 C 46 % -7.47 C
2342 21-02-2004 12:33:01 3.1 C 45 % -7.66 C
2343 21-02-2004 12:45:00 3.3 C 46 % -7.19 C
2344 21-02-2004 12:57:00 3.5 C 45 % -7.29 C
2345 21-02-2004 13:09:00 3.4 C 45 % -7.38 C
2346 21-02-2004 13:21:58 3.7 C 45 % -7.11 C
2347 21-02-2004 13:33:57 3.7 C 45 % -7.11 C
2348 21-02-2004 13:45:01 3.5 C 46 % -7.01 C
2349 21-02-2004 13:57:01 3.5 C 46 % -7.01 C
2350 21-02-2004 14:09:01 3.6 C 45 % -7.2 C
Sensor: Nr:Datum:Temp:Feuchte:Taupunkt:
Aussen-T/F 2351 21-02-2004 14:21:01 3.6 C 45 % -7.2 C
2352 21-02-2004 14:33:01 3.7 C 45 % -7.11 C
2353 21-02-2004 14:45:01 3.9 C 45 % -6.93 C
2354 21-02-2004 14:57:01 4.2 C 44 % -6.94 C
2355 21-02-2004 15:09:28 4.4 C 44 % -6.76 C
2356 21-02-2004 15:21:01 4.8 C 43 % -6.7 C
2357 21-02-2004 15:33:01 5.3 C 41 % -6.86 C
2358 21-02-2004 15:45:00 5.5 C 41 % -6.68 C
2359 21-02-2004 15:57:00 5.5 C 41 % -6.68 C
2360 21-02-2004 16:09:00 5.8 C 41 % -6.41 C
2361 21-02-2004 16:21:59 5.7 C 40 % -6.82 C
2362 21-02-2004 16:33:57 5.5 C 41 % -6.68 C
2363 21-02-2004 16:45:02 5.1 C 42 % -6.73 C
2364 21-02-2004 16:57:02 4.8 C 43 % -6.7 C
2365 21-02-2004 17:09:04 4.6 C 44 % -6.58 C
2366 21-02-2004 17:21:02 4.4 C 45 % -6.47 C
2367 21-02-2004 17:33:02 4.3 C 45 % -6.56 C
2368 21-02-2004 17:45:02 4.2 C 45 % -6.65 C
2369 21-02-2004 17:57:02 4.1 C 46 % -6.46 C
2370 21-02-2004 18:09:01 3.9 C 47 % -6.36 C
2371 21-02-2004 18:21:59 3.8 C 49 % -5.91 C
2372 21-02-2004 18:33:59 3.7 C 48 % -6.27 C
2373 21-02-2004 18:45:01 3.7 C 50 % -5.74 C
2374 21-02-2004 18:57:01 3.6 C 50 % -5.83 C
2375 21-02-2004 19:09:01 3.4 C 51 % -5.76 C
Sensor: Nr:Datum:Temp:Feuchte:Taupunkt:
Aussen-T/F 2376 21-02-2004 19:21:00 3 C 51 % -6.13 C
2377 21-02-2004 19:33:00 2.7 C 53 % -5.9 C
2378 21-02-2004 19:45:01 2.5 C 54 % -5.85 C
2379 21-02-2004 19:57:01 2.5 C 55 % -5.61 C
2380 21-02-2004 20:09:01 2.6 C 55 % -5.51 C
2381 21-02-2004 20:21:01 2.7 C 55 % -5.42 C
2382 21-02-2004 20:33:01 2.8 C 56 % -5.09 C
2383 21-02-2004 20:45:01 2.9 C 55 % -5.23 C
2384 21-02-2004 20:57:01 2.8 C 55 % -5.33 C
2385 21-02-2004 21:09:01 2.8 C 56 % -5.09 C
2386 21-02-2004 21:21:01 2.4 C 56 % -5.46 C
2387 21-02-2004 21:33:01 1.9 C 58 % -5.47 C
2388 21-02-2004 21:45:00 1.6 C 59 % -5.53 C
2389 21-02-2004 21:57:00 1.4 C 59 % -5.72 C
2390 21-02-2004 22:09:00 1.2 C 60 % -5.69 C
2391 21-02-2004 22:21:58 1.1 C 61 % -5.56 C
2392 21-02-2004 22:33:57 0.9 C 62 % -5.54 C
2393 21-02-2004 22:45:01 0.9 C 62 % -5.54 C
2394 21-02-2004 22:57:01 0.7 C 63 % -5.52 C
2395 21-02-2004 23:09:01 0.6 C 64 % -5.41 C
2396 21-02-2004 23:21:01 0.4 C 65 % -5.39 C
2397 21-02-2004 23:33:01 0.3 C 65 % -5.49 C
2398 21-02-2004 23:45:01 0.3 C 66 % -5.29 C
2399 21-02-2004 23:57:01 0.1 C 66 % -5.48 C
2400 22-02-2004 00:09:01 0.2 C 66 % -5.38 C
Sensor: Nr:Datum:Temp:Feuchte:Taupunkt:
Aussen-T/F 2401 22-02-2004 00:21:01 0.1 C 66 % -5.48 C
2402 22-02-2004 00:33:01 0 C 66 % -5.58 C
2403 22-02-2004 00:45:00 0 C 65 % -5.78 C
2404 22-02-2004 00:57:00 -0.1 C 66 % -5.68 C
2405 22-02-2004 01:09:00 -0.2 C 67 % -5.58 C
2406 22-02-2004 01:21:59 -0.1 C 67 % -5.48 C
2407 22-02-2004 01:33:57 -0.1 C 68 % -5.29 C
2408 22-02-2004 01:45:01 0 C 67 % -5.38 C
2409 22-02-2004 01:57:01 0.2 C 67 % -5.19 C
2410 22-02-2004 02:09:01 0.3 C 67 % -5.09 C
2411 22-02-2004 02:21:01 0.2 C 66 % -5.38 C
2412 22-02-2004 02:33:01 0.1 C 67 % -5.28 C
2413 22-02-2004 02:46:01 -0.1 C 67 % -5.48 C
2414 22-02-2004 02:58:01 -0.2 C 68 % -5.38 C
2415 22-02-2004 03:10:00 -0.3 C 69 % -5.29 C
2416 22-02-2004 03:22:00 -0.3 C 69 % -5.29 C
2417 22-02-2004 03:34:01 -0.1 C 69 % -5.09 C
2418 22-02-2004 03:46:01 0.2 C 68 % -4.99 C
2419 22-02-2004 03:58:01 0.1 C 69 % -4.9 C
2420 22-02-2004 04:10:00 0.1 C 69 % -4.9 C
2421 22-02-2004 04:22:00 0.2 C 68 % -4.99 C
2422 22-02-2004 04:34:00 0.2 C 68 % -4.99 C
2423 22-02-2004 04:46:01 0.3 C 68 % -4.9 C
2424 22-02-2004 04:58:01 0.4 C 67 % -5 C
2425 22-02-2004 05:10:01 0.4 C 67 % -5 C
Sensor: Nr:Datum:Temp:Feuchte:Taupunkt:
Aussen-T/F 2426 22-02-2004 05:22:01 0.4 C 68 % -4.8 C
2427 22-02-2004 05:34:00 0.4 C 69 % -4.61 C
2428 22-02-2004 05:46:01 0.4 C 69 % -4.61 C
2429 22-02-2004 05:58:01 0.4 C 69 % -4.61 C
2430 22-02-2004 06:10:01 0.4 C 69 % -4.61 C
2431 22-02-2004 06:22:01 0.4 C 69 % -4.61 C
2432 22-02-2004 06:34:01 0.5 C 69 % -4.51 C
2433 22-02-2004 06:46:00 0.4 C 69 % -4.61 C
2434 22-02-2004 06:58:00 0.4 C 70 % -4.42 C
2435 22-02-2004 07:10:00 0.5 C 69 % -4.51 C
2436 22-02-2004 07:22:58 0.6 C 69 % -4.42 C
2437 22-02-2004 07:34:57 0.7 C 68 % -4.51 C
2438 22-02-2004 07:46:01 1 C 67 % -4.42 C
2439 22-02-2004 07:58:01 1.2 C 66 % -4.43 C
2440 22-02-2004 08:10:01 1.3 C 66 % -4.34 C
2441 22-02-2004 08:22:01 1.4 C 66 % -4.24 C
2442 22-02-2004 08:34:01 1.5 C 66 % -4.15 C
2443 22-02-2004 08:46:00 1.6 C 65 % -4.25 C
2444 22-02-2004 08:58:00 1.7 C 65 % -4.16 C
2445 22-02-2004 09:10:59 1.8 C 65 % -4.06 C
2446 22-02-2004 09:22:58 1.8 C 65 % -4.06 C
2447 22-02-2004 09:34:57 2 C 65 % -3.87 C
2448 22-02-2004 09:46:01 1.9 C 66 % -3.76 C
2449 22-02-2004 09:58:01 1.9 C 66 % -3.76 C
2450 22-02-2004 10:10:01 1.8 C 66 % -3.86 C
Sensor: Nr:Datum:Temp:Feuchte:Taupunkt:
Aussen-T/F 2451 22-02-2004 10:22:01 1.6 C 66 % -4.05 C
2452 22-02-2004 10:34:00 1.7 C 66 % -3.95 C
2453 22-02-2004 10:46:16 1.5 C 66 % -4.15 C
2454 22-02-2004 10:58:01 1.7 C 66 % -3.95 C
2455 22-02-2004 11:10:01 1.8 C 66 % -3.86 C
2456 22-02-2004 11:22:01 1.7 C 66 % -3.95 C
2457 22-02-2004 11:34:01 1.9 C 66 % -3.76 C
2458 22-02-2004 11:46:40 2.1 C 64 % -3.98 C
2459 22-02-2004 11:58:00 2 C 63 % -4.29 C
2460 22-02-2004 12:10:00 1.9 C 65 % -3.97 C
2461 22-02-2004 12:22:59 1.6 C 64 % -4.46 C
2462 22-02-2004 12:34:58 2 C 63 % -4.29 C
2463 22-02-2004 12:46:01 1.9 C 63 % -4.38 C
2464 22-02-2004 12:58:01 2.1 C 62 % -4.4 C
2465 22-02-2004 13:10:01 2.3 C 60 % -4.65 C
2466 22-02-2004 13:22:01 2.5 C 58 % -4.91 C
2467 22-02-2004 13:34:01 2.8 C 58 % -4.63 C
2468 22-02-2004 13:46:00 2.8 C 56 % -5.09 C
2469 22-02-2004 13:58:00 3.3 C 54 % -5.1 C
2470 22-02-2004 14:10:00 3.3 C 53 % -5.35 C
2471 22-02-2004 14:22:59 3.4 C 52 % -5.5 C
2472 22-02-2004 14:34:57 3.6 C 51 % -5.57 C
2473 22-02-2004 14:46:01 4 C 49 % -5.73 C
2474 22-02-2004 14:58:01 4.3 C 46 % -6.28 C
2475 22-02-2004 15:10:01 4.5 C 44 % -6.67 C
Sensor: Nr:Datum:Temp:Feuchte:Taupunkt:
Aussen-T/F 2476 22-02-2004 15:22:01 5.1 C 41 % -7.04 C
2477 22-02-2004 15:34:01 5.4 C 38 % -7.75 C
2478 22-02-2004 15:46:00 5.8 C 37 % -7.74 C
2479 22-02-2004 15:58:00 5.5 C 36 % -8.36 C
2480 22-02-2004 16:09:59 4.8 C 41 % -7.31 C
2481 22-02-2004 16:22:58 4.7 C 43 % -6.79 C
2482 22-02-2004 16:34:57 4.6 C 45 % -6.29 C
2483 22-02-2004 16:46:01 4.4 C 46 % -6.18 C
2484 22-02-2004 16:58:01 4.1 C 46 % -6.46 C
2485 22-02-2004 17:10:01 3.9 C 47 % -6.36 C
2486 22-02-2004 17:22:01 3.7 C 47 % -6.55 C
2487 22-02-2004 17:34:01 3.6 C 48 % -6.36 C
2488 22-02-2004 17:46:01 3.6 C 49 % -6.1 C
2489 22-02-2004 17:58:01 3.6 C 49 % -6.1 C
2490 22-02-2004 18:10:01 3.5 C 49 % -6.19 C
2491 22-02-2004 18:22:01 3.5 C 50 % -5.92 C
2492 22-02-2004 18:34:01 3.5 C 50 % -5.92 C
2493 22-02-2004 18:46:00 3.5 C 51 % -5.66 C
2494 22-02-2004 18:58:00 3.5 C 51 % -5.66 C
2495 22-02-2004 19:10:00 3.5 C 52 % -5.41 C
2496 22-02-2004 19:22:59 3.5 C 53 % -5.16 C
2497 22-02-2004 19:34:57 3.3 C 53 % -5.35 C
2498 22-02-2004 19:46:01 2.7 C 56 % -5.18 C
2499 22-02-2004 19:58:01 2.4 C 58 % -5 C
2500 22-02-2004 20:10:01 2.5 C 58 % -4.91 C
Sensor: Nr:Datum:Temp:Feuchte:Taupunkt:
Aussen-T/F 2501 22-02-2004 20:22:01 2.6 C 59 % -4.59 C
2502 22-02-2004 20:34:01 2.7 C 58 % -4.72 C
2503 22-02-2004 20:46:00 2.8 C 58 % -4.63 C
2504 22-02-2004 20:58:00 2.9 C 59 % -4.31 C
2505 22-02-2004 21:10:59 2.9 C 60 % -4.08 C
2506 22-02-2004 21:22:58 3 C 58 % -4.44 C
2507 22-02-2004 21:34:57 3 C 58 % -4.44 C
2508 22-02-2004 21:46:01 3 C 58 % -4.44 C
2509 22-02-2004 21:58:01 3.1 C 58 % -4.34 C
2510 22-02-2004 22:10:01 3.1 C 56 % -4.81 C
2511 22-02-2004 22:22:01 3 C 53 % -5.62 C
2512 22-02-2004 22:34:01 2.8 C 51 % -6.31 C
2513 22-02-2004 22:46:01 2.6 C 49 % -7.02 C
2514 22-02-2004 22:58:01 2.2 C 48 % -7.65 C
2515 22-02-2004 23:10:01 2 C 47 % -8.1 C
2516 22-02-2004 23:22:01 1.8 C 48 % -8.02 C
2517 22-02-2004 23:34:01 1.5 C 50 % -7.77 C
2518 22-02-2004 23:46:00 1.3 C 51 % -7.7 C
2519 22-02-2004 23:58:00 1.1 C 52 % -7.64 C
2520 23-02-2004 00:10:00 0.8 C 54 % -7.43 C
2521 23-02-2004 00:22:59 0.8 C 55 % -7.19 C
2522 23-02-2004 00:34:57 0.6 C 56 % -7.15 C
2523 23-02-2004 00:46:01 0.4 C 56 % -7.33 C
2524 23-02-2004 00:58:01 0.3 C 57 % -7.2 C
2525 23-02-2004 01:10:01 0.2 C 58 % -7.07 C
Sensor: Nr:Datum:Temp:Feuchte:Taupunkt:
Aussen-T/F 2526 23-02-2004 01:22:01 0 C 60 % -6.82 C
2527 23-02-2004 01:34:01 -0.3 C 61 % -6.9 C
2528 23-02-2004 01:46:00 -0.4 C 61 % -6.99 C
2529 23-02-2004 01:58:00 -0.3 C 62 % -6.68 C
2530 23-02-2004 02:09:59 -0.3 C 62 % -6.68 C
2531 23-02-2004 02:22:58 -0.6 C 63 % -6.76 C
2532 23-02-2004 02:34:57 -0.9 C 63 % -7.05 C
2533 23-02-2004 02:47:02 -0.9 C 65 % -6.64 C
2534 23-02-2004 02:59:02 -1 C 66 % -6.54 C
2535 23-02-2004 03:11:02 -1.1 C 67 % -6.44 C
2536 23-02-2004 03:23:02 -1.1 C 67 % -6.44 C
2537 23-02-2004 03:35:00 -1.5 C 67 % -6.82 C
2538 23-02-2004 03:47:00 -1.7 C 69 % -6.63 C
2539 23-02-2004 03:59:00 -1.9 C 70 % -6.63 C
2540 23-02-2004 04:11:00 -1.6 C 71 % -6.16 C
2541 23-02-2004 04:23:59 -1.4 C 70 % -6.15 C
2542 23-02-2004 04:35:57 -1.4 C 70 % -6.15 C
2543 23-02-2004 04:47:01 -1.4 C 70 % -6.15 C
2544 23-02-2004 04:59:01 -1.4 C 69 % -6.34 C
2545 23-02-2004 05:11:01 -1.4 C 70 % -6.15 C
2546 23-02-2004 05:23:01 -1 C 69 % -5.96 C
2547 23-02-2004 05:35:01 -0.9 C 68 % -6.05 C
2548 23-02-2004 05:47:00 -0.9 C 67 % -6.25 C
2549 23-02-2004 05:59:00 -0.9 C 67 % -6.25 C
2550 23-02-2004 06:11:00 -0.8 C 68 % -5.96 C
Sensor: Nr:Datum:Temp:Feuchte:Taupunkt:
Aussen-T/F 2551 23-02-2004 06:23:58 -0.7 C 67 % -6.05 C
2552 23-02-2004 06:35:57 -0.7 C 68 % -5.86 C
2553 23-02-2004 06:47:01 -0.7 C 68 % -5.86 C
2554 23-02-2004 06:59:01 -0.6 C 68 % -5.76 C
2555 23-02-2004 07:11:01 -0.6 C 68 % -5.76 C
2556 23-02-2004 07:23:01 -0.6 C 68 % -5.76 C
2557 23-02-2004 07:35:01 -0.5 C 68 % -5.67 C
2558 23-02-2004 07:47:01 -0.4 C 68 % -5.57 C
2559 23-02-2004 07:59:01 -0.4 C 68 % -5.57 C
2560 23-02-2004 08:11:01 -0.3 C 68 % -5.48 C
2561 23-02-2004 08:23:01 -0.3 C 68 % -5.48 C
2562 23-02-2004 08:35:01 -0.3 C 68 % -5.48 C
2563 23-02-2004 08:47:00 -0.4 C 69 % -5.38 C
2564 23-02-2004 08:59:00 -0.1 C 69 % -5.09 C
2565 23-02-2004 09:11:00 0.2 C 68 % -4.99 C
2566 23-02-2004 09:23:59 0.5 C 66 % -5.1 C
2567 23-02-2004 09:35:57 0.7 C 65 % -5.11 C
2568 23-02-2004 09:47:23 0.8 C 65 % -5.01 C
2569 23-02-2004 09:59:02 1.1 C 63 % -5.14 C
2570 23-02-2004 10:02:24 0.8 C 64 % -5.22 C
2571 23-02-2004 10:05:01 0.8 C 64 % -5.22 C
2572 23-02-2004 10:14:01 1 C 63 % -5.23 C
2573 23-02-2004 10:26:01 1 C 63 % -5.23 C
2574 23-02-2004 10:38:01 1 C 63 % -5.23 C
2575 23-02-2004 10:50:01 1.3 C 63 % -4.95 C
Sensor: Nr:Datum:Temp:Feuchte:Taupunkt:
Aussen-T/F 2576 23-02-2004 11:13:59 1.4 C 62 % -5.07 C
2577 23-02-2004 11:14:58 1.5 C 60 % -5.4 C
2578 23-02-2004 11:26:58 1.9 C 57 % -5.7 C
2579 23-02-2004 11:38:57 1.9 C 58 % -5.47 C
2580 23-02-2004 11:50:01 2.5 C 56 % -5.37 C
2581 23-02-2004 12:02:01 2.2 C 56 % -5.65 C
2582 23-02-2004 12:14:01 2.6 C 57 % -5.04 C
2583 23-02-2004 12:26:01 2.8 C 55 % -5.33 C
2584 23-02-2004 12:38:01 3 C 51 % -6.13 C
2585 23-02-2004 12:50:01 3.8 C 48 % -6.18 C
2586 23-02-2004 13:02:01 3.7 C 45 % -7.11 C
2587 23-02-2004 13:14:01 4.1 C 44 % -7.04 C
2588 23-02-2004 13:26:01 4.3 C 43 % -7.15 C
2589 23-02-2004 13:38:01 4.6 C 42 % -7.18 C
2590 23-02-2004 13:50:00 5 C 39 % -7.78 C
2591 23-02-2004 14:02:00 3.6 C 46 % -6.92 C
2592 23-02-2004 14:14:00 1.7 C 60 % -5.21 C
2593 23-02-2004 14:26:59 2.1 C 57 % -5.51 C
2594 23-02-2004 14:38:57 3 C 52 % -5.87 C
2595 23-02-2004 14:50:01 3.3 C 53 % -5.35 C
2596 23-02-2004 15:02:01 4.2 C 50 % -5.28 C
2597 23-02-2004 15:14:01 4.9 C 47 % -5.45 C
2598 23-02-2004 15:26:01 3.6 C 47 % -6.64 C
2599 23-02-2004 15:38:01 2.9 C 51 % -6.22 C
2600 23-02-2004 15:50:01 2.7 C 49 % -6.92 C
Sensor: Nr:Datum:Temp:Feuchte:Taupunkt:
Aussen-T/F 2601 23-02-2004 16:02:59 3.1 C 45 % -7.66 C
2602 23-02-2004 16:13:59 3.6 C 42 % -8.09 C
2603 23-02-2004 16:26:58 3.2 C 38 % -9.72 C
2604 23-02-2004 16:38:57 3.5 C 37 % -9.79 C
2605 23-02-2004 16:50:01 3.8 C 35 % -10.23 C
2606 23-02-2004 17:02:01 3.8 C 35 % -10.23 C
2607 23-02-2004 17:14:01 3.7 C 35 % -10.31 C
2608 23-02-2004 17:26:01 3.2 C 37 % -10.06 C
2609 23-02-2004 17:38:01 2.6 C 40 % -9.61 C
2610 23-02-2004 17:50:01 2.4 C 42 % -9.18 C
2611 23-02-2004 18:02:01 2.3 C 45 % -8.39 C
2612 23-02-2004 18:14:01 2 C 50 % -7.31 C
2613 23-02-2004 18:26:01 1.5 C 54 % -6.78 C
2614 23-02-2004 18:38:01 1 C 56 % -6.77 C
2615 23-02-2004 18:50:00 0.6 C 59 % -6.47 C
2616 23-02-2004 19:02:00 0.2 C 60 % -6.63 C
2617 23-02-2004 19:14:00 0.2 C 59 % -6.85 C
2618 23-02-2004 19:26:59 -0.2 C 60 % -7.02 C
2619 23-02-2004 19:38:58 -0.5 C 61 % -7.08 C
2620 23-02-2004 19:50:01 -0.5 C 61 % -7.08 C
2621 23-02-2004 20:02:01 -0.8 C 62 % -7.16 C
2622 23-02-2004 20:14:01 -0.9 C 64 % -6.84 C
2623 23-02-2004 20:26:01 -1 C 65 % -6.74 C
2624 23-02-2004 20:38:01 -1.3 C 65 % -7.02 C
2625 23-02-2004 20:50:00 -1.3 C 67 % -6.63 C
Sensor: Nr:Datum:Temp:Feuchte:Taupunkt:
Aussen-T/F 2626 23-02-2004 21:02:00 -1.6 C 67 % -6.91 C
2627 23-02-2004 21:14:00 -1.8 C 67 % -7.11 C
2628 23-02-2004 21:26:59 -2 C 67 % -7.3 C
2629 23-02-2004 21:38:57 -2.1 C 68 % -7.2 C
2630 23-02-2004 21:50:01 -2.3 C 68 % -7.39 C
2631 23-02-2004 22:02:01 -2.3 C 69 % -7.2 C
2632 23-02-2004 22:14:01 -2.4 C 69 % -7.3 C
2633 23-02-2004 22:26:01 -2.4 C 69 % -7.3 C
2634 23-02-2004 22:38:01 -2.6 C 70 % -7.31 C
2635 23-02-2004 22:50:00 -2.6 C 70 % -7.31 C
2636 23-02-2004 23:02:59 -2.7 C 71 % -7.22 C
2637 23-02-2004 23:14:58 -3 C 71 % -7.51 C
2638 23-02-2004 23:26:58 -2.9 C 72 % -7.23 C
2639 23-02-2004 23:38:57 -2.9 C 72 % -7.23 C
2640 23-02-2004 23:50:01 -3 C 73 % -7.15 C
2641 24-02-2004 00:02:01 -3.2 C 73 % -7.34 C
2642 24-02-2004 00:14:01 -3.2 C 73 % -7.34 C
2643 24-02-2004 00:26:01 -3.4 C 72 % -7.71 C
2644 24-02-2004 00:38:01 -3.2 C 72 % -7.52 C
2645 24-02-2004 00:50:01 -3.4 C 73 % -7.53 C
2646 24-02-2004 01:02:01 -3.5 C 73 % -7.63 C
2647 24-02-2004 01:14:01 -3.7 C 74 % -7.65 C
2648 24-02-2004 01:26:01 -3.7 C 74 % -7.65 C
2649 24-02-2004 01:38:01 -3.8 C 74 % -7.75 C
2650 24-02-2004 01:50:00 -4 C 74 % -7.94 C
Sensor: Nr:Datum:Temp:Feuchte:Taupunkt:
Aussen-T/F 2651 24-02-2004 02:02:00 -4 C 74 % -7.94 C
2652 24-02-2004 02:14:00 -4 C 74 % -7.94 C
2653 24-02-2004 02:26:58 -4.2 C 74 % -8.13 C
2654 24-02-2004 02:38:57 -4.3 C 74 % -8.23 C
2655 24-02-2004 02:51:03 -4.5 C 74 % -8.42 C
2656 24-02-2004 03:03:03 -4.6 C 74 % -8.52 C
2657 24-02-2004 03:15:02 -4.6 C 74 % -8.52 C
2658 24-02-2004 03:27:02 -4.8 C 74 % -8.71 C
2659 24-02-2004 03:39:00 -4.8 C 74 % -8.71 C
2660 24-02-2004 03:51:00 -5.1 C 73 % -9.18 C
2661 24-02-2004 04:03:00 -4.9 C 73 % -8.98 C
2662 24-02-2004 04:15:59 -5 C 73 % -9.08 C
2663 24-02-2004 04:27:59 -5.3 C 73 % -9.37 C
2664 24-02-2004 04:39:58 -5.2 C 73 % -9.27 C
2665 24-02-2004 04:51:01 -5.3 C 73 % -9.37 C
2666 24-02-2004 05:03:01 -5.6 C 73 % -9.66 C
2667 24-02-2004 05:15:01 -5.7 C 73 % -9.75 C
2668 24-02-2004 05:27:01 -5.6 C 73 % -9.66 C
2669 24-02-2004 05:39:01 -5.6 C 73 % -9.66 C
2670 24-02-2004 05:51:00 -5.8 C 73 % -9.85 C
2671 24-02-2004 06:03:00 -5.8 C 73 % -9.85 C
2672 24-02-2004 06:15:59 -6 C 73 % -10.04 C
2673 24-02-2004 06:27:59 -6.1 C 73 % -10.14 C
2674 24-02-2004 06:39:57 -6.1 C 73 % -10.14 C
2675 24-02-2004 06:51:01 -6.1 C 73 % -10.14 C
Sensor: Nr:Datum:Temp:Feuchte:Taupunkt:
Aussen-T/F 2676 24-02-2004 07:03:01 -6.2 C 72 % -10.41 C
2677 24-02-2004 07:15:01 -6.2 C 73 % -10.24 C
2678 24-02-2004 07:27:01 -6.1 C 72 % -10.32 C
2679 24-02-2004 07:39:01 -6 C 72 % -10.22 C
2680 24-02-2004 07:51:00 -5.7 C 71 % -10.11 C
2681 24-02-2004 08:03:59 -5.5 C 70 % -10.09 C
2682 24-02-2004 08:15:58 -5.3 C 69 % -10.08 C
2683 24-02-2004 08:27:58 -4.8 C 69 % -9.6 C
2684 24-02-2004 08:39:57 -4.4 C 67 % -9.59 C
2685 24-02-2004 08:51:01 -4.4 C 67 % -9.59 C
2686 24-02-2004 09:03:01 -4.1 C 67 % -9.31 C
2687 24-02-2004 09:15:01 -3.9 C 67 % -9.11 C
2688 24-02-2004 09:27:01 -3.5 C 67 % -8.73 C
2689 24-02-2004 09:39:01 -3.1 C 66 % -8.54 C
2690 24-02-2004 09:51:01 -2.6 C 65 % -8.26 C
2691 24-02-2004 10:03:01 -2.3 C 64 % -8.17 C
2692 24-02-2004 10:15:01 -1.9 C 64 % -7.79 C
2693 24-02-2004 10:27:01 -1.4 C 62 % -7.73 C
2694 24-02-2004 10:39:01 -1.1 C 61 % -7.65 C
2695 24-02-2004 10:51:01 -0.6 C 60 % -7.39 C
2696 24-02-2004 11:03:01 -0.1 C 59 % -7.14 C
2697 24-02-2004 11:15:01 0 C 56 % -7.71 C
2698 24-02-2004 11:27:01 0.2 C 56 % -7.52 C
2699 24-02-2004 11:39:01 0.5 C 55 % -7.47 C
2700 24-02-2004 11:51:01 0.8 C 52 % -7.92 C
Sensor: Nr:Datum:Temp:Feuchte:Taupunkt:
Aussen-T/F 2701 24-02-2004 12:03:01 1.3 C 51 % -7.7 C
2702 24-02-2004 12:15:01 1.9 C 50 % -7.4 C
2703 24-02-2004 12:27:01 2.3 C 46 % -8.11 C
2704 24-02-2004 12:39:01 2.3 C 45 % -8.39 C
2705 24-02-2004 12:51:01 2.5 C 44 % -8.49 C
2706 24-02-2004 13:03:02 2.6 C 42 % -8.99 C
2707 24-02-2004 13:15:01 3.1 C 40 % -9.16 C
2708 24-02-2004 13:27:01 3.1 C 40 % -9.16 C
2709 24-02-2004 13:39:01 3.4 C 40 % -8.89 C
2710 24-02-2004 13:51:01 3.8 C 40 % -8.53 C
2711 24-02-2004 14:03:01 3.3 C 41 % -8.67 C
2712 24-02-2004 14:15:01 3.4 C 43 % -7.97 C
2713 24-02-2004 14:27:01 3.5 C 44 % -7.58 C
2714 24-02-2004 14:39:01 3.5 C 46 % -7.01 C
2715 24-02-2004 14:51:00 3.3 C 46 % -7.19 C
2716 24-02-2004 15:03:00 3.3 C 46 % -7.19 C
2717 24-02-2004 15:15:59 3.2 C 47 % -7 C
2718 24-02-2004 15:27:59 3.2 C 47 % -7 C
2719 24-02-2004 15:39:58 3.3 C 47 % -6.91 C
2720 24-02-2004 15:51:01 3.3 C 47 % -6.91 C
2721 24-02-2004 16:03:01 3.2 C 47 % -7 C
2722 24-02-2004 16:15:01 3.2 C 48 % -6.73 C
2723 24-02-2004 16:27:01 3 C 48 % -6.92 C
2724 24-02-2004 16:39:01 2.7 C 50 % -6.66 C
2725 24-02-2004 16:51:01 2.7 C 51 % -6.41 C
Sensor: Nr:Datum:Temp:Feuchte:Taupunkt:
Aussen-T/F 2726 24-02-2004 17:03:01 2.7 C 52 % -6.15 C
2727 24-02-2004 17:15:01 2.7 C 53 % -5.9 C
2728 24-02-2004 17:27:01 2.5 C 54 % -5.85 C
2729 24-02-2004 17:39:01 2.1 C 56 % -5.74 C
2730 24-02-2004 17:51:00 1.8 C 59 % -5.34 C
2731 24-02-2004 18:03:00 1.7 C 60 % -5.21 C
2732 24-02-2004 18:15:59 1.7 C 60 % -5.21 C
2733 24-02-2004 18:27:59 1.6 C 60 % -5.31 C
2734 24-02-2004 18:39:58 1.6 C 60 % -5.31 C
2735 24-02-2004 18:51:01 1.5 C 60 % -5.4 C
2736 24-02-2004 19:03:01 1.6 C 60 % -5.31 C
2737 24-02-2004 19:15:01 1.6 C 59 % -5.53 C
2738 24-02-2004 19:27:01 1.6 C 59 % -5.53 C
2739 24-02-2004 19:39:02 1.5 C 59 % -5.62 C
2740 24-02-2004 19:51:00 1.5 C 58 % -5.85 C
2741 24-02-2004 20:03:00 1.4 C 58 % -5.94 C
2742 24-02-2004 20:15:59 1.4 C 58 % -5.94 C
2743 24-02-2004 20:27:59 1.4 C 58 % -5.94 C
2744 24-02-2004 20:39:57 1.2 C 58 % -6.13 C
2745 24-02-2004 20:51:01 1.2 C 59 % -5.91 C
2746 24-02-2004 21:03:01 1.2 C 59 % -5.91 C
2747 24-02-2004 21:15:01 1.2 C 58 % -6.13 C
2748 24-02-2004 21:27:01 1.3 C 58 % -6.03 C
2749 24-02-2004 21:39:01 1.2 C 59 % -5.91 C
2750 24-02-2004 21:51:01 1.1 C 60 % -5.78 C
Sensor: Nr:Datum:Temp:Feuchte:Taupunkt:
Aussen-T/F 2751 24-02-2004 22:03:00 1.2 C 60 % -5.69 C
2752 24-02-2004 22:15:58 1.3 C 60 % -5.59 C
2753 24-02-2004 22:27:58 1.3 C 60 % -5.59 C
2754 24-02-2004 22:39:57 1.3 C 61 % -5.37 C
2755 24-02-2004 22:51:01 1.3 C 61 % -5.37 C
2756 24-02-2004 23:03:01 1.4 C 61 % -5.28 C
2757 24-02-2004 23:15:01 1.3 C 63 % -4.95 C
2758 24-02-2004 23:27:01 1.3 C 65 % -4.54 C
2759 24-02-2004 23:39:01 1.3 C 66 % -4.34 C
2760 24-02-2004 23:51:01 1.2 C 67 % -4.23 C
2761 25-02-2004 00:03:01 1.2 C 67 % -4.23 C
2762 25-02-2004 00:15:01 1.5 C 65 % -4.35 C
2763 25-02-2004 00:27:01 1.5 C 64 % -4.55 C
2764 25-02-2004 00:39:02 1.6 C 63 % -4.67 C
2765 25-02-2004 00:51:00 1.6 C 63 % -4.67 C
2766 25-02-2004 01:03:00 1.6 C 63 % -4.67 C
2767 25-02-2004 01:15:59 1.6 C 63 % -4.67 C
2768 25-02-2004 01:27:59 1.6 C 63 % -4.67 C
2769 25-02-2004 01:39:58 1.5 C 64 % -4.55 C
2770 25-02-2004 01:51:01 1.5 C 65 % -4.35 C
2771 25-02-2004 02:03:01 1.5 C 65 % -4.35 C
2772 25-02-2004 02:15:01 1.4 C 65 % -4.44 C
2773 25-02-2004 02:27:01 1.2 C 68 % -4.04 C
2774 25-02-2004 02:39:00 1.2 C 68 % -4.04 C
2775 25-02-2004 02:52:03 1.2 C 68 % -4.04 C
Sensor: Nr:Datum:Temp:Feuchte:Taupunkt:
Aussen-T/F 2776 25-02-2004 03:04:03 1.3 C 67 % -4.14 C
2777 25-02-2004 03:16:02 1.3 C 67 % -4.14 C
2778 25-02-2004 03:28:02 1.3 C 66 % -4.34 C
2779 25-02-2004 03:40:00 1.3 C 67 % -4.14 C
2780 25-02-2004 03:52:00 1.2 C 69 % -3.84 C
2781 25-02-2004 04:04:00 1 C 72 % -3.47 C
2782 25-02-2004 04:16:59 0.7 C 75 % -3.21 C
2783 25-02-2004 04:28:59 0.7 C 76 % -3.03 C
2784 25-02-2004 04:40:58 0.7 C 76 % -3.03 C
2785 25-02-2004 04:52:00 0.7 C 75 % -3.21 C
2786 25-02-2004 05:04:00 0.6 C 77 % -2.96 C
2787 25-02-2004 05:16:00 0.6 C 77 % -2.96 C
2788 25-02-2004 05:28:00 0.5 C 78 % -2.88 C
2789 25-02-2004 05:40:00 0.5 C 79 % -2.71 C
2790 25-02-2004 05:52:01 0.4 C 79 % -2.81 C
2791 25-02-2004 06:04:01 0.5 C 79 % -2.71 C
2792 25-02-2004 06:16:01 0.5 C 79 % -2.71 C
2793 25-02-2004 06:28:01 0.5 C 79 % -2.71 C
2794 25-02-2004 06:40:01 0.6 C 79 % -2.61 C
2795 25-02-2004 06:52:00 0.5 C 80 % -2.54 C
2796 25-02-2004 07:04:00 0.4 C 81 % -2.47 C
2797 25-02-2004 07:16:58 0.4 C 82 % -2.3 C
2798 25-02-2004 07:28:58 0.4 C 82 % -2.3 C
2799 25-02-2004 07:40:57 0.4 C 82 % -2.3 C
2800 25-02-2004 07:52:01 0.5 C 82 % -2.21 C
Sensor: Nr:Datum:Temp:Feuchte:Taupunkt:
Aussen-T/F 2801 25-02-2004 08:04:01 0.5 C 82 % -2.21 C
2802 25-02-2004 08:16:01 0.4 C 83 % -2.14 C
2803 25-02-2004 08:28:01 0.4 C 83 % -2.14 C
2804 25-02-2004 08:40:01 0.4 C 84 % -1.98 C
2805 25-02-2004 08:52:00 0.4 C 84 % -1.98 C
2806 25-02-2004 09:04:59 0.4 C 84 % -1.98 C
2807 25-02-2004 09:16:58 0.5 C 84 % -1.88 C
2808 25-02-2004 09:28:58 0.6 C 84 % -1.78 C
2809 25-02-2004 09:40:57 0.8 C 82 % -1.91 C
2810 25-02-2004 09:52:01 1 C 81 % -1.88 C
2811 25-02-2004 10:04:01 1.2 C 80 % -1.86 C
2812 25-02-2004 10:16:01 1.5 C 80 % -1.57 C
2813 25-02-2004 10:28:01 1.6 C 80 % -1.47 C
2814 25-02-2004 10:40:00 1.9 C 79 % -1.35 C
2815 25-02-2004 10:52:01 2.2 C 77 % -1.4 C
2816 25-02-2004 11:04:01 2.2 C 75 % -1.76 C
2817 25-02-2004 11:16:01 2.6 C 74 % -1.56 C
2818 25-02-2004 11:28:01 3 C 71 % -1.73 C
2819 25-02-2004 11:40:01 3.7 C 68 % -1.64 C
2820 25-02-2004 11:52:00 3.6 C 65 % -2.35 C
2821 25-02-2004 12:04:00 3.4 C 66 % -2.33 C
2822 25-02-2004 12:16:59 3.7 C 64 % -2.46 C
2823 25-02-2004 12:28:59 3.8 C 64 % -2.37 C
2824 25-02-2004 12:40:58 3.8 C 63 % -2.58 C
2825 25-02-2004 12:52:01 3.8 C 63 % -2.58 C
Sensor: Nr:Datum:Temp:Feuchte:Taupunkt:
Aussen-T/F 2826 25-02-2004 13:04:00 3.8 C 61 % -3.01 C
2827 25-02-2004 13:16:00 3.6 C 62 % -2.98 C
2828 25-02-2004 13:28:00 3.7 C 64 % -2.46 C
2829 25-02-2004 13:40:00 4.4 C 61 % -2.45 C
2830 25-02-2004 13:52:01 5 C 56 % -3.03 C
2831 25-02-2004 14:04:01 5 C 54 % -3.52 C
2832 25-02-2004 14:16:01 4.6 C 54 % -3.89 C
2833 25-02-2004 14:28:01 4.4 C 55 % -3.83 C
2834 25-02-2004 14:40:01 4.3 C 54 % -4.17 C
2835 25-02-2004 14:52:01 4.1 C 55 % -4.11 C
2836 25-02-2004 15:04:01 4.2 C 55 % -4.02 C
2837 25-02-2004 15:16:01 4 C 55 % -4.21 C
2838 25-02-2004 15:28:01 3.7 C 57 % -4.01 C
2839 25-02-2004 15:40:01 3.4 C 60 % -3.61 C
2840 25-02-2004 15:52:00 3.1 C 63 % -3.24 C
2841 25-02-2004 16:04:00 3.3 C 67 % -2.23 C
2842 25-02-2004 16:16:58 1.1 C 72 % -3.37 C
2843 25-02-2004 16:28:58 0.8 C 78 % -2.59 C
2844 25-02-2004 16:40:57 0.7 C 79 % -2.51 C
2845 25-02-2004 16:52:01 0.7 C 79 % -2.51 C
2846 25-02-2004 17:04:01 0.6 C 80 % -2.44 C
2847 25-02-2004 17:16:01 0.7 C 80 % -2.34 C
2848 25-02-2004 17:28:01 0.7 C 80 % -2.34 C
2849 25-02-2004 17:40:01 0.7 C 80 % -2.34 C
2850 25-02-2004 17:52:00 0.6 C 80 % -2.44 C
Sensor: Nr:Datum:Temp:Feuchte:Taupunkt:
Aussen-T/F 2851 25-02-2004 18:04:00 0.6 C 80 % -2.44 C
2852 25-02-2004 18:16:59 0.7 C 80 % -2.34 C
2853 25-02-2004 18:28:59 0.7 C 81 % -2.18 C
2854 25-02-2004 18:40:58 0.5 C 80 % -2.54 C
2855 25-02-2004 18:52:01 0.3 C 81 % -2.57 C
2856 25-02-2004 19:04:02 0.3 C 81 % -2.57 C
2857 25-02-2004 19:16:01 0.1 C 81 % -2.76 C
2858 25-02-2004 19:28:01 0.1 C 82 % -2.6 C
2859 25-02-2004 19:40:01 0.1 C 81 % -2.76 C
2860 25-02-2004 19:52:00 0.1 C 81 % -2.76 C
2861 25-02-2004 20:04:00 0.1 C 81 % -2.76 C
2862 25-02-2004 20:16:58 0 C 81 % -2.86 C
2863 25-02-2004 20:28:58 0 C 81 % -2.86 C
2864 25-02-2004 20:40:57 0 C 81 % -2.86 C
2865 25-02-2004 20:52:01 0 C 81 % -2.86 C
2866 25-02-2004 21:04:01 0.1 C 81 % -2.76 C
2867 25-02-2004 21:16:01 0 C 81 % -2.86 C
2868 25-02-2004 21:28:01 -0.1 C 81 % -2.96 C
2869 25-02-2004 21:40:01 -0.1 C 81 % -2.96 C
2870 25-02-2004 21:52:00 0 C 80 % -3.03 C
2871 25-02-2004 22:04:59 0 C 80 % -3.03 C
2872 25-02-2004 22:16:58 0 C 80 % -3.03 C
2873 25-02-2004 22:28:58 0.1 C 80 % -2.93 C
2874 25-02-2004 22:40:57 0 C 79 % -3.2 C
2875 25-02-2004 22:52:01 0.1 C 79 % -3.1 C
Sensor: Nr:Datum:Temp:Feuchte:Taupunkt:
Aussen-T/F 2876 25-02-2004 23:04:01 0 C 78 % -3.37 C
2877 25-02-2004 23:16:01 0 C 78 % -3.37 C
2878 25-02-2004 23:28:01 0 C 80 % -3.03 C
2879 25-02-2004 23:40:01 0 C 80 % -3.03 C
2880 25-02-2004 23:52:01 0 C 81 % -2.86 C
2881 26-02-2004 00:04:01 -0.1 C 79 % -3.3 C
2882 26-02-2004 00:16:01 -0.1 C 79 % -3.3 C
2883 26-02-2004 00:28:01 -0.1 C 80 % -3.13 C
2884 26-02-2004 00:40:01 -0.1 C 80 % -3.13 C
2885 26-02-2004 00:52:01 -0.1 C 80 % -3.13 C
2886 26-02-2004 01:04:00 -0.1 C 80 % -3.13 C
2887 26-02-2004 01:16:58 -0.1 C 79 % -3.3 C
2888 26-02-2004 01:28:58 -0.1 C 79 % -3.3 C
2889 26-02-2004 01:40:57 -0.2 C 79 % -3.39 C
2890 26-02-2004 01:52:01 -0.2 C 79 % -3.39 C
2891 26-02-2004 02:04:01 -0.3 C 78 % -3.66 C
2892 26-02-2004 02:16:01 -0.3 C 77 % -3.83 C
2893 26-02-2004 02:28:01 -0.4 C 77 % -3.93 C
2894 26-02-2004 02:40:01 -0.6 C 76 % -4.3 C
2895 26-02-2004 02:53:02 -0.7 C 76 % -4.4 C
2896 26-02-2004 03:05:02 -1.1 C 76 % -4.78 C
2897 26-02-2004 03:17:02 -1.3 C 76 % -4.98 C
2898 26-02-2004 03:29:02 -1.4 C 76 % -5.07 C
2899 26-02-2004 03:41:00 -1.5 C 77 % -5 C
2900 26-02-2004 03:53:00 -1.6 C 77 % -5.1 C
Sensor: Nr:Datum:Temp:Feuchte:Taupunkt:
Aussen-T/F 2901 26-02-2004 04:05:00 -1.9 C 76 % -5.56 C
2902 26-02-2004 04:17:59 -2.1 C 76 % -5.75 C
2903 26-02-2004 04:29:59 -2.1 C 77 % -5.58 C
2904 26-02-2004 04:41:57 -1.8 C 77 % -5.29 C
2905 26-02-2004 04:53:01 -1.7 C 77 % -5.19 C
2906 26-02-2004 05:05:01 -1.6 C 76 % -5.27 C
2907 26-02-2004 05:17:01 -1.6 C 76 % -5.27 C
2908 26-02-2004 05:29:01 -1.6 C 76 % -5.27 C
2909 26-02-2004 05:41:01 -1.5 C 76 % -5.17 C
2910 26-02-2004 05:53:00 -1.6 C 76 % -5.27 C
2911 26-02-2004 06:04:59 -1.6 C 76 % -5.27 C
2912 26-02-2004 06:17:58 -1.7 C 76 % -5.36 C
2913 26-02-2004 06:29:58 -1.7 C 76 % -5.36 C
2914 26-02-2004 06:41:57 -1.7 C 76 % -5.36 C
2915 26-02-2004 06:53:01 -1.9 C 75 % -5.73 C
2916 26-02-2004 07:05:01 -2.1 C 75 % -5.93 C
2917 26-02-2004 07:17:01 -2.5 C 74 % -6.49 C
2918 26-02-2004 07:29:01 -2.6 C 74 % -6.58 C
2919 26-02-2004 07:41:01 -2.6 C 75 % -6.41 C
2920 26-02-2004 07:53:01 -2.3 C 75 % -6.12 C
2921 26-02-2004 08:05:01 -2 C 74 % -6 C
2922 26-02-2004 08:17:01 -1.8 C 71 % -6.35 C
2923 26-02-2004 08:29:01 -1.9 C 70 % -6.63 C
2924 26-02-2004 08:41:01 -2.1 C 70 % -6.83 C
2925 26-02-2004 08:53:00 -2.2 C 70 % -6.92 C
Sensor: Nr:Datum:Temp:Feuchte:Taupunkt:
Aussen-T/F 2926 26-02-2004 09:05:00 -2.4 C 71 % -6.93 C
2927 26-02-2004 09:17:58 -2.2 C 69 % -7.11 C
2928 26-02-2004 09:29:58 -2 C 68 % -7.11 C
2929 26-02-2004 09:41:57 -1.9 C 68 % -7.01 C
2930 26-02-2004 09:53:01 -1.7 C 68 % -6.82 C
2931 26-02-2004 10:05:01 -1.4 C 68 % -6.53 C
2932 26-02-2004 10:17:01 -1.1 C 67 % -6.44 C
2933 26-02-2004 10:29:01 -1.1 C 66 % -6.63 C
2934 26-02-2004 10:41:01 -0.9 C 64 % -6.84 C
2935 26-02-2004 10:53:00 -0.6 C 60 % -7.39 C
2936 26-02-2004 11:05:59 -0.4 C 60 % -7.2 C
2937 26-02-2004 11:17:58 -0.3 C 60 % -7.11 C
2938 26-02-2004 11:29:58 -0.1 C 57 % -7.58 C
2939 26-02-2004 11:41:57 0.1 C 56 % -7.61 C
2940 26-02-2004 11:53:01 0.1 C 53 % -8.32 C
2941 26-02-2004 12:05:01 0.4 C 52 % -8.29 C
2942 26-02-2004 12:17:01 0.4 C 52 % -8.29 C
2943 26-02-2004 12:29:01 0.5 C 51 % -8.44 C
2944 26-02-2004 12:41:00 1.1 C 50 % -8.14 C
2945 26-02-2004 12:53:01 1.5 C 47 % -8.56 C
2946 26-02-2004 13:05:01 1.7 C 45 % -8.93 C
2947 26-02-2004 13:17:01 2 C 45 % -8.66 C
2948 26-02-2004 13:29:01 2.2 C 45 % -8.48 C
2949 26-02-2004 13:41:01 2.6 C 42 % -8.99 C
2950 26-02-2004 13:53:00 2.7 C 44 % -8.31 C
Sensor: Nr:Datum:Temp:Feuchte:Taupunkt:
Aussen-T/F 2951 26-02-2004 14:05:00 3.2 C 41 % -8.76 C
2952 26-02-2004 14:17:58 3.3 C 42 % -8.36 C
2953 26-02-2004 14:29:58 3.1 C 41 % -8.85 C
2954 26-02-2004 14:41:57 3.3 C 41 % -8.67 C
2955 26-02-2004 14:53:01 3.4 C 41 % -8.58 C
2956 26-02-2004 15:05:01 3.4 C 40 % -8.89 C
2957 26-02-2004 15:17:01 2.6 C 41 % -9.3 C
2958 26-02-2004 15:29:01 2.4 C 43 % -8.88 C
2959 26-02-2004 15:41:01 2.6 C 44 % -8.4 C
2960 26-02-2004 15:53:01 2.6 C 45 % -8.11 C
2961 26-02-2004 16:05:01 2.7 C 45 % -8.02 C
2962 26-02-2004 16:17:01 2.1 C 46 % -8.29 C
2963 26-02-2004 16:29:01 1.7 C 51 % -7.33 C
2964 26-02-2004 16:41:01 1.5 C 52 % -7.27 C
2965 26-02-2004 16:53:00 1.3 C 54 % -6.96 C
2966 26-02-2004 17:05:00 1.1 C 60 % -5.78 C
2967 26-02-2004 17:17:59 1.2 C 60 % -5.69 C
2968 26-02-2004 17:29:59 1.2 C 61 % -5.47 C
2969 26-02-2004 17:41:57 1.1 C 62 % -5.35 C
2970 26-02-2004 17:53:01 1.1 C 63 % -5.14 C
2971 26-02-2004 18:05:01 1.2 C 62 % -5.26 C
2972 26-02-2004 18:17:01 0.7 C 67 % -4.71 C
2973 26-02-2004 18:29:01 0.5 C 70 % -4.32 C
2974 26-02-2004 18:41:01 0.5 C 68 % -4.71 C
2975 26-02-2004 18:53:00 0.5 C 66 % -5.1 C
Sensor: Nr:Datum:Temp:Feuchte:Taupunkt:
Aussen-T/F 2976 26-02-2004 19:04:59 0.6 C 63 % -5.61 C
2977 26-02-2004 19:17:58 0.6 C 61 % -6.04 C
2978 26-02-2004 19:29:58 0.7 C 60 % -6.16 C
2979 26-02-2004 19:41:57 0.8 C 59 % -6.28 C
2980 26-02-2004 19:53:01 0.8 C 58 % -6.5 C
2981 26-02-2004 20:05:01 0.6 C 59 % -6.47 C
2982 26-02-2004 20:17:01 0.5 C 60 % -6.35 C
2983 26-02-2004 20:29:01 0.4 C 60 % -6.44 C
2984 26-02-2004 20:41:01 0.2 C 61 % -6.41 C
2985 26-02-2004 20:53:01 0 C 61 % -6.6 C
2986 26-02-2004 21:05:01 -0.2 C 61 % -6.8 C
2987 26-02-2004 21:17:01 -0.3 C 62 % -6.68 C
2988 26-02-2004 21:29:01 -0.4 C 63 % -6.57 C
2989 26-02-2004 21:41:01 -0.7 C 64 % -6.65 C
2990 26-02-2004 21:53:00 -1 C 66 % -6.54 C
2991 26-02-2004 22:05:00 -1.1 C 67 % -6.44 C
2992 26-02-2004 22:17:58 -1.2 C 66 % -6.73 C
2993 26-02-2004 22:29:58 -1.4 C 66 % -6.92 C
2994 26-02-2004 22:41:57 -1.7 C 66 % -7.2 C
2995 26-02-2004 22:53:01 -1.7 C 67 % -7.01 C
2996 26-02-2004 23:05:01 -1.9 C 68 % -7.01 C
2997 26-02-2004 23:17:01 -1.9 C 68 % -7.01 C
2998 26-02-2004 23:29:01 -2 C 68 % -7.11 C
2999 26-02-2004 23:41:01 -2.1 C 67 % -7.39 C
3000 26-02-2004 23:53:00 -2.2 C 68 % -7.3 C
Sensor: Nr:Datum:Temp:Feuchte:Taupunkt:
Aussen-T/F 3001 27-02-2004 00:05:59 -2.1 C 67 % -7.39 C
3002 27-02-2004 00:17:58 -2.2 C 66 % -7.68 C
3003 27-02-2004 00:29:58 -2.3 C 66 % -7.78 C
3004 27-02-2004 00:41:57 -2.2 C 65 % -7.88 C
3005 27-02-2004 00:53:01 -2.3 C 65 % -7.97 C
3006 27-02-2004 01:05:01 -2.3 C 66 % -7.78 C
3007 27-02-2004 01:17:01 -2.6 C 66 % -8.06 C
3008 27-02-2004 01:29:01 -2.7 C 66 % -8.16 C
3009 27-02-2004 01:41:00 -2.6 C 65 % -8.26 C
3010 27-02-2004 01:53:01 -2.8 C 65 % -8.45 C
3011 27-02-2004 02:05:01 -3.1 C 66 % -8.54 C
3012 27-02-2004 02:17:01 -3.4 C 67 % -8.64 C
3013 27-02-2004 02:29:01 -3.5 C 68 % -8.54 C
3014 27-02-2004 02:41:01 -3.7 C 69 % -8.55 C
3015 27-02-2004 02:54:01 -3.9 C 69 % -8.74 C
3016 27-02-2004 03:06:01 -3.7 C 70 % -8.36 C
3017 27-02-2004 03:18:00 -3.5 C 70 % -8.17 C
3018 27-02-2004 03:30:00 -3.8 C 69 % -8.64 C
3019 27-02-2004 03:42:01 -3.9 C 69 % -8.74 C
3020 27-02-2004 03:54:01 -4.1 C 70 % -8.75 C
3021 27-02-2004 04:06:00 -4 C 68 % -9.02 C
3022 27-02-2004 04:18:00 -4.1 C 68 % -9.12 C
3023 27-02-2004 04:30:00 -4.1 C 69 % -8.93 C
3024 27-02-2004 04:42:00 -4.3 C 69 % -9.12 C
3025 27-02-2004 04:54:01 -4.5 C 69 % -9.31 C
Sensor: Nr:Datum:Temp:Feuchte:Taupunkt:
Aussen-T/F 3026 27-02-2004 05:06:01 -4.8 C 70 % -9.42 C
3027 27-02-2004 05:18:01 -5 C 70 % -9.61 C
3028 27-02-2004 05:30:01 -5.1 C 71 % -9.53 C
3029 27-02-2004 05:42:01 -5.2 C 72 % -9.45 C
3030 27-02-2004 05:54:01 -5.3 C 72 % -9.54 C
3031 27-02-2004 06:06:01 -5.6 C 72 % -9.83 C
3032 27-02-2004 06:18:01 -5.7 C 72 % -9.93 C
3033 27-02-2004 06:30:01 -5.5 C 72 % -9.74 C
3034 27-02-2004 06:42:01 -5.3 C 72 % -9.54 C
3035 27-02-2004 06:54:00 -5.5 C 71 % -9.91 C
3036 27-02-2004 07:06:00 -5.8 C 71 % -10.2 C
3037 27-02-2004 07:18:59 -5.8 C 71 % -10.2 C
3038 27-02-2004 07:30:57 -5.8 C 71 % -10.2 C
3039 27-02-2004 07:42:57 -5.8 C 72 % -10.03 C
3040 27-02-2004 07:54:01 -5.8 C 72 % -10.03 C
3041 27-02-2004 08:06:01 -5.8 C 72 % -10.03 C
3042 27-02-2004 08:18:01 -5.7 C 73 % -9.75 C
3043 27-02-2004 08:30:01 -5.5 C 73 % -9.56 C
3044 27-02-2004 08:42:01 -5.3 C 72 % -9.54 C
3045 27-02-2004 08:54:00 -5.1 C 71 % -9.53 C
3046 27-02-2004 09:06:59 -5 C 70 % -9.61 C
3047 27-02-2004 09:18:58 -4.5 C 68 % -9.5 C
3048 27-02-2004 09:30:57 -4 C 67 % -9.21 C
3049 27-02-2004 09:42:57 -3.7 C 66 % -9.11 C
3050 27-02-2004 09:54:01 -3.4 C 65 % -9.02 C
Sensor: Nr:Datum:Temp:Feuchte:Taupunkt:
Aussen-T/F 3051 27-02-2004 10:06:01 -3 C 64 % -8.84 C
3052 27-02-2004 10:18:01 -2.5 C 64 % -8.36 C
3053 27-02-2004 10:30:01 -2.1 C 63 % -8.19 C
3054 27-02-2004 10:42:00 -1.6 C 61 % -8.13 C
3055 27-02-2004 10:54:01 -1.2 C 59 % -8.18 C
3056 27-02-2004 11:06:01 -0.8 C 57 % -8.24 C
3057 27-02-2004 11:18:01 -0.6 C 56 % -8.28 C
3058 27-02-2004 11:30:01 -0.4 C 56 % -8.09 C
3059 27-02-2004 11:42:01 0 C 57 % -7.48 C
3060 27-02-2004 11:54:00 0.1 C 55 % -7.85 C
3061 27-02-2004 12:06:00 0.4 C 50 % -8.79 C
3062 27-02-2004 12:18:58 0.5 C 48 % -9.21 C
3063 27-02-2004 12:30:57 0.4 C 47 % -9.57 C
3064 27-02-2004 12:42:57 1.2 C 45 % -9.39 C
3065 27-02-2004 12:54:01 1.8 C 43 % -9.42 C
3066 27-02-2004 13:06:01 2.2 C 39 % -10.29 C
3067 27-02-2004 13:18:01 2.3 C 41 % -9.57 C
3068 27-02-2004 13:30:01 2.1 C 41 % -9.75 C
3069 27-02-2004 13:42:01 2.7 C 42 % -8.9 C
3070 27-02-2004 13:54:01 3 C 37 % -10.24 C
3071 27-02-2004 14:06:01 3.1 C 37 % -10.15 C
3072 27-02-2004 14:18:01 2.6 C 40 % -9.61 C
3073 27-02-2004 14:30:01 2.5 C 39 % -10.02 C
3074 27-02-2004 14:42:01 2.4 C 39 % -10.11 C
3075 27-02-2004 14:54:00 2.6 C 40 % -9.61 C
Sensor: Nr:Datum:Temp:Feuchte:Taupunkt:
Aussen-T/F 3076 27-02-2004 15:06:00 3.1 C 38 % -9.81 C
3077 27-02-2004 15:18:59 2.7 C 38 % -10.17 C
3078 27-02-2004 15:30:57 2.3 C 39 % -10.2 C
3079 27-02-2004 15:42:57 2 C 41 % -9.84 C
3080 27-02-2004 15:54:01 1.6 C 46 % -8.75 C
3081 27-02-2004 16:06:01 1.4 C 50 % -7.86 C
3082 27-02-2004 16:18:01 1 C 56 % -6.77 C
3083 27-02-2004 16:30:01 1.1 C 56 % -6.68 C
3084 27-02-2004 16:42:01 1 C 58 % -6.32 C
3085 27-02-2004 16:54:00 0.5 C 59 % -6.56 C
3086 27-02-2004 17:06:00 0.6 C 60 % -6.25 C
3087 27-02-2004 17:18:59 0.7 C 60 % -6.16 C
3088 27-02-2004 17:30:58 0.7 C 58 % -6.6 C
3089 27-02-2004 17:42:58 0.8 C 58 % -6.5 C
3090 27-02-2004 17:54:01 0.9 C 58 % -6.41 C
3091 27-02-2004 18:06:01 0.7 C 57 % -6.82 C
3092 27-02-2004 18:18:01 0.6 C 57 % -6.92 C
3093 27-02-2004 18:30:01 0.5 C 57 % -7.01 C
3094 27-02-2004 18:42:01 0.4 C 59 % -6.66 C
3095 27-02-2004 18:54:00 0.1 C 60 % -6.72 C
3096 27-02-2004 19:06:00 -0.3 C 60 % -7.11 C
3097 27-02-2004 19:18:59 -0.6 C 62 % -6.97 C
3098 27-02-2004 19:30:57 -0.9 C 63 % -7.05 C
3099 27-02-2004 19:42:57 -0.9 C 62 % -7.25 C
3100 27-02-2004 19:54:01 -1.1 C 61 % -7.65 C
Sensor: Nr:Datum:Temp:Feuchte:Taupunkt:
Aussen-T/F 3101 27-02-2004 20:06:01 -1.1 C 61 % -7.65 C
3102 27-02-2004 20:18:01 -1.1 C 60 % -7.87 C
3103 27-02-2004 20:30:01 -1.1 C 58 % -8.3 C
3104 27-02-2004 20:42:01 -0.8 C 55 % -8.7 C
3105 27-02-2004 20:54:00 -0.5 C 52 % -9.14 C
3106 27-02-2004 21:06:00 -0.7 C 51 % -9.57 C
3107 27-02-2004 21:18:59 -0.8 C 51 % -9.66 C
3108 27-02-2004 21:30:58 -0.9 C 51 % -9.75 C
3109 27-02-2004 21:42:58 -1.2 C 52 % -9.79 C
3110 27-02-2004 21:54:01 -1.6 C 55 % -9.45 C
3111 27-02-2004 22:06:00 -1.7 C 56 % -9.31 C
3112 27-02-2004 22:18:00 -1.9 C 57 % -9.28 C
3113 27-02-2004 22:30:00 -1.8 C 59 % -8.74 C
3114 27-02-2004 22:42:00 -1.5 C 58 % -8.68 C
3115 27-02-2004 22:54:01 -1.4 C 58 % -8.58 C
3116 27-02-2004 23:06:01 -1.1 C 58 % -8.3 C
3117 27-02-2004 23:18:01 -1.1 C 60 % -7.87 C
3118 27-02-2004 23:30:01 -1 C 59 % -7.99 C
3119 27-02-2004 23:42:00 -1.1 C 60 % -7.87 C
3120 27-02-2004 23:54:01 -1.4 C 60 % -8.15 C
3121 28-02-2004 00:06:01 -1.5 C 61 % -8.03 C
3122 28-02-2004 00:18:01 -1.4 C 60 % -8.15 C
3123 28-02-2004 00:30:01 -1.4 C 60 % -8.15 C
3124 28-02-2004 00:42:01 -1.4 C 60 % -8.15 C
3125 28-02-2004 00:54:00 -1.4 C 60 % -8.15 C
Sensor: Nr:Datum:Temp:Feuchte:Taupunkt:
Aussen-T/F 3126 28-02-2004 01:06:00 -1.3 C 59 % -8.27 C
3127 28-02-2004 01:18:58 -1.2 C 56 % -8.84 C
3128 28-02-2004 01:30:57 -1.4 C 57 % -8.81 C
3129 28-02-2004 01:42:57 -1.6 C 57 % -8.99 C
3130 28-02-2004 01:54:01 -1.7 C 56 % -9.31 C
3131 28-02-2004 02:06:01 -2 C 57 % -9.37 C
3132 28-02-2004 02:18:01 -2.4 C 59 % -9.31 C
3133 28-02-2004 02:30:01 -2.5 C 58 % -9.62 C
3134 28-02-2004 02:42:01 -2.7 C 58 % -9.81 C
3135 28-02-2004 02:55:03 -2.9 C 60 % -9.57 C
3136 28-02-2004 03:07:03 -2.8 C 59 % -9.68 C
3137 28-02-2004 03:19:03 -2.6 C 60 % -9.28 C
3138 28-02-2004 03:31:00 -2.6 C 60 % -9.28 C
3139 28-02-2004 03:43:00 -2.7 C 61 % -9.17 C
3140 28-02-2004 03:55:00 -2.7 C 62 % -8.96 C
3141 28-02-2004 04:07:00 -2.7 C 62 % -8.96 C
3142 28-02-2004 04:19:59 -2.7 C 61 % -9.17 C
3143 28-02-2004 04:31:58 -2.8 C 62 % -9.05 C
3144 28-02-2004 04:43:58 -2.8 C 61 % -9.26 C
3145 28-02-2004 04:55:01 -2.7 C 59 % -9.59 C
3146 28-02-2004 05:07:01 -2.7 C 59 % -9.59 C
3147 28-02-2004 05:19:00 -2.8 C 60 % -9.47 C
3148 28-02-2004 05:31:00 -2.5 C 59 % -9.4 C
3149 28-02-2004 05:43:00 -2.5 C 59 % -9.4 C
3150 28-02-2004 05:55:01 -2.6 C 60 % -9.28 C
Sensor: Nr:Datum:Temp:Feuchte:Taupunkt:
Aussen-T/F 3151 28-02-2004 06:07:01 -2.1 C 59 % -9.02 C
3152 28-02-2004 06:19:01 -2.1 C 59 % -9.02 C
3153 28-02-2004 06:31:01 -2.2 C 59 % -9.12 C
3154 28-02-2004 06:43:01 -2.1 C 60 % -8.81 C
3155 28-02-2004 06:55:00 -2.1 C 60 % -8.81 C
3156 28-02-2004 07:07:59 -2 C 61 % -8.5 C
3157 28-02-2004 07:19:58 -1.9 C 61 % -8.41 C
3158 28-02-2004 07:31:57 -1.8 C 62 % -8.11 C
3159 28-02-2004 07:43:57 -1.8 C 62 % -8.11 C
3160 28-02-2004 07:55:01 -1.8 C 63 % -7.9 C
3161 28-02-2004 08:07:01 -1.9 C 64 % -7.79 C
3162 28-02-2004 08:19:01 -1.9 C 66 % -7.4 C
3163 28-02-2004 08:31:01 -1.8 C 67 % -7.11 C
3164 28-02-2004 08:43:01 -1.8 C 67 % -7.11 C
3165 28-02-2004 08:55:03 -1.7 C 66 % -7.2 C
3166 28-02-2004 09:07:01 -1.6 C 66 % -7.11 C
3167 28-02-2004 09:19:01 -1.2 C 66 % -6.73 C
3168 28-02-2004 09:31:01 -1 C 65 % -6.74 C
3169 28-02-2004 09:43:01 -0.9 C 65 % -6.64 C
3170 28-02-2004 09:55:00 -0.4 C 64 % -6.37 C
3171 28-02-2004 10:07:00 0 C 62 % -6.39 C
3172 28-02-2004 10:19:59 0.1 C 61 % -6.51 C
3173 28-02-2004 10:31:58 0.2 C 60 % -6.63 C
3174 28-02-2004 10:43:58 0.7 C 58 % -6.6 C
3175 28-02-2004 10:55:01 1 C 55 % -7.01 C
Sensor: Nr:Datum:Temp:Feuchte:Taupunkt:
Aussen-T/F 3176 28-02-2004 11:07:01 0.8 C 59 % -6.28 C
3177 28-02-2004 11:19:01 1.2 C 59 % -5.91 C
3178 28-02-2004 11:31:01 0.7 C 60 % -6.16 C
3179 28-02-2004 11:43:01 0.7 C 60 % -6.16 C
3180 28-02-2004 11:55:00 1.3 C 58 % -6.03 C
3181 28-02-2004 12:07:00 2.1 C 56 % -5.74 C
3182 28-02-2004 12:19:58 2.3 C 53 % -6.28 C
3183 28-02-2004 12:31:57 2.9 C 51 % -6.22 C
3184 28-02-2004 12:43:57 2.6 C 50 % -6.75 C
3185 28-02-2004 12:55:01 2.9 C 50 % -6.48 C
3186 28-02-2004 13:07:01 3.6 C 48 % -6.36 C
3187 28-02-2004 13:19:01 4.7 C 44 % -6.49 C
3188 28-02-2004 13:31:01 3.8 C 43 % -7.61 C
3189 28-02-2004 13:43:01 3.5 C 45 % -7.29 C
3190 28-02-2004 13:55:00 5.1 C 41 % -7.04 C
3191 28-02-2004 14:07:00 5.4 C 37 % -8.1 C
3192 28-02-2004 14:19:58 4.3 C 40 % -8.08 C
3193 28-02-2004 14:31:57 5 C 39 % -7.78 C
3194 28-02-2004 14:43:57 6 C 35 % -8.27 C
3195 28-02-2004 14:55:02 6.8 C 33 % -8.32 C
3196 28-02-2004 15:07:01 7.3 C 31 % -8.68 C
3197 28-02-2004 15:19:02 6.9 C 31 % -9.03 C
3198 28-02-2004 15:31:03 4.9 C 32 % -10.38 C
3199 28-02-2004 15:43:03 5 C 33 % -9.91 C
3200 28-02-2004 15:55:00 6.1 C 33 % -8.94 C
Sensor: Nr:Datum:Temp:Feuchte:Taupunkt:
Aussen-T/F 3201 28-02-2004 16:07:00 6.9 C 31 % -9.03 C
3202 28-02-2004 16:19:59 6.7 C 29 % -10.05 C
3203 28-02-2004 16:31:58 6.8 C 31 % -9.12 C
3204 28-02-2004 16:43:58 6.2 C 31 % -9.64 C
3205 28-02-2004 16:55:02 6.2 C 31 % -9.64 C
3206 28-02-2004 17:07:01 5.9 C 31 % -9.91 C
3207 28-02-2004 17:19:01 5.3 C 30 % -10.84 C
3208 28-02-2004 17:31:01 4.6 C 32 % -10.64 C
3209 28-02-2004 17:43:01 3.6 C 36 % -10.05 C
3210 28-02-2004 17:55:00 2.6 C 40 % -9.61 C
3211 28-02-2004 18:07:00 2.1 C 45 % -8.57 C
3212 28-02-2004 18:19:59 1.5 C 48 % -8.29 C
3213 28-02-2004 18:31:58 1 C 48 % -8.75 C
3214 28-02-2004 18:43:58 0.7 C 50 % -8.51 C
3215 28-02-2004 18:55:01 0.4 C 51 % -8.53 C
3216 28-02-2004 19:07:01 0.2 C 53 % -8.23 C
3217 28-02-2004 19:19:01 0 C 54 % -8.18 C
3218 28-02-2004 19:36:01 -0.3 C 55 % -8.23 C
3219 28-02-2004 19:48:01 -0.4 C 56 % -8.09 C
3220 28-02-2004 20:00:01 -0.6 C 56 % -8.28 C
3221 28-02-2004 20:12:00 -0.7 C 57 % -8.15 C
3222 28-02-2004 20:24:59 -1 C 56 % -8.66 C
3223 28-02-2004 20:36:58 -1.1 C 57 % -8.52 C
3224 28-02-2004 20:48:01 -1.3 C 57 % -8.71 C
3225 28-02-2004 21:00:01 -1.4 C 57 % -8.81 C
Sensor: Nr:Datum:Temp:Feuchte:Taupunkt:
Aussen-T/F 3226 28-02-2004 21:12:01 -1.6 C 58 % -8.77 C
3227 28-02-2004 21:24:01 -1.8 C 58 % -8.96 C
3228 28-02-2004 21:36:01 -2 C 59 % -8.93 C
3229 28-02-2004 21:48:00 -2.1 C 61 % -8.6 C
3230 28-02-2004 22:00:00 -2.2 C 60 % -8.9 C
3231 28-02-2004 22:12:00 -2.3 C 59 % -9.21 C
3232 28-02-2004 22:24:58 -2.5 C 59 % -9.4 C
3233 28-02-2004 22:36:57 -2.6 C 59 % -9.5 C
3234 28-02-2004 22:48:01 -2.8 C 60 % -9.47 C
3235 28-02-2004 23:00:01 -2.9 C 61 % -9.36 C
3236 28-02-2004 23:12:01 -3 C 61 % -9.45 C
3237 28-02-2004 23:24:01 -3.2 C 63 % -9.23 C
3238 28-02-2004 23:36:01 -3.4 C 62 % -9.62 C
3239 29-02-2004 00:00:00 -3.4 C 64 % -9.22 C
3240 29-02-2004 00:11:59 -3.7 C 63 % -9.71 C
3241 29-02-2004 00:24:58 -3.9 C 63 % -9.9 C
3242 29-02-2004 00:36:57 -3.9 C 64 % -9.7 C
3243 29-02-2004 00:48:36 -3.9 C 64 % -9.7 C
3244 29-02-2004 01:00:39 -4 C 64 % -9.79 C
3245 29-02-2004 01:12:39 -4.1 C 64 % -9.89 C
3246 29-02-2004 01:24:34 -4.1 C 65 % -9.69 C
3247 29-02-2004 01:36:37 -3.9 C 65 % -9.5 C
3248 29-02-2004 01:48:30 -4.2 C 65 % -9.79 C
3249 29-02-2004 02:00:33 -4.2 C 65 % -9.79 C
3250 29-02-2004 02:12:28 -4.3 C 65 % -9.88 C
Sensor: Nr:Datum:Temp:Feuchte:Taupunkt:
Aussen-T/F 3251 29-02-2004 02:24:31 -4.6 C 65 % -10.17 C
3252 29-02-2004 02:36:31 -4.8 C 66 % -10.16 C
3253 29-02-2004 02:58:04 -4.8 C 68 % -9.79 C
3254 29-02-2004 03:11:05 -4.9 C 68 % -9.88 C
3255 29-02-2004 03:23:05 -4.9 C 68 % -9.88 C
3256 29-02-2004 03:37:04 -5 C 68 % -9.98 C
3257 29-02-2004 03:49:04 -5 C 69 % -9.79 C
3258 29-02-2004 04:02:04 -5.1 C 69 % -9.89 C
3259 29-02-2004 04:14:04 -5.4 C 69 % -10.18 C
3260 29-02-2004 04:27:04 -5.6 C 69 % -10.37 C
3261 29-02-2004 04:40:04 -5.5 C 70 % -10.09 C
3262 29-02-2004 04:53:04 -5.6 C 70 % -10.19 C
3263 29-02-2004 05:01:15 -5.7 C 71 % -10.11 C
3264 29-02-2004 05:06:05 -5.7 C 70 % -10.29 C
3265 29-02-2004 05:13:18 -5.3 C 72 % -9.54 C
3266 29-02-2004 05:25:12 -4.8 C 71 % -9.24 C
3267 29-02-2004 05:37:12 -4.6 C 69 % -9.41 C
3268 29-02-2004 05:49:15 -4.7 C 68 % -9.69 C
3269 29-02-2004 06:01:09 -4.6 C 68 % -9.6 C
3270 29-02-2004 06:13:12 -4.4 C 68 % -9.4 C
3271 29-02-2004 06:25:53 -4.1 C 68 % -9.12 C
3272 29-02-2004 06:37:07 -3.9 C 67 % -9.11 C
3273 29-02-2004 06:49:07 -4 C 67 % -9.21 C
3274 29-02-2004 07:01:32 -3.9 C 67 % -9.11 C
3275 29-02-2004 07:13:46 -4.1 C 67 % -9.31 C
Sensor: Nr:Datum:Temp:Feuchte:Taupunkt:
Aussen-T/F 3276 29-02-2004 07:25:11 -4 C 68 % -9.02 C
3277 29-02-2004 07:37:11 -4.3 C 68 % -9.31 C
3278 29-02-2004 07:49:25 -4.6 C 69 % -9.41 C
3279 29-02-2004 08:01:49 -4.7 C 69 % -9.51 C
3280 29-02-2004 08:13:49 -4.8 C 70 % -9.42 C
3281 29-02-2004 08:25:03 -4.8 C 70 % -9.42 C
3282 29-02-2004 08:37:28 -4.7 C 70 % -9.32 C
3283 29-02-2004 08:49:42 -4.6 C 71 % -9.05 C
3284 29-02-2004 09:01:42 -4.4 C 71 % -8.85 C
3285 29-02-2004 09:13:06 -3.8 C 70 % -8.46 C
3286 29-02-2004 09:25:21 -3.4 C 69 % -8.26 C
3287 29-02-2004 09:37:45 -3.3 C 68 % -8.35 C
3288 29-02-2004 09:49:45 -3 C 69 % -7.88 C
3289 29-02-2004 10:01:59 -2.5 C 68 % -7.58 C
3290 29-02-2004 10:13:23 -2.2 C 63 % -8.28 C
3291 29-02-2004 10:25:37 -2 C 65 % -7.69 C
3292 29-02-2004 10:37:37 -1.6 C 64 % -7.51 C
3293 29-02-2004 10:49:02 -1.1 C 64 % -7.03 C
3294 29-02-2004 11:01:16 -0.6 C 62 % -6.97 C
3295 29-02-2004 11:13:41 0.2 C 58 % -7.07 C
3296 29-02-2004 11:25:41 0.8 C 56 % -6.96 C
3297 29-02-2004 11:37:00 1.3 C 54 % -6.96 C
3298 29-02-2004 11:49:02 0.9 C 53 % -7.58 C
3299 29-02-2004 12:01:01 0.9 C 53 % -7.58 C
3300 29-02-2004 12:13:01 0.6 C 53 % -7.86 C
Sensor: Nr:Datum:Temp:Feuchte:Taupunkt:
Aussen-T/F 3301 29-02-2004 12:25:01 0.6 C 53 % -7.86 C
3302 29-02-2004 12:37:02 0.8 C 52 % -7.92 C
3303 29-02-2004 12:49:00 1.4 C 51 % -7.61 C
3304 29-02-2004 13:01:00 1.9 C 50 % -7.4 C
3305 29-02-2004 13:13:00 2.2 C 48 % -7.65 C
3306 29-02-2004 13:25:59 3.2 C 46 % -7.28 C
3307 29-02-2004 13:37:58 3.8 C 42 % -7.91 C
3308 29-02-2004 13:49:01 3.8 C 42 % -7.91 C
3309 29-02-2004 14:01:01 4.2 C 38 % -8.83 C
3310 29-02-2004 14:13:01 3.5 C 39 % -9.12 C
3311 29-02-2004 14:25:01 3.3 C 41 % -8.67 C
3312 29-02-2004 14:37:01 3.2 C 43 % -8.15 C
3313 29-02-2004 14:49:00 3.9 C 39 % -8.77 C
3314 29-02-2004 15:01:00 4.6 C 36 % -9.16 C
3315 29-02-2004 15:13:00 5.2 C 35 % -8.98 C
3316 29-02-2004 15:25:58 4.7 C 35 % -9.43 C
3317 29-02-2004 15:37:57 5.5 C 34 % -9.09 C
3318 29-02-2004 15:49:01 4.6 C 35 % -9.52 C
3319 29-02-2004 16:01:01 5.2 C 34 % -9.35 C
3320 29-02-2004 16:13:01 4.5 C 35 % -9.6 C
3321 29-02-2004 16:25:01 4.7 C 35 % -9.43 C
3322 29-02-2004 16:37:01 5.2 C 35 % -8.98 C
3323 29-02-2004 16:49:00 5.2 C 32 % -10.12 C
3324 29-02-2004 17:01:00 5.2 C 32 % -10.12 C
3325 29-02-2004 17:13:00 5.5 C 34 % -9.09 C
Sensor: Nr:Datum:Temp:Feuchte:Taupunkt:
Aussen-T/F 3326 29-02-2004 17:25:58 4.7 C 41 % -7.4 C
3327 29-02-2004 17:37:57 3.4 C 48 % -6.55 C
3328 29-02-2004 17:49:03 3.2 C 50 % -6.2 C
3329 29-02-2004 18:01:01 2.5 C 50 % -6.85 C
3330 29-02-2004 18:13:01 2.2 C 48 % -7.65 C
3331 29-02-2004 18:25:01 1.8 C 50 % -7.49 C
3332 29-02-2004 18:37:01 1.5 C 52 % -7.27 C
3333 29-02-2004 18:49:00 1.1 C 54 % -7.15 C
3334 29-02-2004 19:01:59 0.8 C 56 % -6.96 C
3335 29-02-2004 19:13:59 0.6 C 56 % -7.15 C
3336 29-02-2004 19:25:58 0.3 C 59 % -6.75 C
3337 29-02-2004 19:37:57 0.1 C 60 % -6.72 C
3338 29-02-2004 19:49:01 0.3 C 60 % -6.53 C
3339 29-02-2004 20:01:01 0.2 C 60 % -6.63 C
3340 29-02-2004 20:13:01 0.1 C 61 % -6.51 C
3341 29-02-2004 20:25:01 -0.1 C 61 % -6.71 C
3342 29-02-2004 20:37:00 -0.3 C 62 % -6.68 C
3343 29-02-2004 20:49:01 -0.4 C 63 % -6.57 C
3344 29-02-2004 21:01:01 -0.6 C 65 % -6.35 C
3345 29-02-2004 21:13:01 -0.8 C 66 % -6.35 C
3346 29-02-2004 21:25:01 -0.9 C 66 % -6.44 C
3347 29-02-2004 21:37:01 -1 C 66 % -6.54 C
3348 29-02-2004 21:49:01 -1.1 C 66 % -6.63 C
3349 29-02-2004 22:01:00 -1.2 C 66 % -6.73 C
3350 29-02-2004 22:13:00 -1.2 C 66 % -6.73 C
Sensor: Nr:Datum:Temp:Feuchte:Taupunkt:
Aussen-T/F 3351 29-02-2004 22:25:58 -1.4 C 66 % -6.92 C
3352 29-02-2004 22:37:57 -1.5 C 66 % -7.01 C
3353 29-02-2004 22:49:01 -1.6 C 66 % -7.11 C
3354 29-02-2004 23:01:01 -1.6 C 65 % -7.31 C
3355 29-02-2004 23:13:01 -1.7 C 65 % -7.4 C
3356 29-02-2004 23:25:01 -1.7 C 65 % -7.4 C
3357 29-02-2004 23:37:01 -1.7 C 65 % -7.4 C
3358 29-02-2004 23:49:01 -1.8 C 65 % -7.5 C
3359 01-03-2004 00:01:00 -1.8 C 65 % -7.5 C
3360 01-03-2004 00:13:01 -1.8 C 64 % -7.7 C
3361 01-03-2004 00:25:00 -1.7 C 63 % -7.81 C
3362 01-03-2004 00:37:00 -1.8 C 64 % -7.7 C
3363 01-03-2004 00:49:00 -1.9 C 64 % -7.79 C
3364 01-03-2004 01:01:00 -2 C 64 % -7.89 C
3365 01-03-2004 01:13:00 -2 C 64 % -7.89 C
3366 01-03-2004 01:25:01 -2.2 C 63 % -8.28 C
3367 01-03-2004 01:37:01 -2.3 C 62 % -8.58 C
3368 01-03-2004 01:49:00 -2.3 C 61 % -8.79 C
3369 01-03-2004 02:01:00 -2.3 C 61 % -8.79 C
3370 01-03-2004 02:13:00 -2.6 C 62 % -8.86 C
3371 01-03-2004 02:25:00 -2.6 C 63 % -8.66 C
3372 01-03-2004 02:37:00 -2.8 C 63 % -8.85 C
3373 01-03-2004 02:50:03 -2.8 C 63 % -8.85 C
3374 01-03-2004 03:02:03 -3 C 64 % -8.84 C
3375 01-03-2004 03:14:03 -3.3 C 64 % -9.12 C
Sensor: Nr:Datum:Temp:Feuchte:Taupunkt:
Aussen-T/F 3376 01-03-2004 03:26:03 -3.3 C 65 % -8.93 C
3377 01-03-2004 03:37:59 -3.4 C 65 % -9.02 C
3378 01-03-2004 03:49:59 -3.4 C 65 % -9.02 C
3379 01-03-2004 04:02:59 -3.1 C 65 % -8.74 C
3380 01-03-2004 04:14:58 -3 C 64 % -8.84 C
3381 01-03-2004 04:26:58 -2.9 C 65 % -8.55 C
3382 01-03-2004 04:38:57 -2.9 C 65 % -8.55 C
3383 01-03-2004 04:50:01 -2.9 C 66 % -8.35 C
3384 01-03-2004 05:02:01 -3.2 C 66 % -8.64 C
3385 01-03-2004 05:14:01 -3.4 C 69 % -8.26 C
3386 01-03-2004 05:26:01 -3.5 C 69 % -8.36 C
3387 01-03-2004 05:38:00 -3.8 C 71 % -8.28 C
3388 01-03-2004 05:50:01 -3.8 C 72 % -8.1 C
3389 01-03-2004 06:02:01 -3.8 C 72 % -8.1 C
3390 01-03-2004 06:14:01 -3.9 C 72 % -8.19 C
3391 01-03-2004 06:26:01 -4 C 72 % -8.29 C
3392 01-03-2004 06:38:01 -4.1 C 73 % -8.21 C
3393 01-03-2004 06:50:00 -4.1 C 73 % -8.21 C
3394 01-03-2004 07:02:00 -4.4 C 72 % -8.68 C
3395 01-03-2004 07:14:00 -4.4 C 73 % -8.5 C
3396 01-03-2004 07:26:59 -4.2 C 73 % -8.31 C
3397 01-03-2004 07:38:58 -4.3 C 73 % -8.4 C
3398 01-03-2004 07:50:01 -4.2 C 73 % -8.31 C
3399 01-03-2004 08:02:00 -4.2 C 73 % -8.31 C
3400 01-03-2004 08:14:00 -4.1 C 73 % -8.21 C
Sensor: Nr:Datum:Temp:Feuchte:Taupunkt:
Aussen-T/F 3401 01-03-2004 08:26:01 -4.3 C 73 % -8.4 C
3402 01-03-2004 08:38:01 -4.2 C 73 % -8.31 C
3403 01-03-2004 08:50:01 -4.2 C 73 % -8.31 C
3404 01-03-2004 09:02:00 -3.9 C 72 % -8.19 C
3405 01-03-2004 09:14:00 -3.8 C 71 % -8.28 C
3406 01-03-2004 09:26:59 -3.5 C 71 % -7.99 C
3407 01-03-2004 09:38:58 -3.2 C 70 % -7.88 C
3408 01-03-2004 09:50:01 -2.8 C 69 % -7.68 C
3409 01-03-2004 10:02:01 -2.3 C 68 % -7.39 C
3410 01-03-2004 10:14:01 -1.9 C 65 % -7.59 C
3411 01-03-2004 10:26:01 -1.3 C 63 % -7.43 C
3412 01-03-2004 10:38:01 -0.9 C 61 % -7.46 C
3413 01-03-2004 10:50:00 -0.3 C 58 % -7.55 C
3414 01-03-2004 11:02:00 0.2 C 54 % -7.99 C
3415 01-03-2004 11:14:00 0.5 C 52 % -8.19 C
3416 01-03-2004 11:26:58 1.6 C 45 % -9.03 C
3417 01-03-2004 11:38:57 1.4 C 45 % -9.21 C
3418 01-03-2004 11:50:01 1.4 C 45 % -9.21 C
3419 01-03-2004 12:02:01 2.2 C 43 % -9.06 C
3420 01-03-2004 12:14:01 2 C 40 % -10.15 C
3421 01-03-2004 12:26:01 2.2 C 41 % -9.66 C
3422 01-03-2004 12:38:01 3 C 39 % -9.57 C
3423 01-03-2004 12:50:01 3.3 C 38 % -9.63 C
3424 01-03-2004 13:02:01 2.3 C 39 % -10.2 C
3425 01-03-2004 13:14:01 2.9 C 40 % -9.34 C
Sensor: Nr:Datum:Temp:Feuchte:Taupunkt:
Aussen-T/F 3426 01-03-2004 13:26:01 3 C 35 % -10.93 C
3427 01-03-2004 13:38:01 3.1 C 36 % -10.49 C
3428 01-03-2004 13:50:00 4.3 C 34 % -10.15 C
3429 01-03-2004 14:02:00 4.4 C 32 % -10.82 C
3430 01-03-2004 14:14:00 3.7 C 35 % -10.31 C
3431 01-03-2004 14:26:59 4 C 33 % -10.79 C
3432 01-03-2004 14:38:57 4.7 C 33 % -10.17 C
3433 01-03-2004 14:50:01 4 C 32 % -11.17 C
3434 01-03-2004 15:02:01 3.8 C 35 % -10.23 C
3435 01-03-2004 15:14:01 4.4 C 34 % -10.06 C
3436 01-03-2004 15:26:01 4.3 C 33 % -10.52 C
3437 01-03-2004 15:38:01 4.8 C 31 % -10.87 C
3438 01-03-2004 15:50:00 4.9 C 30 % -11.19 C
3439 01-03-2004 16:14:00 5.2 C 28 % -11.79 C
3440 01-03-2004 16:14:58 5.1 C 28 % -11.87 C
3441 01-03-2004 16:26:58 5.9 C 28 % -11.18 C
3442 01-03-2004 16:38:57 4.9 C 30 % -11.19 C
3443 01-03-2004 16:50:01 5.1 C 30 % -11.02 C
3444 01-03-2004 17:02:01 4.8 C 32 % -10.47 C
3445 01-03-2004 17:14:01 4.2 C 34 % -10.24 C
3446 01-03-2004 17:26:01 4 C 34 % -10.41 C
3447 01-03-2004 17:38:01 3.5 C 36 % -10.14 C
3448 01-03-2004 17:50:01 2.7 C 39 % -9.84 C
3449 01-03-2004 18:02:00 2.2 C 41 % -9.66 C
3450 01-03-2004 18:14:00 1.8 C 44 % -9.13 C
Sensor: Nr:Datum:Temp:Feuchte:Taupunkt:
Aussen-T/F 3451 01-03-2004 18:26:59 1.6 C 45 % -9.03 C
3452 01-03-2004 18:38:58 1.3 C 46 % -9.02 C
3453 01-03-2004 18:50:01 1.1 C 47 % -8.93 C
3454 01-03-2004 19:02:01 1 C 48 % -8.75 C
3455 01-03-2004 19:14:01 1 C 48 % -8.75 C
3456 01-03-2004 19:26:01 1 C 49 % -8.49 C
3457 01-03-2004 19:38:01 0.8 C 50 % -8.42 C
3458 01-03-2004 19:50:01 0.7 C 51 % -8.26 C
3459 01-03-2004 20:13:59 0.6 C 51 % -8.35 C
3460 01-03-2004 20:14:58 0.6 C 52 % -8.1 C
3461 01-03-2004 20:26:58 0.6 C 53 % -7.86 C
3462 01-03-2004 20:38:57 0.6 C 53 % -7.86 C
3463 01-03-2004 20:50:01 0.8 C 52 % -7.92 C
3464 01-03-2004 21:02:01 1 C 51 % -7.98 C
3465 01-03-2004 21:14:01 1 C 51 % -7.98 C
3466 01-03-2004 21:26:01 1.1 C 51 % -7.89 C
3467 01-03-2004 21:38:01 1.1 C 51 % -7.89 C
3468 01-03-2004 21:50:00 1.1 C 52 % -7.64 C
3469 01-03-2004 22:02:00 1 C 52 % -7.73 C
3470 01-03-2004 22:14:00 1 C 53 % -7.48 C
3471 01-03-2004 22:26:58 0.9 C 55 % -7.1 C
3472 01-03-2004 22:38:57 1 C 54 % -7.24 C
3473 01-03-2004 22:50:01 1 C 56 % -6.77 C
3474 01-03-2004 23:02:01 1 C 55 % -7.01 C
3475 01-03-2004 23:14:01 1 C 57 % -6.54 C
Sensor: Nr:Datum:Temp:Feuchte:Taupunkt:
Aussen-T/F 3476 01-03-2004 23:26:01 1 C 60 % -5.87 C
3477 01-03-2004 23:38:01 0.7 C 63 % -5.52 C
3478 01-03-2004 23:50:00 0.6 C 66 % -5 C
3479 02-03-2004 00:02:59 0.5 C 65 % -5.3 C
3480 02-03-2004 00:14:58 0.5 C 66 % -5.1 C
3481 02-03-2004 00:26:58 0.4 C 67 % -5 C
3482 02-03-2004 00:38:57 0.4 C 67 % -5 C
3483 02-03-2004 00:50:01 0.4 C 67 % -5 C
3484 02-03-2004 01:02:01 0.3 C 67 % -5.09 C
3485 02-03-2004 01:14:01 0.3 C 67 % -5.09 C
3486 02-03-2004 01:26:01 0.2 C 67 % -5.19 C
3487 02-03-2004 01:38:01 0.2 C 68 % -4.99 C
3488 02-03-2004 01:50:01 0.2 C 67 % -5.19 C
3489 02-03-2004 02:02:01 0.2 C 67 % -5.19 C
3490 02-03-2004 02:14:01 0.3 C 67 % -5.09 C
3491 02-03-2004 02:26:01 0.4 C 67 % -5 C
3492 02-03-2004 02:38:01 0.5 C 66 % -5.1 C
3493 02-03-2004 02:51:01 0.5 C 66 % -5.1 C
3494 02-03-2004 03:03:01 0.6 C 66 % -5 C
3495 02-03-2004 03:15:59 0.7 C 66 % -4.91 C
3496 02-03-2004 03:26:59 0.7 C 66 % -4.91 C
3497 02-03-2004 03:39:01 0.7 C 66 % -4.91 C
3498 02-03-2004 03:51:01 0.8 C 66 % -4.81 C
3499 02-03-2004 04:03:01 0.8 C 66 % -4.81 C
3500 02-03-2004 04:15:01 1 C 65 % -4.82 C
Sensor: Nr:Datum:Temp:Feuchte:Taupunkt:
Aussen-T/F 3501 02-03-2004 04:27:01 0.9 C 67 % -4.52 C
3502 02-03-2004 04:39:01 1.1 C 67 % -4.33 C
3503 02-03-2004 04:51:00 1.5 C 70 % -3.36 C
3504 02-03-2004 05:03:59 1.8 C 70 % -3.07 C
3505 02-03-2004 05:15:58 1.8 C 72 % -2.7 C
3506 02-03-2004 05:27:58 1.8 C 74 % -2.33 C
3507 02-03-2004 05:39:57 1.8 C 74 % -2.33 C
3508 02-03-2004 05:51:01 1.9 C 76 % -1.87 C
3509 02-03-2004 06:03:01 1.8 C 77 % -1.79 C
3510 02-03-2004 06:15:01 1.7 C 78 % -1.71 C
3511 02-03-2004 06:27:01 1.7 C 78 % -1.71 C
3512 02-03-2004 06:39:00 1.7 C 78 % -1.71 C
3513 02-03-2004 06:51:01 1.8 C 78 % -1.62 C
3514 02-03-2004 07:03:01 1.8 C 79 % -1.44 C
3515 02-03-2004 07:15:01 1.8 C 79 % -1.44 C
3516 02-03-2004 07:27:01 1.9 C 79 % -1.35 C
3517 02-03-2004 07:39:01 2 C 78 % -1.42 C
3518 02-03-2004 07:51:00 2 C 78 % -1.42 C
3519 02-03-2004 08:03:00 2.2 C 78 % -1.23 C
3520 02-03-2004 08:15:58 2.1 C 79 % -1.15 C
3521 02-03-2004 08:27:58 2.1 C 79 % -1.15 C
3522 02-03-2004 08:39:57 2.1 C 80 % -0.98 C
3523 02-03-2004 08:51:01 2.1 C 81 % -0.81 C
3524 02-03-2004 09:03:01 2.2 C 81 % -0.71 C
3525 02-03-2004 09:15:01 2.3 C 80 % -0.79 C
Sensor: Nr:Datum:Temp:Feuchte:Taupunkt:
Aussen-T/F 3526 02-03-2004 09:27:01 2.4 C 79 % -0.86 C
3527 02-03-2004 09:39:01 2.6 C 79 % -0.67 C
3528 02-03-2004 09:51:01 2.8 C 78 % -0.65 C
3529 02-03-2004 10:03:01 3 C 76 % -0.81 C
3530 02-03-2004 10:15:02 3 C 76 % -0.81 C
3531 02-03-2004 10:27:02 3.1 C 75 % -0.89 C
3532 02-03-2004 10:39:01 3.1 C 75 % -0.89 C
3533 02-03-2004 10:51:00 3.1 C 75 % -0.89 C
3534 02-03-2004 11:03:00 2.9 C 76 % -0.9 C
3535 02-03-2004 11:15:59 3 C 75 % -0.99 C
3536 02-03-2004 11:27:59 3 C 74 % -1.17 C
3537 02-03-2004 11:39:57 3.1 C 74 % -1.07 C
3538 02-03-2004 11:51:01 3.3 C 73 % -1.06 C
3539 02-03-2004 12:03:01 3.3 C 72 % -1.25 C
3540 02-03-2004 12:15:01 3.3 C 72 % -1.25 C
3541 02-03-2004 12:27:01 3.5 C 71 % -1.25 C
3542 02-03-2004 12:39:02 3.6 C 68 % -1.74 C
3543 02-03-2004 12:51:00 3.8 C 63 % -2.58 C
3544 02-03-2004 13:03:00 4 C 60 % -3.05 C
3545 02-03-2004 13:15:59 4.3 C 57 % -3.45 C
3546 02-03-2004 13:27:59 4.2 C 57 % -3.54 C
3547 02-03-2004 13:39:58 4.5 C 57 % -3.26 C
3548 02-03-2004 13:51:01 4.5 C 57 % -3.26 C
3549 02-03-2004 14:03:00 4.4 C 56 % -3.59 C
3550 02-03-2004 14:15:00 4.5 C 55 % -3.74 C
Sensor: Nr:Datum:Temp:Feuchte:Taupunkt:
Aussen-T/F 3551 02-03-2004 14:27:00 4.7 C 53 % -4.05 C
3552 02-03-2004 14:39:00 4.9 C 51 % -4.37 C
3553 02-03-2004 14:51:01 5 C 51 % -4.28 C
3554 02-03-2004 15:03:01 5.3 C 50 % -4.26 C
3555 02-03-2004 15:15:01 5.2 C 48 % -4.89 C
3556 02-03-2004 15:27:01 5.4 C 48 % -4.71 C
3557 02-03-2004 15:39:01 6 C 47 % -4.44 C
3558 02-03-2004 15:51:01 6.4 C 47 % -4.07 C
3559 02-03-2004 16:03:01 6.4 C 43 % -5.25 C
3560 02-03-2004 16:15:01 6.7 C 44 % -4.67 C
3561 02-03-2004 16:27:01 7 C 41 % -5.33 C
3562 02-03-2004 16:39:01 5.7 C 46 % -5 C
3563 02-03-2004 16:51:00 5.8 C 47 % -4.62 C
3564 02-03-2004 17:03:00 5.7 C 47 % -4.71 C
3565 02-03-2004 17:15:58 5.5 C 48 % -4.62 C
3566 02-03-2004 17:27:58 5.4 C 48 % -4.71 C
3567 02-03-2004 17:39:57 5.4 C 48 % -4.71 C
3568 02-03-2004 17:51:01 5.4 C 48 % -4.71 C
3569 02-03-2004 18:03:01 5.3 C 48 % -4.8 C
3570 02-03-2004 18:15:01 5 C 48 % -5.08 C
3571 02-03-2004 18:27:01 4.7 C 50 % -4.82 C
3572 02-03-2004 18:39:01 4.8 C 50 % -4.72 C
3573 02-03-2004 18:51:01 4.6 C 51 % -4.65 C
3574 02-03-2004 19:03:01 4.6 C 50 % -4.91 C
3575 02-03-2004 19:15:01 4.3 C 51 % -4.92 C
Sensor: Nr:Datum:Temp:Feuchte:Taupunkt:
Aussen-T/F 3576 02-03-2004 19:27:01 4.3 C 51 % -4.92 C
3577 02-03-2004 19:39:01 4.3 C 51 % -4.92 C
3578 02-03-2004 19:51:01 4.2 C 51 % -5.02 C
3579 02-03-2004 20:03:00 4.2 C 51 % -5.02 C
3580 02-03-2004 20:15:59 4 C 52 % -4.95 C
3581 02-03-2004 20:27:59 4 C 52 % -4.95 C
3582 02-03-2004 20:39:57 4 C 52 % -4.95 C
3583 02-03-2004 20:51:01 3.9 C 54 % -4.54 C
3584 02-03-2004 21:03:01 3.8 C 54 % -4.63 C
3585 02-03-2004 21:15:01 3.8 C 55 % -4.39 C
3586 02-03-2004 21:27:01 3.8 C 55 % -4.39 C
3587 02-03-2004 21:39:01 3.8 C 56 % -4.15 C
3588 02-03-2004 21:51:00 3.7 C 55 % -4.49 C
3589 02-03-2004 22:03:00 3.6 C 56 % -4.34 C
3590 02-03-2004 22:15:58 3.6 C 57 % -4.11 C
3591 02-03-2004 22:27:58 3.8 C 56 % -4.15 C
3592 02-03-2004 22:39:57 3.8 C 56 % -4.15 C
3593 02-03-2004 22:51:01 3.9 C 56 % -4.06 C
3594 02-03-2004 23:03:01 3.9 C 56 % -4.06 C
3595 02-03-2004 23:15:01 3.9 C 56 % -4.06 C
3596 02-03-2004 23:27:01 3.7 C 56 % -4.25 C
3597 02-03-2004 23:39:01 3.6 C 56 % -4.34 C
3598 02-03-2004 23:51:01 3.3 C 57 % -4.39 C
3599 03-03-2004 00:03:01 3.5 C 58 % -3.97 C
3600 03-03-2004 00:15:01 3.5 C 57 % -4.2 C
Sensor: Nr:Datum:Temp:Feuchte:Taupunkt:
Aussen-T/F 3601 03-03-2004 00:27:01 3.5 C 57 % -4.2 C
3602 03-03-2004 00:39:01 3.5 C 58 % -3.97 C
3603 03-03-2004 00:51:00 3.4 C 58 % -4.06 C
3604 03-03-2004 01:03:00 3.4 C 59 % -3.84 C
3605 03-03-2004 01:15:59 3.3 C 59 % -3.93 C
3606 03-03-2004 01:27:59 3.3 C 59 % -3.93 C
3607 03-03-2004 01:39:57 3.3 C 59 % -3.93 C
3608 03-03-2004 01:51:01 3.2 C 60 % -3.8 C
3609 03-03-2004 02:03:01 3.1 C 60 % -3.89 C
3610 03-03-2004 02:15:01 3 C 61 % -3.77 C
3611 03-03-2004 02:27:01 2.8 C 62 % -3.74 C
3612 03-03-2004 02:39:01 2.8 C 62 % -3.74 C
3613 03-03-2004 02:52:01 2.8 C 61 % -3.96 C
3614 03-03-2004 03:04:01 2.8 C 61 % -3.96 C
3615 03-03-2004 03:16:00 2.7 C 61 % -4.05 C
3616 03-03-2004 03:28:00 2.6 C 61 % -4.15 C
3617 03-03-2004 03:40:01 2.6 C 61 % -4.15 C
3618 03-03-2004 03:52:01 2.5 C 62 % -4.03 C
3619 03-03-2004 04:04:00 2.4 C 62 % -4.12 C
3620 03-03-2004 04:16:00 2.3 C 62 % -4.21 C
3621 03-03-2004 04:28:00 2.2 C 62 % -4.31 C
3622 03-03-2004 04:40:00 2.1 C 61 % -4.62 C
3623 03-03-2004 04:52:01 1.7 C 63 % -4.57 C
3624 03-03-2004 05:04:01 1.3 C 63 % -4.95 C
3625 03-03-2004 05:16:01 1.1 C 64 % -4.93 C
Sensor: Nr:Datum:Temp:Feuchte:Taupunkt:
Aussen-T/F 3626 03-03-2004 05:28:01 0.8 C 65 % -5.01 C
3627 03-03-2004 05:40:00 0.7 C 65 % -5.11 C
3628 03-03-2004 05:52:01 0.5 C 65 % -5.3 C
3629 03-03-2004 06:04:01 0.5 C 65 % -5.3 C
3630 03-03-2004 06:16:01 0.5 C 64 % -5.5 C
3631 03-03-2004 06:28:01 0.3 C 65 % -5.49 C
3632 03-03-2004 06:40:01 0.1 C 66 % -5.48 C
3633 03-03-2004 06:52:00 0.1 C 66 % -5.48 C
3634 03-03-2004 07:04:00 0 C 66 % -5.58 C
3635 03-03-2004 07:16:58 0.2 C 66 % -5.38 C
3636 03-03-2004 07:28:58 0.4 C 65 % -5.39 C
3637 03-03-2004 07:40:57 0.6 C 64 % -5.41 C
3638 03-03-2004 07:52:01 0.7 C 63 % -5.52 C
3639 03-03-2004 08:04:01 0.7 C 63 % -5.52 C
3640 03-03-2004 08:16:01 0.6 C 63 % -5.61 C
3641 03-03-2004 08:28:01 0.6 C 63 % -5.61 C
3642 03-03-2004 08:40:01 0.5 C 63 % -5.71 C
3643 03-03-2004 08:52:01 0.4 C 64 % -5.6 C
3644 03-03-2004 09:04:01 0.5 C 63 % -5.71 C
3645 03-03-2004 09:16:01 0.6 C 63 % -5.61 C
3646 03-03-2004 09:28:01 0.8 C 62 % -5.63 C
3647 03-03-2004 09:40:01 1 C 60 % -5.87 C
3648 03-03-2004 09:52:00 1.4 C 60 % -5.5 C
3649 03-03-2004 10:04:00 1.7 C 58 % -5.66 C
3650 03-03-2004 10:16:59 1.9 C 58 % -5.47 C
Sensor: Nr:Datum:Temp:Feuchte:Taupunkt:
Aussen-T/F 3651 03-03-2004 10:28:59 2.2 C 55 % -5.89 C
3652 03-03-2004 10:40:57 2.5 C 54 % -5.85 C
3653 03-03-2004 10:52:01 2.8 C 53 % -5.81 C
3654 03-03-2004 11:04:01 3.2 C 52 % -5.69 C
3655 03-03-2004 11:16:01 3.5 C 51 % -5.66 C
3656 03-03-2004 11:28:01 3.8 C 50 % -5.65 C
3657 03-03-2004 11:40:01 4.2 C 48 % -5.81 C
3658 03-03-2004 11:52:00 4.6 C 47 % -5.72 C
3659 03-03-2004 12:03:59 5 C 46 % -5.64 C
3660 03-03-2004 12:16:58 5.4 C 45 % -5.56 C
3661 03-03-2004 12:28:58 6 C 43 % -5.61 C
3662 03-03-2004 12:40:57 6.4 C 41 % -5.87 C
3663 03-03-2004 12:52:01 7.2 C 41 % -5.15 C
3664 03-03-2004 13:04:01 8 C 39 % -5.09 C
3665 03-03-2004 13:16:01 8.2 C 37 % -5.6 C
3666 03-03-2004 13:28:01 8 C 36 % -6.14 C
3667 03-03-2004 13:40:01 8.5 C 37 % -5.33 C
3668 03-03-2004 13:52:01 8.5 C 35 % -6.06 C
3669 03-03-2004 14:04:01 8.6 C 34 % -6.35 C
3670 03-03-2004 14:16:01 8.9 C 34 % -6.09 C
3671 03-03-2004 14:28:01 9.6 C 33 % -5.86 C
3672 03-03-2004 14:40:01 10.1 C 32 % -5.82 C
3673 03-03-2004 14:52:00 10.1 C 31 % -6.24 C
3674 03-03-2004 15:04:00 10.2 C 29 % -7.02 C
3675 03-03-2004 15:16:58 9.8 C 31 % -6.5 C
Sensor: Nr:Datum:Temp:Feuchte:Taupunkt:
Aussen-T/F 3676 03-03-2004 15:28:58 10.4 C 30 % -6.4 C
3677 03-03-2004 15:40:57 11.1 C 28 % -6.69 C
3678 03-03-2004 15:52:01 10.8 C 29 % -6.5 C
3679 03-03-2004 16:04:01 11 C 27 % -7.25 C
3680 03-03-2004 16:16:01 11.2 C 27 % -7.08 C
3681 03-03-2004 16:28:01 10.4 C 28 % -7.3 C
3682 03-03-2004 16:40:01 10.7 C 28 % -7.04 C
3683 03-03-2004 16:52:00 10.3 C 28 % -7.38 C
3684 03-03-2004 17:04:59 9.8 C 30 % -6.92 C
3685 03-03-2004 17:16:58 10 C 32 % -5.91 C
3686 03-03-2004 17:28:58 9.5 C 30 % -7.19 C
3687 03-03-2004 17:40:57 8.9 C 33 % -6.47 C
3688 03-03-2004 17:52:01 8.2 C 33 % -7.09 C
3689 03-03-2004 18:04:01 7.4 C 35 % -7.03 C
3690 03-03-2004 18:16:01 6.9 C 36 % -7.11 C
3691 03-03-2004 18:28:01 6.6 C 38 % -6.68 C
3692 03-03-2004 18:40:01 5.8 C 41 % -6.41 C
3693 03-03-2004 18:52:01 5.2 C 45 % -5.74 C
3694 03-03-2004 19:04:01 4.7 C 47 % -5.63 C
3695 03-03-2004 19:16:01 4.3 C 48 % -5.72 C
3696 03-03-2004 19:28:01 4.1 C 49 % -5.63 C
3697 03-03-2004 19:40:01 3.6 C 52 % -5.32 C
3698 03-03-2004 19:52:01 3.5 C 52 % -5.41 C
3699 03-03-2004 20:04:00 3.1 C 54 % -5.29 C
3700 03-03-2004 20:16:59 2.7 C 57 % -4.95 C
Sensor: Nr:Datum:Temp:Feuchte:Taupunkt:
Aussen-T/F 3701 03-03-2004 20:28:59 2.5 C 59 % -4.68 C
3702 03-03-2004 20:40:58 2.4 C 59 % -4.78 C
3703 03-03-2004 20:52:01 2.1 C 59 % -5.06 C
3704 03-03-2004 21:04:00 1.8 C 62 % -4.69 C
3705 03-03-2004 21:16:01 1.7 C 61 % -5 C
3706 03-03-2004 21:28:01 1.5 C 62 % -4.97 C
3707 03-03-2004 21:40:00 1.3 C 63 % -4.95 C
3708 03-03-2004 21:52:01 1.1 C 62 % -5.35 C
3709 03-03-2004 22:04:01 1 C 63 % -5.23 C
3710 03-03-2004 22:16:01 0.7 C 64 % -5.31 C
3711 03-03-2004 22:28:01 0.6 C 65 % -5.2 C
3712 03-03-2004 22:40:01 0.5 C 66 % -5.1 C
3713 03-03-2004 22:52:01 0.4 C 66 % -5.19 C
3714 03-03-2004 23:04:01 0.2 C 66 % -5.38 C
3715 03-03-2004 23:16:01 0.1 C 66 % -5.48 C
3716 03-03-2004 23:28:01 -0.1 C 66 % -5.68 C
3717 03-03-2004 23:40:01 -0.1 C 67 % -5.48 C
3718 03-03-2004 23:52:00 0 C 67 % -5.38 C
3719 04-03-2004 00:04:00 -0.2 C 67 % -5.58 C
3720 04-03-2004 00:16:59 -0.4 C 67 % -5.77 C
3721 04-03-2004 00:28:59 -0.6 C 67 % -5.96 C
3722 04-03-2004 00:40:57 -0.9 C 68 % -6.05 C
3723 04-03-2004 00:52:01 -1 C 69 % -5.96 C
3724 04-03-2004 01:04:01 -1.1 C 70 % -5.86 C
3725 04-03-2004 01:16:01 -1.3 C 70 % -6.06 C
Sensor: Nr:Datum:Temp:Feuchte:Taupunkt:
Aussen-T/F 3726 04-03-2004 01:28:01 -1.4 C 71 % -5.97 C
3727 04-03-2004 01:40:01 -1.6 C 71 % -6.16 C
3728 04-03-2004 01:52:00 -1.7 C 72 % -6.07 C
3729 04-03-2004 02:04:00 -1.8 C 73 % -5.99 C
3730 04-03-2004 02:16:58 -1.9 C 73 % -6.09 C
3731 04-03-2004 02:28:58 -2.1 C 72 % -6.46 C
3732 04-03-2004 02:40:57 -2.1 C 73 % -6.28 C
3733 04-03-2004 02:53:02 -2.2 C 73 % -6.38 C
3734 04-03-2004 03:05:02 -2.3 C 73 % -6.47 C
3735 04-03-2004 03:17:02 -2.3 C 73 % -6.47 C
3736 04-03-2004 03:29:02 -2.2 C 74 % -6.2 C
3737 04-03-2004 03:41:00 -2.4 C 74 % -6.39 C
3738 04-03-2004 03:53:00 -2.5 C 74 % -6.49 C
3739 04-03-2004 04:05:00 -2.4 C 74 % -6.39 C
3740 04-03-2004 04:17:59 -2.5 C 74 % -6.49 C
3741 04-03-2004 04:29:59 -2.5 C 74 % -6.49 C
3742 04-03-2004 04:41:57 -2.5 C 74 % -6.49 C
3743 04-03-2004 04:53:01 -2.6 C 74 % -6.58 C
3744 04-03-2004 05:05:01 -2.4 C 75 % -6.22 C
3745 04-03-2004 05:17:01 -2.3 C 74 % -6.29 C
3746 04-03-2004 05:29:01 -2.5 C 73 % -6.67 C
3747 04-03-2004 05:41:01 -2.7 C 73 % -6.86 C
3748 04-03-2004 05:53:00 -2.8 C 73 % -6.95 C
3749 04-03-2004 06:05:00 -2.6 C 74 % -6.58 C
3750 04-03-2004 06:17:58 -2.6 C 74 % -6.58 C
Sensor: Nr:Datum:Temp:Feuchte:Taupunkt:
Aussen-T/F 3751 04-03-2004 06:29:58 -2.6 C 75 % -6.41 C
3752 04-03-2004 06:41:57 -2.6 C 74 % -6.58 C
3753 04-03-2004 06:53:01 -2.7 C 75 % -6.51 C
3754 04-03-2004 07:05:01 -2.8 C 75 % -6.6 C
3755 04-03-2004 07:17:01 -2.7 C 75 % -6.51 C
3756 04-03-2004 07:29:01 -2.6 C 75 % -6.41 C
3757 04-03-2004 07:41:01 -2.7 C 74 % -6.68 C
3758 04-03-2004 07:53:01 -2.5 C 75 % -6.31 C
3759 04-03-2004 08:05:01 -2.4 C 75 % -6.22 C
3760 04-03-2004 08:17:01 -2.4 C 74 % -6.39 C
3761 04-03-2004 08:29:01 -2.5 C 74 % -6.49 C
3762 04-03-2004 08:41:01 -2.4 C 75 % -6.22 C
3763 04-03-2004 08:53:00 -2.2 C 75 % -6.02 C
3764 04-03-2004 09:05:00 -2 C 75 % -5.83 C
3765 04-03-2004 09:17:59 -1.8 C 75 % -5.64 C
3766 04-03-2004 09:29:59 -1.5 C 74 % -5.52 C
3767 04-03-2004 09:41:57 -0.8 C 74 % -4.84 C
3768 04-03-2004 09:53:01 -0.1 C 70 % -4.9 C
3769 04-03-2004 10:05:01 0.4 C 68 % -4.8 C
3770 04-03-2004 10:17:01 1.4 C 66 % -4.24 C
3771 04-03-2004 10:29:01 2.1 C 62 % -4.4 C
3772 04-03-2004 10:41:01 2.2 C 60 % -4.74 C
3773 04-03-2004 10:53:00 2.8 C 57 % -4.86 C
3774 04-03-2004 11:05:00 3.5 C 57 % -4.2 C
3775 04-03-2004 11:17:58 4.1 C 54 % -4.36 C
Sensor: Nr:Datum:Temp:Feuchte:Taupunkt:
Aussen-T/F 3776 04-03-2004 11:29:58 4.7 C 52 % -4.3 C
3777 04-03-2004 11:41:57 4.8 C 52 % -4.2 C
3778 04-03-2004 11:53:01 5.1 C 51 % -4.18 C
3779 04-03-2004 12:05:01 5.3 C 52 % -3.74 C
3780 04-03-2004 12:17:01 6.2 C 48 % -3.98 C
3781 04-03-2004 12:29:01 7.1 C 45 % -4.01 C
3782 04-03-2004 12:41:01 7.4 C 44 % -4.04 C
3783 04-03-2004 12:53:01 7.8 C 42 % -4.29 C
3784 04-03-2004 13:05:01 8.6 C 41 % -3.89 C
3785 04-03-2004 13:17:01 8.9 C 40 % -3.95 C
3786 04-03-2004 13:29:01 8.9 C 38 % -4.63 C
3787 04-03-2004 13:41:01 9.5 C 37 % -4.44 C
3788 04-03-2004 13:53:00 10.2 C 35 % -4.56 C
3789 04-03-2004 14:05:00 10.7 C 35 % -4.11 C
3790 04-03-2004 14:17:59 10.5 C 32 % -5.47 C
3791 04-03-2004 14:29:59 10.4 C 32 % -5.56 C
3792 04-03-2004 14:41:57 9.9 C 35 % -4.82 C
3793 04-03-2004 14:53:01 10 C 33 % -5.51 C
3794 04-03-2004 15:05:01 10.8 C 32 % -5.21 C
3795 04-03-2004 15:17:01 11.1 C 30 % -5.79 C
3796 04-03-2004 15:29:01 11.1 C 31 % -5.37 C
3797 04-03-2004 15:41:01 10.5 C 31 % -5.89 C
3798 04-03-2004 15:53:00 10.3 C 31 % -6.06 C
3799 04-03-2004 16:05:59 10.1 C 31 % -6.24 C
3800 04-03-2004 16:17:58 10.3 C 32 % -5.65 C
Sensor: Nr:Datum:Temp:Feuchte:Taupunkt:
Aussen-T/F 3801 04-03-2004 16:29:58 10.3 C 31 % -6.06 C
3802 04-03-2004 16:41:57 10 C 32 % -5.91 C
3803 04-03-2004 16:53:01 9.7 C 41 % -2.9 C
3804 04-03-2004 17:05:01 9.4 C 37 % -4.53 C
3805 04-03-2004 17:17:01 9.1 C 37 % -4.8 C
3806 04-03-2004 17:29:01 8.9 C 40 % -3.95 C
3807 04-03-2004 17:41:01 8.6 C 39 % -4.55 C
3808 04-03-2004 17:53:01 8.4 C 41 % -4.07 C
3809 04-03-2004 18:05:01 8.1 C 42 % -4.02 C
3810 04-03-2004 18:17:01 7.8 C 45 % -3.37 C
3811 04-03-2004 18:29:01 7.4 C 46 % -3.44 C
3812 04-03-2004 18:41:01 7.1 C 47 % -3.43 C
3813 04-03-2004 18:53:01 6.9 C 48 % -3.33 C
3814 04-03-2004 19:05:00 6.8 C 47 % -3.71 C
3815 04-03-2004 19:17:58 6.8 C 46 % -3.99 C
3816 04-03-2004 19:29:58 6.8 C 45 % -4.28 C
3817 04-03-2004 19:41:57 6.6 C 45 % -4.47 C
3818 04-03-2004 19:53:01 6.5 C 44 % -4.85 C
3819 04-03-2004 20:05:01 6.5 C 43 % -5.16 C
3820 04-03-2004 20:17:01 6.4 C 42 % -5.56 C
3821 04-03-2004 20:29:01 6.3 C 44 % -5.03 C
3822 04-03-2004 20:41:01 6 C 46 % -4.72 C
3823 04-03-2004 20:53:00 5.7 C 48 % -4.43 C
3824 04-03-2004 21:05:59 5.5 C 49 % -4.35 C
3825 04-03-2004 21:17:58 5.4 C 49 % -4.44 C
Sensor: Nr:Datum:Temp:Feuchte:Taupunkt:
Aussen-T/F 3826 04-03-2004 21:29:58 5.2 C 48 % -4.89 C
3827 04-03-2004 21:41:57 5 C 49 % -4.81 C
3828 04-03-2004 21:53:01 4.9 C 49 % -4.9 C
3829 04-03-2004 22:05:01 4.6 C 50 % -4.91 C
3830 04-03-2004 22:17:01 4.3 C 51 % -4.92 C
3831 04-03-2004 22:29:01 3.8 C 54 % -4.63 C
3832 04-03-2004 22:41:01 3.6 C 53 % -5.07 C
3833 04-03-2004 22:53:00 3.5 C 53 % -5.16 C
3834 04-03-2004 23:05:59 3.3 C 53 % -5.35 C
3835 04-03-2004 23:17:58 3.1 C 55 % -5.05 C
3836 04-03-2004 23:29:58 2.8 C 56 % -5.09 C
3837 04-03-2004 23:41:57 2.4 C 56 % -5.46 C
3838 04-03-2004 23:53:01 2.3 C 56 % -5.56 C
3839 05-03-2004 00:05:01 2.1 C 56 % -5.74 C
3840 05-03-2004 00:17:01 2.1 C 56 % -5.74 C
3841 05-03-2004 00:29:01 1.9 C 58 % -5.47 C
3842 05-03-2004 00:41:00 1.8 C 58 % -5.57 C
3843 05-03-2004 00:53:01 1.7 C 58 % -5.66 C
3844 05-03-2004 01:05:01 1.5 C 59 % -5.62 C
3845 05-03-2004 01:17:01 1.4 C 59 % -5.72 C
3846 05-03-2004 01:29:01 1.2 C 60 % -5.69 C
3847 05-03-2004 01:41:01 1 C 60 % -5.87 C
3848 05-03-2004 01:53:01 1 C 60 % -5.87 C
3849 05-03-2004 02:05:00 0.8 C 62 % -5.63 C
3850 05-03-2004 02:17:58 0.6 C 62 % -5.82 C
Sensor: Nr:Datum:Temp:Feuchte:Taupunkt:
Aussen-T/F 3851 05-03-2004 02:29:58 0.5 C 63 % -5.71 C
3852 05-03-2004 02:41:57 0.5 C 63 % -5.71 C
3853 05-03-2004 02:54:03 0.4 C 63 % -5.8 C
3854 05-03-2004 03:06:03 0.3 C 65 % -5.49 C
3855 05-03-2004 03:18:02 0.3 C 65 % -5.49 C
3856 05-03-2004 03:30:02 0.3 C 65 % -5.49 C
3857 05-03-2004 03:42:00 0.2 C 65 % -5.58 C
3858 05-03-2004 03:54:00 0.1 C 65 % -5.68 C
3859 05-03-2004 04:06:00 0.2 C 65 % -5.58 C
3860 05-03-2004 04:18:59 -0.1 C 65 % -5.88 C
3861 05-03-2004 04:30:58 -0.3 C 65 % -6.07 C
3862 05-03-2004 04:42:58 -0.5 C 66 % -6.06 C
3863 05-03-2004 04:54:01 -0.5 C 67 % -5.86 C
3864 05-03-2004 05:06:01 -0.7 C 67 % -6.05 C
3865 05-03-2004 05:18:01 -0.8 C 68 % -5.96 C
3866 05-03-2004 05:30:01 -0.9 C 68 % -6.05 C
3867 05-03-2004 05:42:01 -1 C 67 % -6.34 C
3868 05-03-2004 05:54:00 -1 C 67 % -6.34 C
3869 05-03-2004 06:06:00 -1.1 C 68 % -6.24 C
3870 05-03-2004 06:18:58 -1.2 C 67 % -6.53 C
3871 05-03-2004 06:30:57 -1.2 C 66 % -6.73 C
3872 05-03-2004 06:42:57 -1.2 C 64 % -7.13 C
3873 05-03-2004 06:54:01 -1.2 C 64 % -7.13 C
3874 05-03-2004 07:06:01 -1.4 C 65 % -7.12 C
3875 05-03-2004 07:18:01 -1.4 C 63 % -7.52 C
Sensor: Nr:Datum:Temp:Feuchte:Taupunkt:
Aussen-T/F 3876 05-03-2004 07:30:01 -1.5 C 64 % -7.41 C
3877 05-03-2004 07:42:02 -1.4 C 64 % -7.32 C
3878 05-03-2004 07:54:00 -1.4 C 63 % -7.52 C
3879 05-03-2004 08:06:00 -1.3 C 64 % -7.22 C
3880 05-03-2004 08:18:58 -1.2 C 63 % -7.33 C
3881 05-03-2004 08:30:57 -1.1 C 63 % -7.24 C
3882 05-03-2004 08:42:57 -0.9 C 61 % -7.46 C
3883 05-03-2004 08:54:01 -0.8 C 60 % -7.58 C
3884 05-03-2004 09:06:01 -0.6 C 61 % -7.18 C
3885 05-03-2004 09:18:01 -0.6 C 61 % -7.18 C
3886 05-03-2004 09:30:01 -0.4 C 60 % -7.2 C
3887 05-03-2004 09:42:01 0.1 C 59 % -6.94 C
3888 05-03-2004 09:54:00 0.6 C 58 % -6.69 C
3889 05-03-2004 10:06:59 1.2 C 56 % -6.59 C
3890 05-03-2004 10:18:58 1.7 C 53 % -